Provisional Data: West Creek near Weber City, PA


Please select a monitoring station.
Please select start date.
Please select start date.

Toggle Unit: C/F Toggle Unit: C/F
Sample Time Temperature (C) Temperature (F) Specific Conductivity (mS/cm) pH   Turbidity (NTU+) DO (mg/L)
6/29/2021 12:00:00 AM 24.88 76.784 0.107 7.11 5.44 7.49
6/29/2021 12:15:00 AM 24.76 76.568 0.107 7.1 5.44 7.51
6/29/2021 12:30:00 AM 24.65 76.37 0.107 7.1 5.7 7.53
6/29/2021 12:45:00 AM 24.54 76.172 0.107 7.09 5.94 7.54
6/29/2021 1:00:00 AM 24.44 75.992 0.108 7.1 5.78 7.57
6/29/2021 1:15:00 AM 24.34 75.812 0.108 7.1 5.77 7.59
6/29/2021 1:30:00 AM 24.24 75.632 0.108 7.1 5.86 7.61
6/29/2021 1:45:00 AM 24.14 75.452 0.108 7.1 6.04 7.62
6/29/2021 2:00:00 AM 24.05 75.29 0.108 7.1 6.14 7.64
6/29/2021 2:15:00 AM 23.95 75.11 0.108 7.09 6.22 7.67
6/29/2021 2:30:00 AM 23.86 74.948 0.108 7.09 6.36 7.68
6/29/2021 2:45:00 AM 23.77 74.786 0.108 7.09 6.37 7.7
6/29/2021 3:00:00 AM 23.69 74.642 0.108 7.09 6.45 7.72
6/29/2021 3:15:00 AM 23.61 74.498 0.108 7.08 6.37 7.74
6/29/2021 3:30:00 AM 23.54 74.372 0.108 7.09 6.48 7.76
6/29/2021 3:45:00 AM 23.48 74.264 0.108 7.08 6.61 7.77
6/29/2021 4:00:00 AM 23.41 74.138 0.108 7.08 6.77 7.78
6/29/2021 4:15:00 AM 23.35 74.03 0.108 7.08 6.87 7.8
6/29/2021 4:30:00 AM 23.29 73.922 0.108 7.08 7.06 7.81
6/29/2021 4:45:00 AM 23.23 73.814 0.108 7.08 7.16 7.83
6/29/2021 5:00:00 AM 23.17 73.706 0.108 7.08 7.51 7.84
6/29/2021 5:15:00 AM 23.11 73.598 0.108 7.08 7.37 7.85
6/29/2021 5:30:00 AM 23.05 73.49 0.109 7.09 7.52 7.87
6/29/2021 5:45:00 AM 22.99 73.382 0.109 7.09 7.76 7.88
6/29/2021 6:00:00 AM 22.93 73.274 0.109 7.09 7.51 7.91
6/29/2021 6:15:00 AM 22.88 73.184 0.109 7.09 7.49 7.94
6/29/2021 6:30:00 AM 22.84 73.112 0.109 7.1 7.28 7.98
6/29/2021 6:45:00 AM 22.8 73.04 0.109 7.1 7.37 8.04
6/29/2021 7:00:00 AM 22.76 72.968 0.109 7.11 7.44 8.09
6/29/2021 7:15:00 AM 22.72 72.896 0.109 7.12 8.57 8.13
6/29/2021 7:30:00 AM 22.7 72.86 0.108 7.13 7.47 8.2
6/29/2021 7:45:00 AM 22.68 72.824 0.108 7.14 7.68 8.29
6/29/2021 8:00:00 AM 22.67 72.806 0.108 7.15 7.78 8.38
6/29/2021 8:15:00 AM 22.67 72.806 0.108 7.17 7.57 8.49
6/29/2021 8:30:00 AM 22.69 72.842 0.108 7.19 7.56 8.63
6/29/2021 8:45:00 AM 22.74 72.932 0.108 7.21 7.57 8.73
6/29/2021 9:00:00 AM 22.89 73.202 0.107 7.24 7.81 8.83
6/29/2021 9:15:00 AM 23 73.4 0.107 7.26 7.87 8.85
6/29/2021 9:30:00 AM 23.09 73.562 0.107 7.27 7.92 8.87
6/29/2021 9:45:00 AM 23.23 73.814 0.107 7.29 8.14 8.9
6/29/2021 10:00:00 AM 23.4 74.12 0.107 7.3 7.88 8.92
6/29/2021 10:15:00 AM 23.59 74.462 0.107 7.32 8.57 8.92
6/29/2021 10:30:00 AM 23.78 74.804 0.107 7.33 7.4 8.93
6/29/2021 10:45:00 AM 23.96 75.128 0.107 7.34 7.24 8.93
6/29/2021 11:00:00 AM 24.14 75.452 0.106 7.36 7.28 8.94
6/29/2021 11:15:00 AM 24.31 75.758 0.106 7.37 6.61 8.91
6/29/2021 11:30:00 AM 24.5 76.1 0.106 7.38 6.5 8.91
6/29/2021 11:45:00 AM 24.77 76.586 0.106 7.39 6.3 8.93
6/29/2021 12:00:00 PM 25.09 77.162 0.105 7.41 6.42 8.94
6/29/2021 12:15:00 PM 25.5 77.9 0.105 7.43 6.41 8.95
6/29/2021 12:30:00 PM 25.89 78.602 0.105 7.46 6.02 8.93
6/29/2021 12:45:00 PM 26.25 79.25 0.105 7.48 6.06 8.89
6/29/2021 1:00:00 PM 26.58 79.844 0.105 7.49 5.91 8.74
6/29/2021 1:15:00 PM 26.88 80.384 0.105 7.5 6 8.77
6/29/2021 1:30:00 PM 27.22 80.996 0.105 7.52 6.2 8.73
6/29/2021 1:45:00 PM 27.48 81.464 0.105 7.53 6.15 8.6
6/29/2021 2:00:00 PM 27.75 81.95 0.105 7.54 6.3 8.63
6/29/2021 2:15:00 PM 28.04 82.472 0.105 7.55 6.56 8.61
6/29/2021 2:30:00 PM 28.25 82.85 0.105 7.55 6.38 8.53
6/29/2021 2:45:00 PM 28.28 82.904 0.105 7.55 6.27 8.42
6/29/2021 3:00:00 PM 28.29 82.922 0.105 7.55 6.52 8.31
6/29/2021 3:15:00 PM 28.48 83.264 0.105 7.55 6.27 8.32
6/29/2021 3:30:00 PM 28.82 83.876 0.105 7.56 6.29 8.38
6/29/2021 3:45:00 PM 29.12 84.416 0.105 7.57 6.52 8.32
6/29/2021 4:00:00 PM 29.33 84.794 0.105 7.58 6.46 8.33
6/29/2021 4:15:00 PM 29.48 85.064 0.105 7.58 6.46 8.29
6/29/2021 4:30:00 PM 29.58 85.244 0.105 7.58 6.55 8.24
6/29/2021 4:45:00 PM 29.5 85.1 0.105 7.58 6.71 8.14
6/29/2021 5:00:00 PM 29.43 84.974 0.105 7.57 6.65 8.09
6/29/2021 5:15:00 PM 29.29 84.722 0.105 7.55 6.51 8.04
6/29/2021 5:30:00 PM 29.11 84.39799 0.105 7.52 6.04 7.95
6/29/2021 5:45:00 PM 29 84.2 0.105 7.5 5.95 7.89
6/29/2021 6:00:00 PM 28.92 84.056 0.105 7.47 6.05 7.84
6/29/2021 6:15:00 PM 28.86 83.948 0.105 7.44 7.52 7.8
6/29/2021 6:30:00 PM 28.77 83.786 0.105 7.43 4.7 7.73
6/29/2021 6:45:00 PM 28.68 83.624 0.105 7.41 4.46 7.66
6/29/2021 7:00:00 PM 28.57 83.426 0.105 7.38 4.68 7.59
6/29/2021 7:15:00 PM 28.46 83.228 0.105 7.36 4.74 7.54
6/29/2021 7:30:00 PM 28.33 82.994 0.106 7.35 5.25 7.47
6/29/2021 7:45:00 PM 28.21 82.778 0.106 7.31 4.75 7.42
6/29/2021 8:00:00 PM 28.1 82.58 0.106 7.29 4.83 7.36
6/29/2021 8:15:00 PM 27.98 82.364 0.106 7.27 4.69 7.3
6/29/2021 8:30:00 PM 27.85 82.13 0.107 7.23 4.75 7.23
6/29/2021 8:45:00 PM 27.72 81.896 0.107 7.22 4.81 7.17
6/29/2021 9:00:00 PM 27.58 81.644 0.107 7.2 4.63 7.14
6/29/2021 9:15:00 PM 27.43 81.374 0.107 7.18 4.86 7.12
6/29/2021 9:30:00 PM 27.29 81.122 0.107 7.17 5.04 7.1
6/29/2021 9:45:00 PM 27.15 80.87 0.108 7.16 5.27 7.1
6/29/2021 10:00:00 PM 27.01 80.618 0.108 7.14 6.32 7.11
6/29/2021 10:15:00 PM 26.86 80.348 0.108 7.14 5.36 7.12
6/29/2021 10:30:00 PM 26.66 79.988 0.108 7.14 5.31 7.16
6/29/2021 10:45:00 PM 26.43 79.574 0.108 7.13 5.6 7.17
6/29/2021 11:00:00 PM 26.24 79.232 0.108 7.13 5.48 7.19
6/29/2021 11:15:00 PM 26.08 78.944 0.108 7.12 5.3 7.18
6/29/2021 11:30:00 PM 25.93 78.674 0.109 7.12 5.45 7.21
6/29/2021 11:45:00 PM 25.77 78.386 0.109 7.12 5.4 7.25
6/30/2021 12:00:00 AM 25.62 78.116 0.109 7.11 5.59 7.29
6/30/2021 12:15:00 AM 25.47 77.846 0.109 7.11 5.57 7.31
6/30/2021 12:30:00 AM 25.32 77.576 0.109 7.11 5.56 7.33
6/30/2021 12:45:00 AM 25.17 77.306 0.109 7.11 5.75 7.35
6/30/2021 1:00:00 AM 25.04 77.07201 0.109 7.1 6.04 7.39
6/30/2021 1:15:00 AM 24.91 76.838 0.109 7.1 5.91 7.41
6/30/2021 1:30:00 AM 24.8 76.64 0.109 7.1 5.83 7.43
6/30/2021 1:45:00 AM 24.69 76.442 0.109 7.1 6.01 7.45
6/30/2021 2:00:00 AM 24.59 76.262 0.109 7.1 6.06 7.47
6/30/2021 2:15:00 AM 24.5 76.1 0.109 7.1 6.15 7.5
6/30/2021 2:30:00 AM 24.41 75.938 0.109 7.1 6.08 7.51
6/30/2021 2:45:00 AM 24.32 75.776 0.109 7.1 6.32 7.54
6/30/2021 3:00:00 AM 24.22 75.596 0.109 7.1 6.31 7.57
6/30/2021 3:15:00 AM 24.12 75.416 0.11 7.1 6.34 7.59
6/30/2021 3:30:00 AM 24.03 75.254 0.11 7.1 6.43 7.59
6/30/2021 3:45:00 AM 23.95 75.11 0.11 7.1 6.49 7.6
6/30/2021 4:00:00 AM 23.87 74.966 0.11 7.1 6.61 7.63
6/30/2021 4:15:00 AM 23.79 74.82201 0.11 7.1 6.58 7.65
6/30/2021 4:30:00 AM 23.71 74.67799 0.11 7.11 6.78 7.66
6/30/2021 4:45:00 AM 23.64 74.552 0.11 7.11 7.07 7.68
6/30/2021 5:00:00 AM 23.57 74.426 0.11 7.11 7.49 7.69
6/30/2021 5:15:00 AM 23.5 74.3 0.11 7.11 6.9 7.71
6/30/2021 5:30:00 AM 23.43 74.174 0.11 7.11 7.09 7.73
6/30/2021 5:45:00 AM 23.36 74.048 0.11 7.11 6.97 7.74
6/30/2021 6:00:00 AM 23.29 73.922 0.11 7.11 7.37 7.77
6/30/2021 6:15:00 AM 23.22 73.796 0.11 7.11 7.12 7.8
6/30/2021 6:30:00 AM 23.15 73.67 0.11 7.12 6.96 7.85
6/30/2021 6:45:00 AM 23.09 73.562 0.11 7.12 6.81 7.92
6/30/2021 7:00:00 AM 23.04 73.472 0.11 7.13 6.99 8.02
6/30/2021 7:15:00 AM 23.01 73.418 0.109 7.15 6.98 8.16
6/30/2021 7:30:00 AM 22.99 73.382 0.109 7.16 7.01 8.28
6/30/2021 7:45:00 AM 22.98 73.364 0.109 7.18 7.07 8.38
6/30/2021 8:00:00 AM 23.01 73.418 0.109 7.2 7.31 8.5
6/30/2021 8:15:00 AM 23.05 73.49 0.109 7.22 6.98 8.6
6/30/2021 8:30:00 AM 23.1 73.58 0.109 7.24 7.15 8.64
6/30/2021 8:45:00 AM 23.06 73.508 0.108 7.24 7.57 8.56
6/30/2021 9:00:00 AM 23.01 73.418 0.107 7.23 6.26 8.5
6/30/2021 9:15:00 AM 23.09 73.562 0.107 7.23 6.4 8.57
6/30/2021 9:30:00 AM 23.27 73.886 0.107 7.25 6.53 8.71
6/30/2021 9:45:00 AM 23.38 74.084 0.107 7.27 6.62 8.78
6/30/2021 10:00:00 AM 23.57 74.426 0.107 7.29 6.43 8.87
6/30/2021 10:15:00 AM 23.77 74.786 0.107 7.32 6.59 8.91
6/30/2021 10:30:00 AM 23.96 75.128 0.107 7.34 6.58 8.9
6/30/2021 10:45:00 AM 24.16 75.488 0.106 7.36 6.86 8.89
6/30/2021 11:00:00 AM 24.38 75.884 0.106 7.37 6.69 8.9
6/30/2021 11:15:00 AM 24.64 76.352 0.106 7.39 6.82 8.92
6/30/2021 11:30:00 AM 24.95 76.91 0.106 7.41 6.83 8.96
6/30/2021 11:45:00 AM 25.27 77.486 0.105 7.43 6.99 8.99
6/30/2021 12:00:00 PM 25.45 77.81 0.105 7.46 6.93 8.98
6/30/2021 12:15:00 PM 25.6 78.08 0.105 7.48 7 8.96
6/30/2021 12:30:00 PM 25.83 78.494 0.105 7.5 6.94 8.94
6/30/2021 12:45:00 PM 26.16 79.088 0.105 7.51 6.92 8.91
6/30/2021 1:00:00 PM 26.38 79.484 0.105 7.53 7.03 8.87
6/30/2021 1:15:00 PM 26.58 79.844 0.105 7.54 6.57 8.86
6/30/2021 1:30:00 PM 26.85 80.33 0.104 7.57 5.29 8.84
6/30/2021 1:45:00 PM 27.23 81.014 0.104 7.59 5.42 8.81
6/30/2021 2:00:00 PM 27.62 81.716 0.104 7.61 5.14 8.76
6/30/2021 2:15:00 PM 27.9 82.22 0.104 7.61 4.68 8.68
6/30/2021 2:30:00 PM 28.13 82.634 0.104 7.63 4.78 8.61
6/30/2021 2:45:00 PM 28.18 82.724 0.104 7.63 5.01 8.49
6/30/2021 3:00:00 PM 28.25 82.85 0.104 7.62 4.74 8.42
6/30/2021 3:15:00 PM 28.37 83.066 0.104 7.61 4.62 8.4
6/30/2021 3:30:00 PM 28.42 83.156 0.104 7.61 15.94 8.33
6/30/2021 3:45:00 PM 28.41 83.138 0.104 7.62 4.66 8.32
6/30/2021 4:00:00 PM 28.32 82.976 0.104 7.62 4.61 8.36
6/30/2021 4:15:00 PM 28.26 82.868 0.104 7.63 4.64 8.29
6/30/2021 4:30:00 PM 28.12 82.616 0.104 7.6 4.82 8.07
6/30/2021 4:45:00 PM 27.72 81.896 0.103 7.52 5.17 7.8
6/30/2021 5:00:00 PM 27.38 81.284 0.103 7.42 5.51 7.59
6/30/2021 5:15:00 PM 27.14 80.852 0.102 7.35 5.53 7.45
6/30/2021 5:30:00 PM 27.04 80.672 0.102 7.3 5.65 7.39
6/30/2021 5:45:00 PM 26.95 80.51 0.103 7.27 6.77 7.37
6/30/2021 6:00:00 PM 26.86 80.348 0.103 7.25 7.39 7.32
6/30/2021 6:15:00 PM 26.71 80.078 0.103 7.24 9.29 7.31
6/30/2021 6:30:00 PM 26.54 79.772 0.102 7.22 8.16 7.32
6/30/2021 6:45:00 PM 26.37 79.466 0.101 7.2 7.67 7.33
6/30/2021 7:00:00 PM 26.21 79.17799 0.101 7.18 7.04 7.33
6/30/2021 7:15:00 PM 26.06 78.908 0.101 7.16 7.35 7.32
6/30/2021 7:30:00 PM 25.93 78.674 0.101 7.16 7.77 7.33
6/30/2021 7:45:00 PM 25.8 78.44 0.102 7.15 8.54 7.37
6/30/2021 8:00:00 PM 25.69 78.242 0.102 7.15 8.9 7.4
6/30/2021 8:15:00 PM 25.58 78.044 0.102 7.15 8.79 7.43
6/30/2021 8:30:00 PM 25.46 77.828 0.102 7.15 8.56 7.44
6/30/2021 8:45:00 PM 25.34 77.612 0.102 7.14 8.64 7.44
6/30/2021 9:00:00 PM 25.22 77.396 0.102 7.13 8.63 7.45
6/30/2021 9:15:00 PM 25.11 77.198 0.102 7.13 9.32 7.47
6/30/2021 9:30:00 PM 25 77 0.103 7.12 10.43 7.49
6/30/2021 9:45:00 PM 24.91 76.838 0.103 7.12 10.42 7.5
6/30/2021 10:00:00 PM 24.83 76.694 0.103 7.11 11.17 7.52
6/30/2021 10:15:00 PM 24.77 76.586 0.103 7.11 11.49 7.54
6/30/2021 10:30:00 PM 24.7 76.46 0.103 7.1 11.95 7.56
6/30/2021 10:45:00 PM 24.62 76.316 0.103 7.11 13.54 7.59
6/30/2021 11:00:00 PM 24.53 76.154 0.107 7.1 31.11 7.57
6/30/2021 11:15:00 PM 24.47 76.046 0.104 7.12 33.65 7.66
6/30/2021 11:30:00 PM 24.39 75.902 0.103 7.13 36.84 7.65
6/30/2021 11:45:00 PM 24.29 75.722 0.102 7.11 31.4 7.68
7/1/2021 12:00:00 AM 24.21 75.578 0.101 7.11 30.65 7.72
7/1/2021 12:15:00 AM 24.11 75.398 0.101 7.11 29.69 7.75
7/1/2021 12:30:00 AM 24 75.2 0.1 7.07 29.07 7.79
7/1/2021 12:45:00 AM 23.91 75.038 0.098 7.03 29.24 7.81
7/1/2021 1:00:00 AM 23.82 74.876 0.097 7.02 28.67 7.84
7/1/2021 1:15:00 AM 23.71 74.67799 0.095 7.01 28.86 7.85
7/1/2021 1:30:00 AM 23.6 74.48 0.094 7.01 28.73 7.88
7/1/2021 1:45:00 AM 23.48 74.264 0.093 7.01 28.11 7.9
7/1/2021 2:00:00 AM 23.36 74.048 0.091 7 27.45 7.93
7/1/2021 2:15:00 AM 23.25 73.85 0.09 7 25.53 7.94
7/1/2021 2:30:00 AM 23.14 73.652 0.088 6.99 26.03 7.96
7/1/2021 2:45:00 AM 23.03 73.454 0.086 6.98 26.45 7.99
7/1/2021 3:00:00 AM 22.91 73.238 0.084 6.96 27.18 8.01
7/1/2021 3:15:00 AM 22.79 73.022 0.083 6.93 27.67 8.02
7/1/2021 3:30:00 AM 22.66 72.788 0.081 6.89 28.79 8.04
7/1/2021 3:45:00 AM 22.54 72.57201 0.08 6.88 29.79 8.06
7/1/2021 4:00:00 AM 22.42 72.356 0.079 6.87 30.08 8.08
7/1/2021 4:15:00 AM 22.31 72.158 0.078 6.87 30.79 8.1
7/1/2021 4:30:00 AM 22.21 71.978 0.078 6.85 30.67 8.11
7/1/2021 4:45:00 AM 22.11 71.798 0.077 6.86 32.02 8.13
7/1/2021 5:00:00 AM 22.02 71.636 0.077 6.9 31.77 8.16
7/1/2021 5:15:00 AM 21.93 71.474 0.077 6.91 33.27 8.17
7/1/2021 5:30:00 AM 21.84 71.312 0.076 6.89 34.02 8.18
7/1/2021 5:45:00 AM 21.76 71.168 0.075 6.88 35.24 8.19
7/1/2021 6:00:00 AM 21.69 71.042 0.075 6.9 35.38 8.2
7/1/2021 6:15:00 AM 21.61 70.898 0.074 6.91 36.41 8.23
7/1/2021 6:30:00 AM 21.54 70.772 0.074 6.94 36.35 8.23
7/1/2021 6:45:00 AM 21.46 70.628 0.073 6.93 36.98 8.25
7/1/2021 7:00:00 AM 21.4 70.52 0.073 6.95 36.94 8.27
7/1/2021 7:15:00 AM 21.34 70.412 0.073 6.96 37 8.3
7/1/2021 7:30:00 AM 21.28 70.304 0.074 6.96 34.73 8.32
7/1/2021 7:45:00 AM 21.22 70.196 0.074 6.97 36.96 8.33
7/1/2021 8:00:00 AM 21.17 70.106 0.074 6.98 35.87 8.33
7/1/2021 8:15:00 AM 21.12 70.016 0.075 6.98 35.09 8.37
7/1/2021 8:30:00 AM 21.08 69.944 0.076 6.98 34.85 8.39
7/1/2021 8:45:00 AM 21.04 69.872 0.076 6.99 34.54 8.39
7/1/2021 9:00:00 AM 21.01 69.818 0.076 7.01 35 8.44
7/1/2021 9:15:00 AM 20.98 69.764 0.077 7.02 34.15 8.46
7/1/2021 9:30:00 AM 20.97 69.746 0.077 7.03 33.34 8.5
7/1/2021 9:45:00 AM 20.94 69.692 0.077 7.05 31.28 8.52
7/1/2021 10:00:00 AM 20.93 69.674 0.077 7.06 32.79 8.54
7/1/2021 10:15:00 AM 20.92 69.656 0.077 7.07 32.24 8.59
7/1/2021 10:30:00 AM 20.93 69.674 0.076 7.08 32.94 8.65
7/1/2021 10:45:00 AM 20.96 69.728 0.076 7.09 31.82 8.69
7/1/2021 11:00:00 AM 21.01 69.818 0.076 7.11 32.79 8.78
7/1/2021 11:15:00 AM 21.01 69.818 0.076 7.12 26.95 8.77
7/1/2021 11:30:00 AM 20.99 69.782 0.076 7.13 33.35 8.73
7/1/2021 11:45:00 AM 21.02 69.836 0.076 7.14 34.02 8.78
7/1/2021 12:00:00 PM 21.07 69.926 0.076 7.15 34.07 8.84
7/1/2021 12:15:00 PM 21.09 69.962 0.076 7.17 32.61 8.86
7/1/2021 12:30:00 PM 21.08 69.944 0.076 7.17 34.58 8.81
7/1/2021 12:45:00 PM 21.06 69.908 0.077 7.12 35.39 8.79
7/1/2021 1:00:00 PM 21.07 69.926 0.077 7.12 35.02 8.83
7/1/2021 1:15:00 PM 21.07 69.926 0.078 7.13 35.61 8.83
7/1/2021 1:30:00 PM 21.1 69.98 0.079 7.16 34.6 8.87
7/1/2021 1:45:00 PM 21.09 69.962 0.08 7.18 34.99 8.86
7/1/2021 2:00:00 PM 21.06 69.908 0.08 7.19 35.65 8.82
7/1/2021 2:15:00 PM 21.1 69.98 0.081 7.2 35.79 8.87
7/1/2021 2:30:00 PM 21.13 70.034 0.082 7.21 36.21 8.91
7/1/2021 2:45:00 PM 21.11 69.998 0.083 7.22 36.57 8.87
7/1/2021 3:00:00 PM 21.16 70.088 0.084 7.23 36.35 8.93
7/1/2021 3:15:00 PM 21.19 70.142 0.084 7.24 36.55 8.95
7/1/2021 3:30:00 PM 21.24 70.232 0.085 7.25 36.14 8.96
7/1/2021 3:45:00 PM 21.27 70.286 0.085 7.27 37.14 8.98
7/1/2021 4:00:00 PM 21.32 70.376 0.085 7.28 37.45 9.01
7/1/2021 4:15:00 PM 21.4 70.52 0.086 7.29 38.01 9.03
7/1/2021 4:30:00 PM 21.44 70.592 0.086 7.3 36.99 9.02
7/1/2021 4:45:00 PM 21.46 70.628 0.086 7.31 37.32 9
7/1/2021 5:00:00 PM 21.5 70.7 0.087 7.32 37.45 9
7/1/2021 5:15:00 PM 21.52 70.736 0.087 7.32 39.06 8.97
7/1/2021 5:30:00 PM 21.52 70.736 0.088 7.32 38.94 8.91
7/1/2021 5:45:00 PM 21.49 70.682 0.089 7.31 38.37 8.8
7/1/2021 6:00:00 PM 21.46 70.628 0.089 7.3 38.03 8.73
7/1/2021 6:15:00 PM 21.43 70.574 0.09 7.28 37.68 8.59
7/1/2021 6:30:00 PM 21.41 70.538 0.09 7.27 36.94 8.6
7/1/2021 6:45:00 PM 21.37 70.466 0.091 7.26 34.4 8.6
7/1/2021 7:00:00 PM 21.34 70.412 0.091 7.25 35.57 8.6
7/1/2021 7:15:00 PM 21.31 70.358 0.091 7.24 34.03 8.56
7/1/2021 7:30:00 PM 21.27 70.286 0.092 7.24 33.89 8.54
7/1/2021 7:45:00 PM 21.23 70.214 0.092 7.22 33.88 8.52
7/1/2021 8:00:00 PM 21.19 70.142 0.092 7.22 33.75 8.52
7/1/2021 8:15:00 PM 21.16 70.088 0.093 7.21 33.4 8.47
7/1/2021 8:30:00 PM 21.12 70.016 0.093 7.19 33.46 8.51
7/1/2021 8:45:00 PM 21.07 69.926 0.094 7.19 34.33 8.49
7/1/2021 9:00:00 PM 21.03 69.854 0.094 7.19 33.91 8.47
7/1/2021 9:15:00 PM 20.98 69.764 0.095 7.18 34.41 8.46
7/1/2021 9:30:00 PM 20.93 69.674 0.095 7.18 33.63 8.45
7/1/2021 9:45:00 PM 20.88 69.584 0.096 7.18 35.33 8.45
7/1/2021 10:00:00 PM 20.82 69.476 0.097 7.17 35.69 8.45
7/1/2021 10:15:00 PM 20.77 69.386 0.097 7.17 35.37 8.45
7/1/2021 10:30:00 PM 20.71 69.278 0.098 7.16 36.37 8.45
7/1/2021 10:45:00 PM 20.66 69.188 0.098 7.16 36.32 8.46
7/1/2021 11:00:00 PM 20.6 69.08 0.099 7.16 36.61 8.46
7/1/2021 11:15:00 PM 20.54 68.972 0.099 7.15 36.48 8.47
7/1/2021 11:30:00 PM 20.48 68.864 0.1 7.15 36.71 8.47
7/1/2021 11:45:00 PM 20.43 68.774 0.1 7.15 37.05 8.49
7/2/2021 12:00:00 AM 20.38 68.684 0.1 7.15 37.86 8.48
7/2/2021 12:15:00 AM 20.33 68.594 0.101 7.13 37.79 8.5
7/2/2021 12:30:00 AM 20.27 68.486 0.101 7.12 38.06 8.51
7/2/2021 12:45:00 AM 20.21 68.378 0.101 7.12 38.78 8.52
7/2/2021 1:00:00 AM 20.15 68.27 0.101 7.12 33.81 8.53
7/2/2021 1:15:00 AM 20.11 68.198 0.101 7.12 33.82 8.54
7/2/2021 1:30:00 AM 20.06 68.108 0.101 7.11 34.68 8.54
7/2/2021 1:45:00 AM 20.02 68.036 0.101 7.11 34.62 8.55
7/2/2021 2:00:00 AM 19.98 67.964 0.102 7.11 34.48 8.56
7/2/2021 2:15:00 AM 19.93 67.874 0.102 7.11 34.81 8.57
7/2/2021 2:30:00 AM 19.88 67.784 0.102 7.12 35.05 8.58
7/2/2021 2:45:00 AM 19.83 67.694 0.102 7.12 35.28 8.59
7/2/2021 3:00:00 AM 19.78 67.604 0.102 7.12 34.4 8.6
7/2/2021 3:15:00 AM 19.73 67.514 0.102 7.12 36 8.61
7/2/2021 3:30:00 AM 19.68 67.424 0.101 7.13 36.06 8.59
7/2/2021 3:45:00 AM 19.62 67.316 0.102 7.13 35.95 8.61
7/2/2021 4:00:00 AM 19.57 67.226 0.102 7.13 36.37 8.63
7/2/2021 4:15:00 AM 19.52 67.136 0.102 7.12 36.93 8.64
7/2/2021 4:30:00 AM 19.46 67.028 0.102 7.12 37.26 8.65
7/2/2021 4:45:00 AM 19.41 66.938 0.102 7.12 33.78 8.67
7/2/2021 5:00:00 AM 19.35 66.83 0.102 7.12 34.43 8.67
7/2/2021 5:15:00 AM 19.3 66.74 0.102 7.11 34.81 8.69
7/2/2021 5:30:00 AM 19.25 66.65 0.102 7.12 34.81 8.7
7/2/2021 5:45:00 AM 19.2 66.56 0.102 7.12 35.35 8.71
7/2/2021 6:00:00 AM 19.16 66.488 0.103 7.12 35.61 8.73
7/2/2021 6:15:00 AM 19.11 66.398 0.103 7.12 33.01 8.74
7/2/2021 6:30:00 AM 19.06 66.308 0.103 7.13 32.98 8.77
7/2/2021 6:45:00 AM 19.02 66.236 0.103 7.12 33.31 8.8
7/2/2021 7:00:00 AM 18.99 66.182 0.103 7.13 34.12 8.85
7/2/2021 7:15:00 AM 18.96 66.128 0.103 7.14 34.25 8.87
7/2/2021 7:30:00 AM 18.93 66.074 0.103 7.15 34.99 8.91
7/2/2021 7:45:00 AM 18.91 66.038 0.103 7.17 35.09 8.94
7/2/2021 8:00:00 AM 18.89 66.002 0.104 7.18 34.98 9
7/2/2021 8:15:00 AM 18.87 65.966 0.104 7.19 35.35 9.02
7/2/2021 8:30:00 AM 18.85 65.93 0.104 7.19 35.89 9.01
7/2/2021 8:45:00 AM 18.84 65.912 0.104 7.21 35.22 9.09
7/2/2021 9:00:00 AM 18.83 65.894 0.104 7.23 35.17 9.12
7/2/2021 9:15:00 AM 18.81 65.858 0.104 7.24 35.57 9.13
7/2/2021 9:30:00 AM 18.79 65.82201 0.104 7.24 35.92 9.11
7/2/2021 9:45:00 AM 18.76 65.768 0.104 7.24 35.95 9.11
7/2/2021 10:00:00 AM 18.74 65.732 0.104 7.25 37.04 9.14
7/2/2021 10:15:00 AM 18.74 65.732 0.104 7.26 36.79 9.18
7/2/2021 10:30:00 AM 18.81 65.858 0.104 7.28 36.13 9.34
7/2/2021 10:45:00 AM 18.87 65.966 0.104 7.31 36.3 9.43
7/2/2021 11:00:00 AM 18.89 66.002 0.103 7.33 37.23 9.46
7/2/2021 11:15:00 AM 19.05 66.29 0.103 7.36 37.07 9.56
7/2/2021 11:30:00 AM 19.3 66.74 0.103 7.39 37.73 9.6
7/2/2021 11:45:00 AM 19.57 67.226 0.103 7.41 37.04 9.61
7/2/2021 12:00:00 PM 19.59 67.262 0.103 7.44 37.68 9.62
7/2/2021 12:15:00 PM 19.8 67.64 0.103 7.46 37.57 9.66
7/2/2021 12:30:00 PM 19.88 67.784 0.103 7.47 38.02 9.6
7/2/2021 12:45:00 PM 19.81 67.658 0.103 7.48 38.4 9.54
7/2/2021 1:00:00 PM 19.99 67.982 0.102 7.49 38.94 9.58
7/2/2021 1:15:00 PM 20.41 68.738 0.102 7.51 38.59 9.6
7/2/2021 1:30:00 PM 20.47 68.846 0.102 7.52 39.05 9.52
7/2/2021 1:45:00 PM 20.26 68.468 0.102 7.52 40.49 9.42
7/2/2021 2:00:00 PM 20.14 68.252 0.102 7.51 40.6 9.34
7/2/2021 2:15:00 PM 20.09 68.162 0.102 7.5 41 9.36
7/2/2021 2:30:00 PM 20.13 68.234 0.102 7.51 41.68 9.43
7/2/2021 2:45:00 PM 20.19 68.342 0.102 7.52 41.48 9.47
7/2/2021 3:00:00 PM 20.17 68.306 0.102 7.54 41.4 9.46
7/2/2021 3:15:00 PM 20.12 68.216 0.102 7.54 41.38 9.44
7/2/2021 3:30:00 PM 20.06 68.108 0.102 7.55 41.19 9.45
7/2/2021 3:45:00 PM 20.07 68.126 0.101 7.55 41.84 9.49
7/2/2021 4:00:00 PM 20.03 68.054 0.101 7.56 40.92 9.46
7/2/2021 4:15:00 PM 19.96 67.92799 0.101 7.55 41.51 9.4
7/2/2021 4:30:00 PM 19.98 67.964 0.101 7.55 41.78 9.4
7/2/2021 4:45:00 PM 20 68 0.101 7.55 42.67 9.42
7/2/2021 5:00:00 PM 19.98 67.964 0.101 7.55 42.93 9.39
7/2/2021 5:15:00 PM 19.98 67.964 0.1 7.54 43.18 9.37
7/2/2021 5:30:00 PM 19.98 67.964 0.1 7.54 43.33 9.37
7/2/2021 5:45:00 PM 20 68 0.1 7.54 43.5 9.36
7/2/2021 6:00:00 PM 19.97 67.946 0.1 7.53 43.59 9.32
7/2/2021 6:15:00 PM 19.98 67.964 0.1 7.52 43.58 9.33
7/2/2021 6:30:00 PM 20.03 68.054 0.1 7.53 43.87 9.34
7/2/2021 6:45:00 PM 20.04 68.07201 0.1 7.52 45.01 9.28
7/2/2021 7:00:00 PM 20 68 0.1 7.5 43.55 9.18
7/2/2021 7:15:00 PM 19.98 67.964 0.1 7.48 42.39 9.1
7/2/2021 7:30:00 PM 19.94 67.892 0.1 7.46 43.43 9.03
7/2/2021 7:45:00 PM 19.9 67.82 0.1 7.44 42.57 9
7/2/2021 8:00:00 PM 19.88 67.784 0.1 7.42 43.48 8.99
7/2/2021 8:15:00 PM 19.84 67.712 0.101 7.41 43.47 8.94
7/2/2021 8:30:00 PM 19.77 67.586 0.101 7.39 43.81 8.88
7/2/2021 8:45:00 PM 19.69 67.442 0.101 7.37 43.38 8.83
7/2/2021 9:00:00 PM 19.61 67.298 0.101 7.35 44.28 8.79
7/2/2021 9:15:00 PM 19.54 67.172 0.101 7.33 42.75 8.77
7/2/2021 9:30:00 PM 19.48 67.064 0.101 7.31 43.9 8.75
7/2/2021 9:45:00 PM 19.43 66.974 0.101 7.3 43.93 8.73
7/2/2021 10:00:00 PM 19.37 66.866 0.101 7.29 44.18 8.73
7/2/2021 10:15:00 PM 19.32 66.776 0.101 7.28 44.56 8.72
7/2/2021 10:30:00 PM 19.28 66.704 0.101 7.26 44.8 8.72
7/2/2021 10:45:00 PM 19.22 66.596 0.101 7.26 45.04 8.72
7/2/2021 11:00:00 PM 19.16 66.488 0.101 7.18 49.15 8.72
7/2/2021 11:15:00 PM 19.12 66.416 0.1 7.14 40.25 8.74
7/2/2021 11:30:00 PM 19.08 66.344 0.1 7.13 41.1 8.71
7/2/2021 11:45:00 PM 19.04 66.272 0.099 7.13 39.04 8.75
7/3/2021 12:00:00 AM 18.99 66.182 0.098 7.15 37.36 8.77
7/3/2021 12:15:00 AM 18.93 66.074 0.098 7.15 37.31 8.79
7/3/2021 12:30:00 AM 18.88 65.984 0.097 7.16 41.45 8.8
7/3/2021 12:45:00 AM 18.82 65.876 0.096 7.16 28.22 8.81
7/3/2021 1:00:00 AM 18.75 65.75 0.095 7.16 28.96 8.84
7/3/2021 1:15:00 AM 18.67 65.606 0.092 7.15 33.47 8.85
7/3/2021 1:30:00 AM 18.57 65.426 0.093 7.14 28.42 8.88
7/3/2021 1:45:00 AM 18.46 65.228 0.092 7.13 30.25 8.91
7/3/2021 2:00:00 AM 18.36 65.048 0.091 7.11 30.35 8.93
7/3/2021 2:15:00 AM 18.25 64.85 0.091 7.11 31.95 8.97
7/3/2021 2:30:00 AM 18.15 64.67 0.091 7.1 32.74 8.99
7/3/2021 2:45:00 AM 18.04 64.472 0.091 7.09 29.06 9.02
7/3/2021 3:00:00 AM 17.95 64.31 0.092 7.08 30.45 9.03
7/3/2021 3:15:00 AM 17.86 64.148 0.092 7.08 31 9.06
7/3/2021 3:30:00 AM 17.78 64.004 0.093 7.09 32.8 9.08
7/3/2021 3:45:00 AM 17.7 63.86 0.095 7.1 30.5 9.09
7/3/2021 4:00:00 AM 17.63 63.734 0.096 7.1 33.43 9.12
7/3/2021 4:15:00 AM 17.55 63.59 0.098 7.1 33.76 9.13
7/3/2021 4:30:00 AM 17.48 63.464 0.1 7.11 34.9 9.14
7/3/2021 4:45:00 AM 17.41 63.338 0.102 7.11 36.96 9.15
7/3/2021 5:00:00 AM 17.35 63.23 0.104 7.1 39.46 9.16
7/3/2021 5:15:00 AM 17.28 63.104 0.105 7.1 39.72 9.17
7/3/2021 5:30:00 AM 17.21 62.978 0.106 7.1 44.11 9.18
7/3/2021 5:45:00 AM 17.14 62.852 0.107 7.1 40.93 9.19
7/3/2021 6:00:00 AM 17.08 62.744 0.107 7.1 45.09 9.2
7/3/2021 6:15:00 AM 17.02 62.636 0.107 7.1 47.75 9.22
7/3/2021 6:30:00 AM 16.96 62.528 0.107 7.1 50.92 9.24
7/3/2021 6:45:00 AM 16.89 62.402 0.107 7.11 52.5 9.25
7/3/2021 7:00:00 AM 16.83 62.294 0.106 7.12 57.52 9.27
7/3/2021 7:15:00 AM 16.77 62.186 0.106 7.13 60.25 9.29
7/3/2021 7:30:00 AM 16.71 62.078 0.106 7.13 63.51 9.31
7/3/2021 7:45:00 AM 16.67 62.006 0.105 7.14 76.29 9.33
7/3/2021 8:00:00 AM 16.64 61.952 0.105 7.16 69.23 9.36
7/3/2021 8:15:00 AM 16.61 61.898 0.105 7.17 60.67 9.4
7/3/2021 8:30:00 AM 16.59 61.862 0.105 7.18 67.24 9.42
7/3/2021 8:45:00 AM 16.57 61.826 0.105 7.19 59.99 9.44
7/3/2021 9:00:00 AM 16.58 61.844 0.104 7.2 72.27 9.47
7/3/2021 9:15:00 AM 16.65 61.97 0.104 7.21 76.27 9.52
7/3/2021 9:30:00 AM 16.65 61.97 0.104 7.23 69.18 9.52
7/3/2021 9:45:00 AM 16.69 62.042 0.104 7.24 72.54 9.53
7/3/2021 10:00:00 AM 16.75 62.15 0.104 7.25 83.92 9.55
7/3/2021 10:15:00 AM 16.83 62.294 0.104 7.26 71.66 9.57
7/3/2021 10:30:00 AM 16.89 62.402 0.104 7.26 70.92 9.56
7/3/2021 10:45:00 AM 16.94 62.492 0.104 7.27 67.82 9.59
7/3/2021 11:00:00 AM 17.02 62.636 0.104 7.29 69.23 9.65
7/3/2021 11:15:00 AM 17.05 62.69 0.105 7.3 67.37 9.68
7/3/2021 11:30:00 AM 17.2 62.96 0.105 7.3 65.98 9.72
7/3/2021 11:45:00 AM 17.39 63.302 0.105 7.32 64.86 9.78
7/3/2021 12:00:00 PM 17.55 63.59 0.105 7.33 62.19 9.78
7/3/2021 12:15:00 PM 17.77 63.986 0.106 7.34 59.73 9.81
7/3/2021 12:30:00 PM 17.81 64.058 0.106 7.36 57.07 9.78
7/3/2021 12:45:00 PM 18.03 64.454 0.107 7.37 56.03 9.81
7/3/2021 1:00:00 PM 17.98 64.364 0.107 7.37 54 9.74
7/3/2021 1:15:00 PM 18.09 64.562 0.108 7.38 56.64 9.74
7/3/2021 1:30:00 PM 18.34 65.012 0.108 7.39 54.25 9.79
7/3/2021 1:45:00 PM 18.67 65.606 0.108 7.4 51.34 9.81
7/3/2021 2:00:00 PM 18.87 65.966 0.109 7.42 52.07 9.79
7/3/2021 2:15:00 PM 18.87 65.966 0.109 7.43 49.34 9.75
7/3/2021 2:30:00 PM 18.87 65.966 0.11 7.43 48.7 9.58
7/3/2021 2:45:00 PM 19.23 66.614 0.11 7.42 47.28 9.62
7/3/2021 3:00:00 PM 19.46 67.028 0.11 7.44 46.2 9.66
7/3/2021 3:15:00 PM 19.49 67.082 0.11 7.45 46.03 9.61
7/3/2021 3:30:00 PM 19.63 67.334 0.111 7.46 42.47 9.61
7/3/2021 3:45:00 PM 19.88 67.784 0.111 7.47 42.79 9.59
7/3/2021 4:00:00 PM 19.86 67.748 0.111 7.47 42.05 9.48
7/3/2021 4:15:00 PM 20.15 68.27 0.111 7.47 40.87 9.54
7/3/2021 4:30:00 PM 20.11 68.198 0.112 7.47 41.46 9.46
7/3/2021 4:45:00 PM 20.16 68.288 0.112 7.48 41.23 9.45
7/3/2021 5:00:00 PM 20.13 68.234 0.112 7.48 40.73 9.36
7/3/2021 5:15:00 PM 20.14 68.252 0.112 7.46 40.53 9.23
7/3/2021 5:30:00 PM 20.14 68.252 0.112 7.45 41.4 9.2
7/3/2021 5:45:00 PM 20.29 68.522 0.112 7.44 40.18 9.26
7/3/2021 6:00:00 PM 20.32 68.576 0.112 7.44 39.33 9.23
7/3/2021 6:15:00 PM 20.31 68.558 0.112 7.44 38.94 9.23
7/3/2021 6:30:00 PM 20.32 68.576 0.112 7.44 38.7 9.2
7/3/2021 6:45:00 PM 20.33 68.594 0.112 7.44 38.33 9.14
7/3/2021 7:00:00 PM 20.33 68.594 0.112 7.43 38.22 9.07
7/3/2021 7:15:00 PM 20.38 68.684 0.112 7.41 38.77 9.03
7/3/2021 7:30:00 PM 20.43 68.774 0.112 7.41 38.37 9.02
7/3/2021 7:45:00 PM 20.44 68.792 0.112 7.4 37.98 8.98
7/3/2021 8:00:00 PM 20.4 68.72 0.112 7.38 38.28 8.89
7/3/2021 8:15:00 PM 20.35 68.63 0.112 7.37 38.51 8.8
7/3/2021 8:30:00 PM 20.27 68.486 0.112 7.35 38.51 8.73
7/3/2021 8:45:00 PM 20.18 68.324 0.111 7.33 38.89 8.7
7/3/2021 9:00:00 PM 20.09 68.162 0.111 7.32 39.21 8.66
7/3/2021 9:15:00 PM 20.02 68.036 0.111 7.3 39.82 8.63
7/3/2021 9:30:00 PM 19.96 67.92799 0.111 7.28 39.88 8.62
7/3/2021 9:45:00 PM 19.89 67.802 0.11 7.27 40.73 8.61
7/3/2021 10:00:00 PM 19.81 67.658 0.11 7.26 40.89 8.61
7/3/2021 10:15:00 PM 19.73 67.514 0.11 7.24 41.83 8.61
7/3/2021 10:30:00 PM 19.63 67.334 0.11 7.24 42.52 8.62
7/3/2021 10:45:00 PM 19.53 67.154 0.109 7.23 43.08 8.63
7/3/2021 11:00:00 PM 19.43 66.974 0.109 7.22 43.49 8.65
7/3/2021 11:15:00 PM 19.33 66.794 0.109 7.22 43.72 8.67
7/3/2021 11:30:00 PM 19.23 66.614 0.108 7.21 44.6 8.68
7/3/2021 11:45:00 PM 19.14 66.452 0.108 7.21 45.24 8.7
7/4/2021 12:00:00 AM 19.04 66.272 0.107 7.2 44.87 8.72
7/4/2021 12:15:00 AM 18.94 66.092 0.107 7.2 45.87 8.73
7/4/2021 12:30:00 AM 18.85 65.93 0.107 7.19 46.36 8.75
7/4/2021 12:45:00 AM 18.75 65.75 0.107 7.19 47.49 8.78
7/4/2021 1:00:00 AM 18.66 65.588 0.106 7.18 47.22 8.79
7/4/2021 1:15:00 AM 18.58 65.444 0.106 7.18 47.83 8.81
7/4/2021 1:30:00 AM 18.49 65.282 0.106 7.18 43.02 8.83
7/4/2021 1:45:00 AM 18.41 65.138 0.105 7.17 43.66 8.85
7/4/2021 2:00:00 AM 18.33 64.994 0.105 7.17 43.35 8.87
7/4/2021 2:15:00 AM 18.27 64.886 0.105 7.17 44.67 8.88
7/4/2021 2:30:00 AM 18.21 64.778 0.105 7.17 43.98 8.89
7/4/2021 2:45:00 AM 18.15 64.67 0.105 7.16 44.22 8.9
7/4/2021 3:00:00 AM 18.1 64.58 0.104 7.16 45.06 8.92
7/4/2021 3:15:00 AM 18.04 64.472 0.104 7.16 44.17 8.93
7/4/2021 3:30:00 AM 17.99 64.382 0.104 7.16 43.82 8.94
7/4/2021 3:45:00 AM 17.95 64.31 0.104 7.16 44.49 8.95
7/4/2021 4:00:00 AM 17.91 64.238 0.103 7.16 44.34 8.96
7/4/2021 4:15:00 AM 17.88 64.184 0.103 7.16 45.23 8.97
7/4/2021 4:30:00 AM 17.84 64.112 0.103 7.16 45.92 8.98
7/4/2021 4:45:00 AM 17.79 64.022 0.103 7.16 45.87 8.99
7/4/2021 5:00:00 AM 17.74 63.932 0.103 7.15 45.59 9
7/4/2021 5:15:00 AM 17.69 63.842 0.103 7.16 46.5 9.01
7/4/2021 5:30:00 AM 17.64 63.752 0.102 7.15 47.26 9.02
7/4/2021 5:45:00 AM 17.58 63.644 0.102 7.15 47.33 9.04
7/4/2021 6:00:00 AM 17.53 63.554 0.102 7.15 47.53 9.05
7/4/2021 6:15:00 AM 17.47 63.446 0.102 7.15 47.31 9.08
7/4/2021 6:30:00 AM 17.42 63.356 0.102 7.15 48.29 9.1
7/4/2021 6:45:00 AM 17.38 63.284 0.102 7.15 48.1 9.13
7/4/2021 7:00:00 AM 17.33 63.194 0.101 7.16 47.15 9.18
7/4/2021 7:15:00 AM 17.29 63.122 0.101 7.17 48.72 9.27
7/4/2021 7:30:00 AM 17.26 63.068 0.101 7.17 48.86 9.34
7/4/2021 7:45:00 AM 17.23 63.014 0.101 7.18 48.77 9.42
7/4/2021 8:00:00 AM 17.22 62.996 0.1 7.19 49.54 9.52
7/4/2021 8:15:00 AM 17.2 62.96 0.1 7.2 49.27 9.58
7/4/2021 8:30:00 AM 17.2 62.96 0.1 7.22 49.44 9.68
7/4/2021 8:45:00 AM 17.22 62.996 0.1 7.23 48.79 9.76
7/4/2021 9:00:00 AM 17.26 63.068 0.099 7.24 49.34 9.79
7/4/2021 9:15:00 AM 17.31 63.158 0.099 7.25 49.8 9.78
7/4/2021 9:30:00 AM 17.38 63.284 0.099 7.26 49.5 9.8
7/4/2021 9:45:00 AM 17.48 63.464 0.099 7.27 49.35 9.83
7/4/2021 10:00:00 AM 17.61 63.698 0.099 7.28 49.05 9.85
7/4/2021 10:15:00 AM 17.76 63.968 0.098 7.29 50.55 9.85
7/4/2021 10:30:00 AM 17.95 64.31 0.098 7.3 50.66 9.85
7/4/2021 10:45:00 AM 18.17 64.706 0.098 7.31 52.02 9.85
7/4/2021 11:00:00 AM 18.4 65.12 0.098 7.32 51.12 9.84
7/4/2021 11:15:00 AM 18.63 65.534 0.098 7.33 50.1 9.84
7/4/2021 11:30:00 AM 18.86 65.948 0.098 7.35 50.91 9.82
7/4/2021 11:45:00 AM 19.1 66.38 0.097 7.36 51.49 9.79
7/4/2021 12:00:00 PM 19.33 66.794 0.097 7.37 50.92 9.79
7/4/2021 12:15:00 PM 19.59 67.262 0.097 7.38 51.03 9.76
7/4/2021 12:30:00 PM 19.84 67.712 0.097 7.39 51.09 9.74
7/4/2021 12:45:00 PM 20.08 68.144 0.097 7.41 51.24 9.72
7/4/2021 1:00:00 PM 20.34 68.612 0.097 7.42 52.93 9.68
7/4/2021 1:15:00 PM 20.62 69.116 0.096 7.43 53.24 9.65
7/4/2021 1:30:00 PM 20.89 69.602 0.096 7.44 52.3 9.63
7/4/2021 1:45:00 PM 21.1 69.98 0.096 7.45 53.71 9.58
7/4/2021 2:00:00 PM 21.42 70.556 0.096 7.46 53.68 9.55
7/4/2021 2:15:00 PM 21.62 70.916 0.096 7.48 53.25 9.52
7/4/2021 2:30:00 PM 21.88 71.384 0.096 7.49 53.26 9.51
7/4/2021 2:45:00 PM 22.05 71.69 0.096 7.5 54.14 9.46
7/4/2021 3:00:00 PM 22.24 72.032 0.096 7.51 54.59 9.42
7/4/2021 3:15:00 PM 22.36 72.248 0.095 7.52 55.51 9.33
7/4/2021 3:30:00 PM 22.31 72.158 0.095 7.52 53.76 9.27
7/4/2021 3:45:00 PM 22.62 72.716 0.095 7.52 53.8 9.28
7/4/2021 4:00:00 PM 22.78 73.004 0.095 7.54 56.11 9.24
7/4/2021 4:15:00 PM 22.91 73.238 0.095 7.54 55.42 9.2
7/4/2021 4:30:00 PM 22.97 73.346 0.095 7.53 55.96 9.16
7/4/2021 4:45:00 PM 23.04 73.472 0.095 7.53 55.89 9.15
7/4/2021 5:00:00 PM 23.11 73.598 0.095 7.52 55.65 9.1
7/4/2021 5:15:00 PM 23.13 73.634 0.095 7.52 56.97 9.05
7/4/2021 5:30:00 PM 23.08 73.544 0.095 7.51 57.09 8.97
7/4/2021 5:45:00 PM 23.11 73.598 0.095 7.51 56.02 8.91
7/4/2021 6:00:00 PM 23.15 73.67 0.095 7.49 59.02 8.83
7/4/2021 6:15:00 PM 23.14 73.652 0.095 7.47 55.85 8.76
7/4/2021 6:30:00 PM 23.13 73.634 0.095 7.44 52.73 8.68
7/4/2021 6:45:00 PM 23.09 73.562 0.095 7.42 52.06 8.61
7/4/2021 7:00:00 PM 23.03 73.454 0.095 7.4 51.66 8.55
7/4/2021 7:15:00 PM 22.94 73.292 0.095 7.38 52.4 8.5
7/4/2021 7:30:00 PM 22.86 73.148 0.095 7.35 52.39 8.45
7/4/2021 7:45:00 PM 22.77 72.986 0.095 7.33 52.9 8.39
7/4/2021 8:00:00 PM 22.66 72.788 0.095 7.31 53.04 8.36
7/4/2021 8:15:00 PM 22.53 72.554 0.095 7.29 53.25 8.32
7/4/2021 8:30:00 PM 22.38 72.284 0.095 7.27 53.34 8.27
7/4/2021 8:45:00 PM 22.22 71.996 0.096 7.25 52.67 8.23
7/4/2021 9:00:00 PM 22.06 71.708 0.096 7.22 52.86 8.22
7/4/2021 9:15:00 PM 21.91 71.438 0.096 7.21 53.36 8.2
7/4/2021 9:30:00 PM 21.76 71.168 0.096 7.2 53.97 8.19
7/4/2021 9:45:00 PM 21.62 70.916 0.096 7.18 54.33 8.21
7/4/2021 10:00:00 PM 21.48 70.664 0.096 7.17 54.71 8.24
7/4/2021 10:15:00 PM 21.35 70.43 0.096 7.16 55.43 8.23
7/4/2021 10:30:00 PM 21.22 70.196 0.096 7.15 55.86 8.26
7/4/2021 10:45:00 PM 21.1 69.98 0.096 7.14 55.59 8.26
7/4/2021 11:00:00 PM 20.98 69.764 0.096 7.15 56.17 8.31
7/4/2021 11:15:00 PM 20.86 69.548 0.096 7.14 56.76 8.33
7/4/2021 11:30:00 PM 20.75 69.35 0.096 7.13 56.79 8.34
7/4/2021 11:45:00 PM 20.64 69.152 0.096 7.12 56.65 8.36
7/5/2021 12:00:00 AM 20.52 68.936 0.096 7.12 57.71 8.38
7/5/2021 12:15:00 AM 20.41 68.738 0.096 7.11 56.83 8.41
7/5/2021 12:30:00 AM 20.3 68.54 0.096 7.11 57.86 8.43
7/5/2021 12:45:00 AM 20.2 68.36 0.096 7.11 57.87 8.44
7/5/2021 1:00:00 AM 20.09 68.162 0.096 7.11 58.09 8.45
7/5/2021 1:15:00 AM 19.99 67.982 0.096 7.1 58.11 8.48
7/5/2021 1:30:00 AM 19.89 67.802 0.096 7.1 58.15 8.49
7/5/2021 1:45:00 AM 19.79 67.622 0.096 7.1 58.52 8.53
7/5/2021 2:00:00 AM 19.69 67.442 0.096 7.09 59.4 8.55
7/5/2021 2:15:00 AM 19.6 67.28 0.096 7.09 59.14 8.57
7/5/2021 2:30:00 AM 19.52 67.136 0.096 7.09 59.51 8.59
7/5/2021 2:45:00 AM 19.45 67.01 0.096 7.09 59.86 8.63
7/5/2021 3:00:00 AM 19.38 66.884 0.096 7.08 59.73 8.61
7/5/2021 3:15:00 AM 19.32 66.776 0.096 7.08 60.84 8.65
7/5/2021 3:30:00 AM 19.26 66.668 0.096 7.08 60.87 8.66
7/5/2021 3:45:00 AM 19.21 66.578 0.096 7.09 61.5 8.69
7/5/2021 4:00:00 AM 19.15 66.47 0.096 7.09 61.55 8.63
7/5/2021 4:15:00 AM 19.1 66.38 0.096 7.08 61.48 8.69
7/5/2021 4:30:00 AM 19.04 66.272 0.096 7.08 61.77 8.71
7/5/2021 4:45:00 AM 18.99 66.182 0.096 7.08 61.98 8.74
7/5/2021 5:00:00 AM 18.95 66.11 0.096 7.08 61.87 8.75
7/5/2021 5:15:00 AM 18.9 66.02 0.096 7.08 62.16 8.77
7/5/2021 5:30:00 AM 18.85 65.93 0.096 7.08 62.5 8.76
7/5/2021 5:45:00 AM 18.81 65.858 0.096 7.08 63.48 8.79
7/5/2021 6:00:00 AM 18.76 65.768 0.096 7.08 62.14 8.81
7/5/2021 6:15:00 AM 18.72 65.696 0.096 7.08 61.17 8.82
7/5/2021 6:30:00 AM 18.68 65.624 0.096 7.08 61.36 8.86
7/5/2021 6:45:00 AM 18.65 65.57 0.096 7.08 61.85 8.89
7/5/2021 7:00:00 AM 18.61 65.498 0.096 7.09 63.23 8.94
7/5/2021 7:15:00 AM 18.58 65.444 0.096 7.09 62.78 8.97
7/5/2021 7:30:00 AM 18.55 65.39 0.095 7.09 63.13 9.05
7/5/2021 7:45:00 AM 18.53 65.354 0.095 7.1 63.25 9.1
7/5/2021 8:00:00 AM 18.52 65.336 0.095 7.11 63.09 9.17
7/5/2021 8:15:00 AM 18.51 65.318 0.095 7.11 63.47 9.26
7/5/2021 8:30:00 AM 18.52 65.336 0.095 7.12 63.49 9.36
7/5/2021 8:45:00 AM 18.57 65.426 0.094 7.14 63.82 9.51
7/5/2021 9:00:00 AM 18.63 65.534 0.094 7.15 64.23 9.61
7/5/2021 9:15:00 AM 18.71 65.67799 0.094 7.18 64.49 9.67
7/5/2021 9:30:00 AM 18.77 65.786 0.094 7.2 64.45 9.71
7/5/2021 9:45:00 AM 18.85 65.93 0.094 7.22 64.88 9.76
7/5/2021 10:00:00 AM 18.97 66.146 0.093 7.24 65.59 9.82
7/5/2021 10:15:00 AM 19.11 66.398 0.093 7.26 66.27 9.84
7/5/2021 10:30:00 AM 19.28 66.704 0.093 7.27 66.16 9.86
7/5/2021 10:45:00 AM 19.46 67.028 0.093 7.29 65.96 9.87
7/5/2021 11:00:00 AM 19.66 67.388 0.093 7.31 66.54 9.88
7/5/2021 11:15:00 AM 19.88 67.784 0.093 7.32 67.37 9.86
7/5/2021 11:30:00 AM 20.12 68.216 0.092 7.34 66.63 9.88
7/5/2021 11:45:00 AM 20.39 68.702 0.092 7.37 66.94 9.85
7/5/2021 12:00:00 PM 20.66 69.188 0.092 7.38 66.73 9.82
7/5/2021 12:15:00 PM 20.92 69.656 0.092 7.4 67.45 9.78
7/5/2021 12:30:00 PM 21.19 70.142 0.092 7.42 65.95 9.77
7/5/2021 12:45:00 PM 21.44 70.592 0.092 7.44 66.74 9.71
7/5/2021 1:00:00 PM 21.71 71.078 0.092 7.45 66.85 9.7
7/5/2021 1:15:00 PM 21.98 71.564 0.092 7.48 67.33 9.66
7/5/2021 1:30:00 PM 22.27 72.086 0.092 7.5 67.88 9.63
7/5/2021 1:45:00 PM 22.52 72.536 0.092 7.52 68.26 9.57
7/5/2021 2:00:00 PM 22.76 72.968 0.092 7.55 65.97 9.52
7/5/2021 2:15:00 PM 22.97 73.346 0.092 7.56 66.63 9.49
7/5/2021 2:30:00 PM 23.18 73.724 0.092 7.58 67.39 9.45
7/5/2021 2:45:00 PM 23.38 74.084 0.092 7.6 65.87 9.41
7/5/2021 3:00:00 PM 23.58 74.444 0.091 7.61 62.2 9.35
7/5/2021 3:15:00 PM 23.66 74.588 0.091 7.62 60.41 9.3
7/5/2021 3:30:00 PM 23.88 74.984 0.091 7.62 60.8 9.26
7/5/2021 3:45:00 PM 23.94 75.092 0.091 7.62 61.35 9.2
7/5/2021 4:00:00 PM 23.98 75.164 0.091 7.61 61.57 9.16
7/5/2021 4:15:00 PM 24.07 75.326 0.091 7.61 61.06 9.13
7/5/2021 4:30:00 PM 24.16 75.488 0.091 7.62 61.96 9.07
7/5/2021 4:45:00 PM 24.29 75.722 0.091 7.61 65.08 9.05
7/5/2021 5:00:00 PM 24.44 75.992 0.091 7.61 65.05 9.01
7/5/2021 5:15:00 PM 24.43 75.974 0.091 7.59 64.45 8.91
7/5/2021 5:30:00 PM 24.39 75.902 0.091 7.58 63.97 8.85
7/5/2021 5:45:00 PM 24.4 75.92 0.091 7.56 63.88 8.78
7/5/2021 6:00:00 PM 24.43 75.974 0.091 7.55 63.83 8.76
7/5/2021 6:15:00 PM 24.42 75.956 0.091 7.52 64.46 8.68
7/5/2021 6:30:00 PM 24.42 75.956 0.091 7.5 65.48 8.62
7/5/2021 6:45:00 PM 24.43 75.974 0.091 7.46 65.53 8.56
7/5/2021 7:00:00 PM 24.44 75.992 0.092 7.43 65.35 8.48
7/5/2021 7:15:00 PM 24.42 75.956 0.092 7.41 65.65 8.42
7/5/2021 7:30:00 PM 24.38 75.884 0.092 7.38 64.2 8.35
7/5/2021 7:45:00 PM 24.33 75.794 0.092 7.35 64.34 8.27
7/5/2021 8:00:00 PM 24.27 75.686 0.093 7.32 65.41 8.19
7/5/2021 8:15:00 PM 24.19 75.542 0.093 7.29 65.01 8.1
7/5/2021 8:30:00 PM 24.1 75.38 0.093 7.26 66.02 8.02
7/5/2021 8:45:00 PM 24.01 75.218 0.093 7.23 65.81 7.96
7/5/2021 9:00:00 PM 23.91 75.038 0.094 7.19 66.15 7.91
7/5/2021 9:15:00 PM 23.81 74.858 0.094 7.16 69.84 7.88
7/5/2021 9:30:00 PM 23.71 74.67799 0.094 7.15 70.29 7.86
7/5/2021 9:45:00 PM 23.61 74.498 0.094 7.13 70.03 7.85
7/5/2021 10:00:00 PM 23.51 74.318 0.094 7.12 70.9 7.85
7/5/2021 10:15:00 PM 23.41 74.138 0.095 7.11 71.11 7.85
7/5/2021 10:30:00 PM 23.31 73.958 0.095 7.1 70.03 7.86
7/5/2021 10:45:00 PM 23.22 73.796 0.095 7.09 70.3 7.87
7/5/2021 11:00:00 PM 23.12 73.616 0.095 7.09 71.04 7.88
7/5/2021 11:15:00 PM 23.03 73.454 0.095 7.08 70.76 7.9
7/5/2021 11:30:00 PM 22.95 73.31 0.095 7.07 70.74 7.91
7/5/2021 11:45:00 PM 22.86 73.148 0.095 7.06 71.2 7.93
7/6/2021 12:00:00 AM 22.77 72.986 0.095 7.06 72.46 7.95
7/6/2021 12:15:00 AM 22.69 72.842 0.095 7.05 71.25 7.95
7/6/2021 12:30:00 AM 22.6 72.68 0.096 7.05 70.93 7.97
7/6/2021 12:45:00 AM 22.52 72.536 0.096 7.05 56.8 7.98
7/6/2021 1:00:00 AM 22.44 72.392 0.096 7.04 58.97 8
7/6/2021 1:15:00 AM 22.35 72.23 0.096 7.04 54.16 8.01
7/6/2021 1:30:00 AM 22.27 72.086 0.096 7.04 54.93 8.04
7/6/2021 1:45:00 AM 22.19 71.942 0.096 7.04 55.25 8.05
7/6/2021 2:00:00 AM 22.11 71.798 0.096 7.04 55.7 8.06
7/6/2021 2:15:00 AM 22.03 71.654 0.096 7.03 55.39 8.08
7/6/2021 2:30:00 AM 21.96 71.528 0.096 7.02 56.13 8.09
7/6/2021 2:45:00 AM 21.88 71.384 0.096 7.02 56.58 8.11
7/6/2021 3:00:00 AM 21.81 71.258 0.096 7.02 57.27 8.12
7/6/2021 3:15:00 AM 21.74 71.132 0.096 7.02 56.26 8.15
7/6/2021 3:30:00 AM 21.68 71.024 0.096 7.02 56.95 8.16
7/6/2021 3:45:00 AM 21.62 70.916 0.096 7.02 57.73 8.18
7/6/2021 4:00:00 AM 21.57 70.826 0.096 7.02 58.53 8.19
7/6/2021 4:15:00 AM 21.51 70.718 0.096 7.02 59.07 8.2
7/6/2021 4:30:00 AM 21.45 70.61 0.096 7.01 58.3 8.22
7/6/2021 4:45:00 AM 21.39 70.502 0.096 7.02 59.14 8.23
7/6/2021 5:00:00 AM 21.33 70.394 0.096 7.01 59.69 8.23
7/6/2021 5:15:00 AM 21.27 70.286 0.096 7.01 60.57 8.25
7/6/2021 5:30:00 AM 21.21 70.17799 0.096 7.01 60.08 8.25
7/6/2021 5:45:00 AM 21.15 70.07 0.096 7.01 61.89 8.27
7/6/2021 6:00:00 AM 21.1 69.98 0.096 7.01 64.01 8.29
7/6/2021 6:15:00 AM 21.05 69.89 0.096 7.01 63.94 8.32
7/6/2021 6:30:00 AM 21 69.8 0.096 7.02 70.68 8.37
7/6/2021 6:45:00 AM 20.96 69.728 0.096 7.03 71.32 8.45
7/6/2021 7:00:00 AM 20.92 69.656 0.096 7.04 70.15 8.53
7/6/2021 7:15:00 AM 20.89 69.602 0.096 7.05 67.8 8.61
7/6/2021 7:30:00 AM 20.86 69.548 0.096 7.05 67.62 8.71
7/6/2021 7:45:00 AM 20.85 69.53 0.096 7.05 67.28 8.81
7/6/2021 8:00:00 AM 20.86 69.548 0.095 7.06 66.94 8.9
7/6/2021 8:15:00 AM 20.89 69.602 0.095 7.08 61.89 9
7/6/2021 8:30:00 AM 20.94 69.692 0.095 7.09 66.1 9.09
7/6/2021 8:45:00 AM 20.99 69.782 0.095 7.11 68.25 9.16
7/6/2021 9:00:00 AM 21.07 69.926 0.095 7.13 67.36 9.21
7/6/2021 9:15:00 AM 21.13 70.034 0.094 7.14 69.19 9.25
7/6/2021 9:30:00 AM 21.24 70.232 0.094 7.16 68.16 9.3
7/6/2021 9:45:00 AM 21.37 70.466 0.094 7.19 46.89 9.35
7/6/2021 10:00:00 AM 21.51 70.718 0.094 7.21 47.27 9.4
7/6/2021 10:15:00 AM 21.69 71.042 0.094 7.23 47.78 9.42
7/6/2021 10:30:00 AM 21.91 71.438 0.093 7.25 48.22 9.44
7/6/2021 10:45:00 AM 22.11 71.798 0.093 7.27 47.27 9.45
7/6/2021 11:00:00 AM 22.32 72.176 0.093 7.29 52.19 9.45
7/6/2021 11:15:00 AM 22.55 72.59 0.093 7.3 49.87 9.44
7/6/2021 11:30:00 AM 22.73 72.914 0.093 7.32 51.12 9.41
7/6/2021 11:45:00 AM 22.96 73.328 0.092 7.33 50.57 9.4
7/6/2021 12:00:00 PM 23.15 73.67 0.092 7.35 50.79 9.36
7/6/2021 12:15:00 PM 23.36 74.048 0.092 7.36 50.49 9.33
7/6/2021 12:30:00 PM 23.69 74.642 0.092 7.38 50.38 9.35
7/6/2021 12:45:00 PM 24 75.2 0.092 7.41 51.44 9.33
7/6/2021 1:00:00 PM 24.3 75.74 0.092 7.43 51.27 9.29
7/6/2021 1:15:00 PM 24.56 76.208 0.092 7.45 52.59 9.26
7/6/2021 1:30:00 PM 24.66 76.388 0.092 7.48 49.27 9.24
7/6/2021 1:45:00 PM 24.65 76.37 0.092 7.5 49.35 9.2
7/6/2021 2:00:00 PM 24.66 76.388 0.092 7.52 49.66 9.16
7/6/2021 2:15:00 PM 24.76 76.568 0.092 7.54 45.83 9.18
7/6/2021 2:30:00 PM 24.89 76.802 0.091 7.56 45.04 9.12
7/6/2021 2:45:00 PM 25.19 77.342 0.092 7.58 44.94 9.03
7/6/2021 3:00:00 PM 25.59 78.062 0.091 7.6 47.91 9.11
7/6/2021 3:15:00 PM 25.92 78.656 0.091 7.62 46.98 9.04
7/6/2021 3:30:00 PM 26.07 78.926 0.091 7.62 47.39 8.85
7/6/2021 3:45:00 PM 26.02 78.836 0.091 7.62 45.49 8.88
7/6/2021 4:00:00 PM 25.84 78.512 0.091 7.61 43.2 8.78
7/6/2021 4:15:00 PM 25.67 78.206 0.091 7.57 45.54 8.65
7/6/2021 4:30:00 PM 25.58 78.044 0.092 7.52 45.47 8.5
7/6/2021 4:45:00 PM 25.54 77.972 0.092 7.48 45.9 8.11
7/6/2021 5:00:00 PM 25.51 77.918 0.092 7.44 44.97 8.35
7/6/2021 5:15:00 PM 25.49 77.882 0.092 7.41 44.36 8.32
7/6/2021 5:30:00 PM 25.43 77.774 0.092 7.37 42.96 8.09
7/6/2021 5:45:00 PM 25.32 77.576 0.092 7.34 34.55 8.16
7/6/2021 6:00:00 PM 25.23 77.414 0.092 7.3 34.42 8.16
7/6/2021 6:15:00 PM 25.17 77.306 0.092 7.29 32.13 8.25
7/6/2021 6:30:00 PM 25.18 77.324 0.092 7.3 31.51 8.38
7/6/2021 6:45:00 PM 25.16 77.288 0.092 7.29 29.56 8.39
7/6/2021 7:00:00 PM 25.08 77.144 0.092 7.28 29.6 8.3
7/6/2021 7:15:00 PM 24.95 76.91 0.093 7.26 30.62 8.16
7/6/2021 7:30:00 PM 24.84 76.712 0.093 7.24 31.13 8.06
7/6/2021 7:45:00 PM 24.76 76.568 0.093 7.22 31.06 8.01
7/6/2021 8:00:00 PM 24.69 76.442 0.094 7.2 31.13 7.98
7/6/2021 8:15:00 PM 24.62 76.316 0.094 7.19 30.64 7.98
7/6/2021 8:30:00 PM 24.56 76.208 0.094 7.16 32.45 7.96
7/6/2021 8:45:00 PM 24.48 76.064 0.094 7.15 32.02 7.91
7/6/2021 9:00:00 PM 24.39 75.902 0.094 7.13 32.05 7.85
7/6/2021 9:15:00 PM 24.29 75.722 0.095 7.13 31.64 7.81
7/6/2021 9:30:00 PM 24.18 75.524 0.095 7.11 31.76 7.79
7/6/2021 9:45:00 PM 24.08 75.344 0.095 7.11 26.39 7.78
7/6/2021 10:00:00 PM 23.98 75.164 0.095 7.1 26.23 7.79
7/6/2021 10:15:00 PM 23.88 74.984 0.095 7.1 25.97 7.79
7/6/2021 10:30:00 PM 23.78 74.804 0.096 7.08 26.72 7.81
7/6/2021 10:45:00 PM 23.68 74.624 0.096 7.08 26.13 7.82
7/6/2021 11:00:00 PM 23.59 74.462 0.096 7.07 26.93 7.84
7/6/2021 11:15:00 PM 23.52 74.336 0.096 7.07 8.87 7.86
7/6/2021 11:30:00 PM 23.44 74.192 0.096 7.06 7.71 7.86
7/6/2021 11:45:00 PM 23.37 74.066 0.096 7.05 7.01 7.88
7/7/2021 12:00:00 AM 23.3 73.94 0.096 7.05 6.49 7.88
7/7/2021 12:15:00 AM 23.23 73.814 0.096 7.04 7.03 7.89
7/7/2021 12:30:00 AM 23.16 73.688 0.096 7.04 6.84 7.9
7/7/2021 12:45:00 AM 23.1 73.58 0.096 7.04 7.3 7.91
7/7/2021 1:00:00 AM 23.05 73.49 0.096 7.04 6.99 7.92
7/7/2021 1:15:00 AM 22.99 73.382 0.095 7.04 7.48 7.93
7/7/2021 1:30:00 AM 22.94 73.292 0.096 7.03 7.01 7.94
7/7/2021 1:45:00 AM 22.89 73.202 0.096 7.02 7.21 7.95
7/7/2021 2:00:00 AM 22.84 73.112 0.095 7.03 7.15 7.96
7/7/2021 2:15:00 AM 22.79 73.022 0.095 7.03 6.44 7.97
7/7/2021 2:30:00 AM 22.74 72.932 0.095 7.02 7.91 7.97
7/7/2021 2:45:00 AM 22.7 72.86 0.095 7.03 6.57 7.98
7/7/2021 3:00:00 AM 22.66 72.788 0.095 7.02 6.47 7.98
7/7/2021 3:15:00 AM 22.61 72.698 0.096 7.02 6.9 7.99
7/7/2021 3:30:00 AM 22.56 72.608 0.096 7.01 8.1 7.99
7/7/2021 3:45:00 AM 22.51 72.518 0.096 7.03 7.24 8
7/7/2021 4:00:00 AM 22.46 72.42799 0.096 7.02 7.13 8.02
7/7/2021 4:15:00 AM 22.42 72.356 0.096 7.02 7.21 8.02
7/7/2021 4:30:00 AM 22.38 72.284 0.096 7.02 6.89 8.04
7/7/2021 4:45:00 AM 22.33 72.194 0.096 7.02 6.99 8.05
7/7/2021 5:00:00 AM 22.27 72.086 0.097 7.02 6.96 8.06
7/7/2021 5:15:00 AM 22.22 71.996 0.097 7.03 6.81 8.07
7/7/2021 5:30:00 AM 22.17 71.906 0.097 7.03 6.69 8.07
7/7/2021 5:45:00 AM 22.13 71.834 0.097 7.04 6.51 8.09
7/7/2021 6:00:00 AM 22.08 71.744 0.097 7.05 6.56 8.11
7/7/2021 6:15:00 AM 22.04 71.672 0.097 7.05 6.4 8.14
7/7/2021 6:30:00 AM 21.99 71.582 0.097 7.05 6.56 8.19
7/7/2021 6:45:00 AM 21.94 71.492 0.097 7.06 6.21 8.25
7/7/2021 7:00:00 AM 21.9 71.42 0.097 7.07 6.17 8.31
7/7/2021 7:15:00 AM 21.87 71.366 0.097 7.08 6.14 8.42
7/7/2021 7:30:00 AM 21.84 71.312 0.097 7.09 5.99 8.52
7/7/2021 7:45:00 AM 21.83 71.294 0.096 7.11 6.09 8.64
7/7/2021 8:00:00 AM 21.82 71.276 0.096 7.13 6.14 8.75
7/7/2021 8:15:00 AM 21.81 71.258 0.096 7.15 5.92 8.82
7/7/2021 8:30:00 AM 21.83 71.294 0.096 7.16 5.85 8.92
7/7/2021 8:45:00 AM 21.87 71.366 0.095 7.18 5.91 8.99
7/7/2021 9:00:00 AM 21.93 71.474 0.095 7.21 5.86 9.07
7/7/2021 9:15:00 AM 22.01 71.618 0.095 7.23 6.03 9.14
7/7/2021 9:30:00 AM 22.1 71.78 0.095 7.24 5.9 9.19
7/7/2021 9:45:00 AM 22.22 71.996 0.094 7.26 5.89 9.24
7/7/2021 10:00:00 AM 22.35 72.23 0.094 7.28 5.88 9.28
7/7/2021 10:15:00 AM 22.5 72.5 0.094 7.29 5.88 9.3
7/7/2021 10:30:00 AM 22.62 72.716 0.094 7.32 5.74 9.32
7/7/2021 10:45:00 AM 22.73 72.914 0.094 7.33 5.83 9.3
7/7/2021 11:00:00 AM 22.91 73.238 0.094 7.35 5.87 9.32
7/7/2021 11:15:00 AM 23.17 73.706 0.093 7.37 5.83 9.36
7/7/2021 11:30:00 AM 23.36 74.048 0.093 7.39 5.87 9.33
7/7/2021 11:45:00 AM 23.49 74.282 0.093 7.41 5.62 9.31
7/7/2021 12:00:00 PM 23.71 74.67799 0.093 7.43 5.76 9.31
7/7/2021 12:15:00 PM 24.03 75.254 0.093 7.45 5.89 9.29
7/7/2021 12:30:00 PM 24.18 75.524 0.093 7.47 5.89 9.26
7/7/2021 12:45:00 PM 24.35 75.83 0.093 7.49 5.98 9.24
7/7/2021 1:00:00 PM 24.6 76.28 0.092 7.5 5.82 9.22
7/7/2021 1:15:00 PM 24.85 76.73 0.092 7.52 5.9 9.2
7/7/2021 1:30:00 PM 25.04 77.07201 0.092 7.54 5.94 9.17
7/7/2021 1:45:00 PM 25.26 77.468 0.092 7.55 5.99 9.15
7/7/2021 2:00:00 PM 25.46 77.828 0.092 7.57 6.01 9.11
7/7/2021 2:15:00 PM 25.78 78.404 0.092 7.58 5.93 9.09
7/7/2021 2:30:00 PM 26.13 79.034 0.092 7.6 6.07 9.07
7/7/2021 2:45:00 PM 26.42 79.556 0.092 7.63 6.17 9.02
7/7/2021 3:00:00 PM 26.69 80.042 0.092 7.65 6.1 8.99
7/7/2021 3:15:00 PM 26.93 80.474 0.092 7.66 6.09 8.93
7/7/2021 3:30:00 PM 27.12 80.816 0.092 7.67 6.13 8.88
7/7/2021 3:45:00 PM 27.26 81.068 0.092 7.68 6.43 8.84
7/7/2021 4:00:00 PM 27.42 81.356 0.092 7.68 6.19 8.79
7/7/2021 4:15:00 PM 27.54 81.57201 0.092 7.69 6.33 8.73
7/7/2021 4:30:00 PM 27.64 81.752 0.092 7.69 6.41 8.68
7/7/2021 4:45:00 PM 27.75 81.95 0.092 7.68 6.37 8.61
7/7/2021 5:00:00 PM 27.82 82.076 0.092 7.67 6.57 8.55
7/7/2021 5:15:00 PM 27.84 82.112 0.092 7.65 6.65 8.48
7/7/2021 5:30:00 PM 27.86 82.148 0.092 7.64 6.5 8.39
7/7/2021 5:45:00 PM 27.86 82.148 0.092 7.61 6.54 8.29
7/7/2021 6:00:00 PM 27.83 82.094 0.092 7.59 6.62 8.23
7/7/2021 6:15:00 PM 27.78 82.004 0.092 7.55 6.84 8.14
7/7/2021 6:30:00 PM 27.7 81.86 0.092 7.51 6.72 8.04
7/7/2021 6:45:00 PM 27.59 81.662 0.093 7.47 6.94 7.89
7/7/2021 7:00:00 PM 27.38 81.284 0.093 7.41 7.19 7.69
7/7/2021 7:15:00 PM 27.13 80.834 0.093 7.35 7.28 7.54
7/7/2021 7:30:00 PM 26.91 80.438 0.093 7.3 7.81 7.48
7/7/2021 7:45:00 PM 26.74 80.132 0.094 7.26 8.23 7.43
7/7/2021 8:00:00 PM 26.56 79.808 0.094 7.22 8.36 7.39
7/7/2021 8:15:00 PM 26.38 79.484 0.094 7.19 8.34 7.39
7/7/2021 8:30:00 PM 26.18 79.124 0.094 7.17 8.54 7.39
7/7/2021 8:45:00 PM 25.98 78.764 0.094 7.15 9.18 7.39
7/7/2021 9:00:00 PM 25.78 78.404 0.095 7.14 9.13 7.39
7/7/2021 9:15:00 PM 25.59 78.062 0.095 7.11 9.47 7.4
7/7/2021 9:30:00 PM 25.41 77.738 0.095 7.11 9.77 7.41
7/7/2021 9:45:00 PM 25.24 77.432 0.095 7.1 9.99 7.44
7/7/2021 10:00:00 PM 25.09 77.162 0.095 7.09 9.82 7.45
7/7/2021 10:15:00 PM 24.93 76.874 0.096 7.1 9.72 7.46
7/7/2021 10:30:00 PM 24.78 76.604 0.096 7.12 9.48 7.52
7/7/2021 10:45:00 PM 24.64 76.352 0.096 7.13 6.98 7.54
7/7/2021 11:00:00 PM 24.5 76.1 0.096 7.13 5.74 7.57
7/7/2021 11:15:00 PM 24.37 75.866 0.096 7.14 5.33 7.59
7/7/2021 11:30:00 PM 24.25 75.65 0.096 7.14 5.59 7.64
7/7/2021 11:45:00 PM 24.13 75.434 0.096 7.12 5.15 7.66
7/8/2021 12:00:00 AM 24.01 75.218 0.096 7.13 5.53 7.69
7/8/2021 12:15:00 AM 23.9 75.02 0.096 7.13 5.2 7.7
7/8/2021 12:30:00 AM 23.79 74.82201 0.096 7.13 5.44 7.73
7/8/2021 12:45:00 AM 23.68 74.624 0.097 7.13 5.38 7.75
7/8/2021 1:00:00 AM 23.58 74.444 0.097 7.13 5.43 7.77
7/8/2021 1:15:00 AM 23.48 74.264 0.097 7.14 7.69 7.79
7/8/2021 1:30:00 AM 23.38 74.084 0.097 7.14 5.45 7.81
7/8/2021 1:45:00 AM 23.29 73.922 0.097 7.14 5.57 7.82
7/8/2021 2:00:00 AM 23.2 73.76 0.098 7.14 2964.75 7.85
7/8/2021 2:15:00 AM 23.11 73.598 0.096 7.14 5.54 7.88
7/8/2021 2:30:00 AM 23.02 73.436 0.096 7.14 5.58 7.9
7/8/2021 2:45:00 AM 22.95 73.31 0.096 7.14 5.72 7.91
7/8/2021 3:00:00 AM 22.89 73.202 0.096 7.14 71.82 7.92
7/8/2021 3:15:00 AM 22.82 73.076 0.096 7.14 5.53 7.94
7/8/2021 3:30:00 AM 22.75 72.95 0.096 7.14 5.69 7.95
7/8/2021 3:45:00 AM 22.69 72.842 0.096 7.13 5.44 7.96
7/8/2021 4:00:00 AM 22.62 72.716 0.096 7.14 5.34 7.98
7/8/2021 4:15:00 AM 22.56 72.608 0.096 7.14 5.38 7.99
7/8/2021 4:30:00 AM 22.5 72.5 0.096 7.14 5.56 7.99
7/8/2021 4:45:00 AM 22.43 72.374 0.096 7.14 5.22 8.02
7/8/2021 5:00:00 AM 22.37 72.266 0.096 7.14 5.27 8.02
7/8/2021 5:15:00 AM 22.31 72.158 0.096 7.14 6.08 8.02
7/8/2021 5:30:00 AM 22.25 72.05 0.096 7.14 5.39 8.04
7/8/2021 5:45:00 AM 22.19 71.942 0.096 7.14 5.29 8.07
7/8/2021 6:00:00 AM 22.14 71.852 0.096 7.14 6.52 8.06
7/8/2021 6:15:00 AM 22.09 71.762 0.096 7.14 5.3 8.11
7/8/2021 6:30:00 AM 22.04 71.672 0.096 7.14 5.46 8.14
7/8/2021 6:45:00 AM 22 71.6 0.096 7.14 5.27 8.17
7/8/2021 7:00:00 AM 21.96 71.528 0.096 7.15 5.3 8.21
7/8/2021 7:15:00 AM 21.92 71.456 0.096 7.15 5.27 8.25
7/8/2021 7:30:00 AM 21.89 71.402 0.096 7.16 5.26 8.27
7/8/2021 7:45:00 AM 21.86 71.348 0.096 7.17 5.24 8.3
7/8/2021 8:00:00 AM 21.85 71.33 0.096 7.18 5.19 8.45
7/8/2021 8:15:00 AM 21.84 71.312 0.095 7.2 5.43 8.52
7/8/2021 8:30:00 AM 21.82 71.276 0.095 7.2 5.41 8.52
7/8/2021 8:45:00 AM 21.79 71.222 0.095 7.21 5.39 8.5
7/8/2021 9:00:00 AM 21.78 71.204 0.095 7.21 5.67 8.55
7/8/2021 9:15:00 AM 21.77 71.186 0.095 7.22 5.84 8.6
7/8/2021 9:30:00 AM 21.75 71.15 0.094 7.23 6.23 8.62
7/8/2021 9:45:00 AM 21.74 71.132 0.094 7.22 6.16 8.64
7/8/2021 10:00:00 AM 21.77 71.186 0.094 7.22 6.13 8.74
7/8/2021 10:15:00 AM 21.85 71.33 0.094 7.26 6.05 8.94
7/8/2021 10:30:00 AM 21.91 71.438 0.093 7.29 6.44 9
7/8/2021 10:45:00 AM 21.94 71.492 0.093 7.32 6.4 9.03
7/8/2021 11:00:00 AM 22.01 71.618 0.093 7.36 6.37 9.14
7/8/2021 11:15:00 AM 22.19 71.942 0.093 7.4 6.6 9.25
7/8/2021 11:30:00 AM 22.41 72.338 0.093 7.45 6.56 9.28
7/8/2021 11:45:00 AM 22.63 72.734 0.092 7.49 6.53 9.33
7/8/2021 12:00:00 PM 22.65 72.77 0.092 7.53 6.66 9.33
7/8/2021 12:15:00 PM 22.64 72.752 0.092 7.56 6.56 9.26
7/8/2021 12:30:00 PM 22.63 72.734 0.092 7.57 6.42 9.22
7/8/2021 12:45:00 PM 22.63 72.734 0.092 7.56 6.33 9.17
7/8/2021 1:00:00 PM 22.7 72.86 0.091 7.57 6.5 9.14
7/8/2021 1:15:00 PM 22.8 73.04 0.091 7.58 6.63 9.14
7/8/2021 1:30:00 PM 22.86 73.148 0.091 7.59 6.31 9.08
7/8/2021 1:45:00 PM 22.88 73.184 0.091 7.59 6.24 9.08
7/8/2021 2:00:00 PM 22.86 73.148 0.091 7.59 6.68 9.03
7/8/2021 2:15:00 PM 22.89 73.202 0.091 7.59 6.45 9.07
7/8/2021 2:30:00 PM 22.94 73.292 0.091 7.61 6.7 9.12
7/8/2021 2:45:00 PM 22.92 73.256 0.09 7.62 6.37 9.05
7/8/2021 3:00:00 PM 22.91 73.238 0.09 7.61 6.48 9.06
7/8/2021 3:15:00 PM 22.96 73.328 0.09 7.63 6.5 9.12
7/8/2021 3:30:00 PM 23 73.4 0.09 7.66 6.43 9.16
7/8/2021 3:45:00 PM 23.02 73.436 0.09 7.69 6.57 9.17
7/8/2021 4:00:00 PM 23.03 73.454 0.09 7.7 6.45 9.14
7/8/2021 4:15:00 PM 23 73.4 0.09 7.69 6.52 9.07
7/8/2021 4:30:00 PM 22.99 73.382 0.09 7.68 6.6 9.04
7/8/2021 4:45:00 PM 22.99 73.382 0.09 7.67 6.7 9.02
7/8/2021 5:00:00 PM 22.99 73.382 0.09 7.66 6.69 9
7/8/2021 5:15:00 PM 23 73.4 0.09 7.65 6.67 9
7/8/2021 5:30:00 PM 23.05 73.49 0.09 7.66 6.57 9.03
7/8/2021 5:45:00 PM 23.08 73.544 0.09 7.66 6.48 8.98
7/8/2021 6:00:00 PM 23.06 73.508 0.091 7.64 6.63 8.91
7/8/2021 6:15:00 PM 22.99 73.382 0.091 7.6 6.67 8.7
7/8/2021 6:30:00 PM 22.93 73.274 0.091 7.53 6.77 8.51
7/8/2021 6:45:00 PM 22.88 73.184 0.091 7.47 6.78 8.43
7/8/2021 7:00:00 PM 22.81 73.058 0.09 7.42 6.97 8.39
7/8/2021 7:15:00 PM 22.77 72.986 0.09 7.36 7.12 8.33
7/8/2021 7:30:00 PM 22.75 72.95 0.091 7.33 7.58 8.3
7/8/2021 7:45:00 PM 22.72 72.896 0.091 7.31 7.88 8.33
7/8/2021 8:00:00 PM 22.68 72.824 0.091 7.3 9.15 8.31
7/8/2021 8:15:00 PM 22.62 72.716 0.091 7.26 8.63 8.26
7/8/2021 8:30:00 PM 22.58 72.644 0.092 7.24 7.92 8.23
7/8/2021 8:45:00 PM 22.52 72.536 0.092 7.24 7.95 8.21
7/8/2021 9:00:00 PM 22.47 72.446 0.092 7.22 5.89 8.17
7/8/2021 9:15:00 PM 22.42 72.356 0.092 7.21 5.91 8.14
7/8/2021 9:30:00 PM 22.37 72.266 0.093 7.2 6.69 8.12
7/8/2021 9:45:00 PM 22.33 72.194 0.093 7.18 6.05 8.13
7/8/2021 10:00:00 PM 22.28 72.104 0.085 7.18 6.12 8.12
7/8/2021 10:15:00 PM 22.22 71.996 0.094 7.17 5.67 8.12
7/8/2021 10:30:00 PM 22.16 71.888 0.094 7.17 5.99 8.11
7/8/2021 10:45:00 PM 22.1 71.78 0.094 7.17 5.9 8.11
7/8/2021 11:00:00 PM 22.04 71.672 0.095 7.17 5.93 8.13
7/8/2021 11:15:00 PM 21.98 71.564 0.095 7.16 6.03 8.11
7/8/2021 11:30:00 PM 21.93 71.474 0.095 7.16 5.91 8.09
7/8/2021 11:45:00 PM 21.87 71.366 0.095 7.16 6.16 8.11
7/9/2021 12:00:00 AM 21.82 71.276 0.096 7.15 6.57 8.13
7/9/2021 12:15:00 AM 21.76 71.168 0.096 7.15 6.08 8.08
7/9/2021 12:30:00 AM 21.71 71.078 0.096 7.15 6.24 8.18
7/9/2021 12:45:00 AM 21.66 70.988 0.097 7.14 6.7 8.18
7/9/2021 1:00:00 AM 21.61 70.898 0.097 7.14 8.05 8.19
7/9/2021 1:15:00 AM 21.57 70.826 0.098 7.14 6.9 8.19
7/9/2021 1:30:00 AM 21.51 70.718 0.098 7.14 7.04 8.21
7/9/2021 1:45:00 AM 21.46 70.628 0.098 7.15 6.9 8.21
7/9/2021 2:00:00 AM 21.41 70.538 0.098 7.15 6.93 8.23
7/9/2021 2:15:00 AM 21.36 70.448 0.099 7.15 6.91 8.23
7/9/2021 2:30:00 AM 21.31 70.358 0.099 7.15 6.62 8.22
7/9/2021 2:45:00 AM 21.26 70.268 0.099 7.1 6.26 8.24
7/9/2021 3:00:00 AM 21.21 70.17799 0.099 7.11 6.23 8.24
7/9/2021 3:15:00 AM 21.16 70.088 0.099 7.11 6.94 8.28
7/9/2021 3:30:00 AM 21.12 70.016 0.099 7.12 6.14 8.3
7/9/2021 3:45:00 AM 21.09 69.962 0.099 7.12 5.95 8.29
7/9/2021 4:00:00 AM 21.05 69.89 0.099 7.12 6.29 8.32
7/9/2021 4:15:00 AM 21.01 69.818 0.099 7.12 6.11 8.33
7/9/2021 4:30:00 AM 20.97 69.746 0.099 7.11 6.16 8.33
7/9/2021 4:45:00 AM 20.93 69.674 0.099 7.13 21.41 8.34
7/9/2021 5:00:00 AM 20.9 69.62 0.1 7.12 6.13 8.35
7/9/2021 5:15:00 AM 20.87 69.566 0.1 7.11 6.22 8.35
7/9/2021 5:30:00 AM 20.83 69.494 0.1 7.11 6.32 8.36
7/9/2021 5:45:00 AM 20.8 69.44 0.1 7.11 6.21 8.38
7/9/2021 6:00:00 AM 20.77 69.386 0.1 7.11 6.64 8.39
7/9/2021 6:15:00 AM 20.73 69.314 0.1 7.11 6.27 8.36
7/9/2021 6:30:00 AM 20.71 69.278 0.1 7.11 6.17 8.41
7/9/2021 6:45:00 AM 20.69 69.242 0.1 7.13 6.25 8.45
7/9/2021 7:00:00 AM 20.68 69.224 0.1 7.15 6.21 8.56
7/9/2021 7:15:00 AM 20.68 69.224 0.1 7.18 6.27 8.67
7/9/2021 7:30:00 AM 20.67 69.206 0.1 7.17 6.18 8.68
7/9/2021 7:45:00 AM 20.66 69.188 0.1 7.2 6.26 8.69
7/9/2021 8:00:00 AM 20.69 69.242 0.1 7.2 6.39 8.9
7/9/2021 8:15:00 AM 20.72 69.296 0.1 7.22 6.54 9.01
7/9/2021 8:30:00 AM 20.73 69.314 0.1 7.23 6.92 9.04
7/9/2021 8:45:00 AM 20.8 69.44 0.1 7.27 7.08 9.15
7/9/2021 9:00:00 AM 20.79 69.422 0.101 7.29 7.12 9.1
7/9/2021 9:15:00 AM 20.77 69.386 0.101 7.3 7.05 9
7/9/2021 9:30:00 AM 20.88 69.584 0.101 7.33 7.38 9.2
7/9/2021 9:45:00 AM 20.9 69.62 0.101 7.37 7.2 9.25
7/9/2021 10:00:00 AM 20.94 69.692 0.101 7.4 7.06 9.28
7/9/2021 10:15:00 AM 21 69.8 0.101 7.43 6.92 9.33
7/9/2021 10:30:00 AM 21.01 69.818 0.101 7.45 7.07 9.27
7/9/2021 10:45:00 AM 20.99 69.782 0.101 7.44 7.07 9.16
7/9/2021 11:00:00 AM 20.99 69.782 0.101 7.43 7.01 9.13
7/9/2021 11:15:00 AM 21.04 69.872 0.101 7.43 6.92 9.19
7/9/2021 11:30:00 AM 21.26 70.268 0.101 7.46 6.99 9.37
7/9/2021 11:45:00 AM 21.35 70.43 0.101 7.51 7.06 9.44
7/9/2021 12:00:00 PM 21.5 70.7 0.101 7.54 6.94 9.48
7/9/2021 12:15:00 PM 21.71 71.078 0.102 7.57 6.97 9.49
7/9/2021 12:30:00 PM 21.8 71.24 0.102 7.6 6.97 9.49
7/9/2021 12:45:00 PM 21.92 71.456 0.102 7.63 7.09 9.49
7/9/2021 1:00:00 PM 22.14 71.852 0.102 7.65 6.97 9.48
7/9/2021 1:15:00 PM 22.41 72.338 0.102 7.69 6.76 9.49
7/9/2021 1:30:00 PM 22.36 72.248 0.103 7.68 6.83 9.28
7/9/2021 1:45:00 PM 22.67 72.806 0.103 7.68 7.07 9.31
7/9/2021 2:00:00 PM 22.82 73.076 0.103 7.69 7.01 9.23
7/9/2021 2:15:00 PM 22.89 73.202 0.103 7.69 6.89 9.21
7/9/2021 2:30:00 PM 23.28 73.904 0.103 7.71 6.81 9.24
7/9/2021 2:45:00 PM 23.52 74.336 0.103 7.74 6.85 9.23
7/9/2021 3:00:00 PM 23.61 74.498 0.103 7.76 6.9 9.18
7/9/2021 3:15:00 PM 23.85 74.93 0.104 7.78 6.91 9.2
7/9/2021 3:30:00 PM 24.08 75.344 0.104 7.8 7.08 9.19
7/9/2021 3:45:00 PM 24.15 75.47 0.103 7.83 6.56 9.18
7/9/2021 4:00:00 PM 24.25 75.65 0.104 7.84 5.92 9.12
7/9/2021 4:15:00 PM 24.37 75.866 0.104 7.85 6.01 9.07
7/9/2021 4:30:00 PM 24.42 75.956 0.104 7.85 5.61 8.98
7/9/2021 4:45:00 PM 24.41 75.938 0.104 7.83 5.06 8.92
7/9/2021 5:00:00 PM 24.4 75.92 0.104 7.81 5.23 8.89
7/9/2021 5:15:00 PM 24.47 76.046 0.104 7.81 5.41 8.88
7/9/2021 5:30:00 PM 24.5 76.1 0.104 7.8 5.26 8.82
7/9/2021 5:45:00 PM 24.46 76.028 0.103 7.79 5.33 8.77
7/9/2021 6:00:00 PM 24.4 75.92 0.104 7.77 5.25 8.71
7/9/2021 6:15:00 PM 24.35 75.83 0.104 7.74 5.27 8.67
7/9/2021 6:30:00 PM 24.26 75.668 0.104 7.7 5.37 8.57
7/9/2021 6:45:00 PM 24.18 75.524 0.104 7.66 5.41 8.47
7/9/2021 7:00:00 PM 24.13 75.434 0.104 7.62 5.48 8.4
7/9/2021 7:15:00 PM 24.05 75.29 0.104 7.58 5.44 8.33
7/9/2021 7:30:00 PM 24 75.2 0.104 7.54 5.58 8.28
7/9/2021 7:45:00 PM 23.91 75.038 0.104 7.51 5.58 8.23
7/9/2021 8:00:00 PM 23.81 74.858 0.105 7.48 5.76 8.19
7/9/2021 8:15:00 PM 23.68 74.624 0.105 7.46 5.72 8.15
7/9/2021 8:30:00 PM 23.54 74.372 0.105 7.43 6.06 8.11
7/9/2021 8:45:00 PM 23.4 74.12 0.105 7.41 6.23 8.02
7/9/2021 9:00:00 PM 23.25 73.85 0.105 7.38 6.8 8.07
7/9/2021 9:15:00 PM 23.12 73.616 0.106 7.36 7.74 8.07
7/9/2021 9:30:00 PM 22.98 73.364 0.106 7.33 10.25 8.07
7/9/2021 9:45:00 PM 22.82 73.076 0.107 7.31 10.21 8.07
7/9/2021 10:00:00 PM 22.67 72.806 0.107 7.29 10.33 8.09
7/9/2021 10:15:00 PM 22.52 72.536 0.107 7.29 10.32 8.12
7/9/2021 10:30:00 PM 22.38 72.284 0.107 7.28 9.94 8.14
7/9/2021 10:45:00 PM 22.25 72.05 0.107 7.27 9.66 8.16
7/9/2021 11:00:00 PM 22.12 71.816 0.107 7.27 9.28 8.19
7/9/2021 11:15:00 PM 21.99 71.582 0.107 7.26 9.38 8.21
7/9/2021 11:30:00 PM 21.87 71.366 0.108 7.23 8.98 8.24
7/9/2021 11:45:00 PM 21.77 71.186 0.108 7.22 8.68 8.26
7/10/2021 12:00:00 AM 21.67 71.006 0.108 7.21 8.39 8.28
7/10/2021 12:15:00 AM 21.58 70.844 0.108 7.2 8.24 8.3
7/10/2021 12:30:00 AM 21.49 70.682 0.108 7.2 8.29 8.31
7/10/2021 12:45:00 AM 21.41 70.538 0.108 7.19 7.98 8.34
7/10/2021 1:00:00 AM 21.33 70.394 0.109 7.19 7.99 8.34
7/10/2021 1:15:00 AM 21.25 70.25 0.109 7.19 7.92 8.36
7/10/2021 1:30:00 AM 21.18 70.124 0.109 7.18 8.16 8.38
7/10/2021 1:45:00 AM 21.11 69.998 0.109 7.18 8.06 8.39
7/10/2021 2:00:00 AM 21.05 69.89 0.109 7.18 7.79 8.4
7/10/2021 2:15:00 AM 20.99 69.782 0.109 7.19 8.32 8.41
7/10/2021 2:30:00 AM 20.92 69.656 0.109 7.18 8.37 8.43
7/10/2021 2:45:00 AM 20.86 69.548 0.109 7.17 8.24 8.43
7/10/2021 3:00:00 AM 20.8 69.44 0.109 7.17 8.36 8.45
7/10/2021 3:15:00 AM 20.74 69.332 0.109 7.17 8.27 8.46
7/10/2021 3:30:00 AM 20.68 69.224 0.109 7.18 8.05 8.46
7/10/2021 3:45:00 AM 20.62 69.116 0.109 7.18 7.8 8.48
7/10/2021 4:00:00 AM 20.56 69.008 0.109 7.18 7.3 8.49
7/10/2021 4:15:00 AM 20.51 68.918 0.109 7.17 7.25 8.5
7/10/2021 4:30:00 AM 20.45 68.81 0.109 7.17 7.26 8.51
7/10/2021 4:45:00 AM 20.39 68.702 0.109 7.16 7.19 8.52
7/10/2021 5:00:00 AM 20.34 68.612 0.109 7.17 7.25 8.53
7/10/2021 5:15:00 AM 20.29 68.522 0.109 7.17 7.3 8.54
7/10/2021 5:30:00 AM 20.23 68.414 0.109 7.16 7.11 8.54
7/10/2021 5:45:00 AM 20.18 68.324 0.109 7.18 7.21 8.56
7/10/2021 6:00:00 AM 20.13 68.234 0.109 7.17 7.06 8.56
7/10/2021 6:15:00 AM 20.08 68.144 0.109 7.17 6.93 8.59
7/10/2021 6:30:00 AM 20.04 68.07201 0.109 7.18 7.24 8.63
7/10/2021 6:45:00 AM 20.01 68.018 0.109 7.18 7.05 8.66
7/10/2021 7:00:00 AM 19.98 67.964 0.109 7.2 6.88 8.74
7/10/2021 7:15:00 AM 19.95 67.91 0.109 7.21 6.78 8.81
7/10/2021 7:30:00 AM 19.92 67.856 0.11 7.23 7.12 8.89
7/10/2021 7:45:00 AM 19.89 67.802 0.11 7.24 6.87 8.93
7/10/2021 8:00:00 AM 19.88 67.784 0.11 7.27 6.88 9
7/10/2021 8:15:00 AM 19.9 67.82 0.11 7.3 6.75 9.08
7/10/2021 8:30:00 AM 19.93 67.874 0.11 7.33 6.74 9.17
7/10/2021 8:45:00 AM 19.97 67.946 0.11 7.36 6.78 9.24
7/10/2021 9:00:00 AM 20.09 68.162 0.11 7.39 6.61 9.36
7/10/2021 9:15:00 AM 20.27 68.486 0.11 7.43 6.68 9.45
7/10/2021 9:30:00 AM 20.32 68.576 0.11 7.46 6.53 9.47
7/10/2021 9:45:00 AM 20.3 68.54 0.11 7.48 6.58 9.46
7/10/2021 10:00:00 AM 20.33 68.594 0.11 7.5 6.68 9.49
7/10/2021 10:15:00 AM 20.43 68.774 0.11 7.52 6.62 9.55
7/10/2021 10:30:00 AM 20.63 69.134 0.111 7.56 6.6 9.56
7/10/2021 10:45:00 AM 20.54 68.972 0.111 7.56 6.53 9.41
7/10/2021 11:00:00 AM 20.74 69.332 0.111 7.56 6.52 9.47
7/10/2021 11:15:00 AM 20.93 69.674 0.111 7.59 6.41 9.57
7/10/2021 11:30:00 AM 21.22 70.196 0.11 7.63 6.55 9.65
7/10/2021 11:45:00 AM 21.28 70.304 0.11 7.66 6.44 9.61
7/10/2021 12:00:00 PM 21.25 70.25 0.11 7.68 6.52 9.59
7/10/2021 12:15:00 PM 21.49 70.682 0.11 7.71 6.55 9.68
7/10/2021 12:30:00 PM 21.62 70.916 0.11 7.75 6.72 9.64
7/10/2021 12:45:00 PM 21.59 70.862 0.11 7.77 6.7 9.61
7/10/2021 1:00:00 PM 21.79 71.222 0.11 7.79 6.6 9.65
7/10/2021 1:15:00 PM 22.21 71.978 0.11 7.83 6.96 9.66
7/10/2021 1:30:00 PM 22.33 72.194 0.109 7.86 6.84 9.58
7/10/2021 1:45:00 PM 22.3 72.14 0.109 7.88 6.87 9.56
7/10/2021 2:00:00 PM 22.37 72.266 0.109 7.91 6.98 9.58
7/10/2021 2:15:00 PM 22.44 72.392 0.109 7.94 7.22 9.6
7/10/2021 2:30:00 PM 22.6 72.68 0.109 7.98 7.01 9.6
7/10/2021 2:45:00 PM 22.82 73.076 0.109 8.01 7 9.58
7/10/2021 3:00:00 PM 23.01 73.418 0.109 8.04 7.12 9.53
7/10/2021 3:15:00 PM 23.12 73.616 0.109 8.06 7.1 9.5
7/10/2021 3:30:00 PM 23.3 73.94 0.11 8.09 7.25 9.48
7/10/2021 3:45:00 PM 23.49 74.282 0.11 8.1 7.6 9.47
7/10/2021 4:00:00 PM 23.5 74.3 0.11 8.11 7.33 9.37
7/10/2021 4:15:00 PM 23.35 74.03 0.11 8.1 7.34 9.26
7/10/2021 4:30:00 PM 23.37 74.066 0.11 8.07 7.45 9.26
7/10/2021 4:45:00 PM 23.48 74.264 0.11 8.07 7.43 9.25
7/10/2021 5:00:00 PM 23.43 74.174 0.111 8.06 7.4 9.18
7/10/2021 5:15:00 PM 23.38 74.084 0.111 8.05 7.37 9.14
7/10/2021 5:30:00 PM 23.37 74.066 0.111 8.03 7.41 9.07
7/10/2021 5:45:00 PM 23.41 74.138 0.111 8.01 7.51 9.07
7/10/2021 6:00:00 PM 23.42 74.156 0.111 7.99 7.61 9
7/10/2021 6:15:00 PM 23.41 74.138 0.111 7.97 7.39 9.01
7/10/2021 6:30:00 PM 23.42 74.156 0.111 7.94 7.61 8.93
7/10/2021 6:45:00 PM 23.44 74.192 0.112 7.91 7.65 8.85
7/10/2021 7:00:00 PM 23.43 74.174 0.112 7.87 7.5 8.77
7/10/2021 7:15:00 PM 23.4 74.12 0.112 7.82 7.62 8.67
7/10/2021 7:30:00 PM 23.36 74.048 0.113 7.77 7.65 8.56
7/10/2021 7:45:00 PM 23.32 73.976 0.113 7.71 7.79 8.45
7/10/2021 8:00:00 PM 23.29 73.922 0.113 7.65 7.6 8.36
7/10/2021 8:15:00 PM 23.25 73.85 0.114 7.6 6.77 8.31
7/10/2021 8:30:00 PM 23.18 73.724 0.114 7.56 6.48 8.23
7/10/2021 8:45:00 PM 23.1 73.58 0.114 7.51 6.46 8.15
7/10/2021 9:00:00 PM 23.01 73.418 0.115 7.47 8.12 8.09
7/10/2021 9:15:00 PM 22.91 73.238 0.115 7.44 6.54 8.06
7/10/2021 9:30:00 PM 22.8 73.04 0.115 7.41 6.39 8.04
7/10/2021 9:45:00 PM 22.68 72.824 0.116 7.39 6.58 8.02
7/10/2021 10:00:00 PM 22.57 72.626 0.116 7.37 6.57 8.02
7/10/2021 10:15:00 PM 22.46 72.42799 0.116 7.35 7.14 8.02
7/10/2021 10:30:00 PM 22.35 72.23 0.116 7.33 6.55 8.03
7/10/2021 10:45:00 PM 22.24 72.032 0.116 7.32 6.6 8.04
7/10/2021 11:00:00 PM 22.12 71.816 0.116 7.31 6.78 8.06
7/10/2021 11:15:00 PM 22.01 71.618 0.117 7.3 6.85 8.07
7/10/2021 11:30:00 PM 21.9 71.42 0.117 7.29 6.56 8.09
7/10/2021 11:45:00 PM 21.79 71.222 0.117 7.29 6.61 8.11
7/11/2021 12:00:00 AM 21.68 71.024 0.117 7.28 6.75 8.13
7/11/2021 12:15:00 AM 21.58 70.844 0.117 7.28 6.85 8.14
7/11/2021 12:30:00 AM 21.47 70.646 0.117 7.28 7.04 8.17
7/11/2021 12:45:00 AM 21.36 70.448 0.117 7.27 7.07 8.19
7/11/2021 1:00:00 AM 21.26 70.268 0.117 7.27 6.84 8.2
7/11/2021 1:15:00 AM 21.16 70.088 0.118 7.27 7.13 8.23
7/11/2021 1:30:00 AM 21.07 69.926 0.118 7.26 7.27 8.24
7/11/2021 1:45:00 AM 20.99 69.782 0.118 7.26 7.08 8.26
7/11/2021 2:00:00 AM 20.92 69.656 0.117 7.26 6.98 8.28
7/11/2021 2:15:00 AM 20.86 69.548 0.118 7.26 7.15 8.3
7/11/2021 2:30:00 AM 20.79 69.422 0.119 7.26 7.12 8.31
7/11/2021 2:45:00 AM 20.73 69.314 0.119 7.26 6.4 8.33
7/11/2021 3:00:00 AM 20.66 69.188 0.119 7.26 6.46 8.32
7/11/2021 3:15:00 AM 20.6 69.08 0.119 7.26 6.5 8.35
7/11/2021 3:30:00 AM 20.55 68.99 0.119 7.26 6.63 8.37
7/11/2021 3:45:00 AM 20.5 68.9 0.119 7.26 6.8 8.38
7/11/2021 4:00:00 AM 20.45 68.81 0.119 7.26 6.34 8.4
7/11/2021 4:15:00 AM 20.4 68.72 0.119 7.26 6.31 8.41
7/11/2021 4:30:00 AM 20.36 68.648 0.119 7.26 6.36 8.42
7/11/2021 4:45:00 AM 20.31 68.558 0.12 7.26 6.41 8.43
7/11/2021 5:00:00 AM 20.26 68.468 0.119 7.26 6.56 8.44
7/11/2021 5:15:00 AM 20.21 68.378 0.119 7.26 6.51 8.45
7/11/2021 5:30:00 AM 20.17 68.306 0.12 7.25 6.71 8.45
7/11/2021 5:45:00 AM 20.12 68.216 0.12 7.25 6.64 8.47
7/11/2021 6:00:00 AM 20.07 68.126 0.12 7.25 6.6 8.48
7/11/2021 6:15:00 AM 20.03 68.054 0.12 7.25 7.01 8.51
7/11/2021 6:30:00 AM 19.99 67.982 0.12 7.26 6.77 8.55
7/11/2021 6:45:00 AM 19.95 67.91 0.12 7.26 6.73 8.58
7/11/2021 7:00:00 AM 19.92 67.856 0.12 7.27 6.61 8.65
7/11/2021 7:15:00 AM 19.9 67.82 0.119 7.28 6.93 8.74
7/11/2021 7:30:00 AM 19.88 67.784 0.119 7.29 6.48 8.83
7/11/2021 7:45:00 AM 19.87 67.766 0.119 7.31 6.57 8.93
7/11/2021 8:00:00 AM 19.88 67.784 0.119 7.33 6.44 9.05
7/11/2021 8:15:00 AM 19.92 67.856 0.118 7.33 6.54 9.18
7/11/2021 8:30:00 AM 19.94 67.892 0.118 7.34 6.56 9.26
7/11/2021 8:45:00 AM 19.95 67.91 0.118 7.37 6.65 9.28
7/11/2021 9:00:00 AM 19.98 67.964 0.118 7.39 6.53 9.35
7/11/2021 9:15:00 AM 20.09 68.162 0.117 7.42 6.53 9.44
7/11/2021 9:30:00 AM 20.17 68.306 0.117 7.45 6.57 9.51
7/11/2021 9:45:00 AM 20.27 68.486 0.117 7.48 6.42 9.6
7/11/2021 10:00:00 AM 20.4 68.72 0.116 7.52 6.47 9.67
7/11/2021 10:15:00 AM 20.47 68.846 0.116 7.56 6.53 9.72
7/11/2021 10:30:00 AM 20.5 68.9 0.116 7.58 6.61 9.66
7/11/2021 10:45:00 AM 20.52 68.936 0.115 7.59 6.56 9.62
7/11/2021 11:00:00 AM 20.61 69.098 0.115 7.61 6.56 9.68
7/11/2021 11:15:00 AM 20.76 69.368 0.115 7.65 6.63 9.74
7/11/2021 11:30:00 AM 20.85 69.53 0.114 7.68 6.61 9.73
7/11/2021 11:45:00 AM 20.9 69.62 0.114 7.7 6.46 9.64
7/11/2021 12:00:00 PM 20.95 69.71 0.114 7.71 6.55 9.62
7/11/2021 12:15:00 PM 21 69.8 0.114 7.72 6.57 9.59
7/11/2021 12:30:00 PM 21.06 69.908 0.114 7.72 6.44 9.56
7/11/2021 12:45:00 PM 21.15 70.07 0.114 7.74 6.5 9.6
7/11/2021 1:00:00 PM 21.23 70.214 0.113 7.76 6.53 9.62
7/11/2021 1:15:00 PM 21.27 70.286 0.113 7.78 6.55 9.6
7/11/2021 1:30:00 PM 21.26 70.268 0.113 7.78 6.51 9.49
7/11/2021 1:45:00 PM 21.27 70.286 0.113 7.77 6.49 9.47
7/11/2021 2:00:00 PM 21.29 70.32201 0.113 7.76 6.6 9.42
7/11/2021 2:15:00 PM 21.32 70.376 0.113 7.75 6.56 9.44
7/11/2021 2:30:00 PM 21.44 70.592 0.113 7.77 6.56 9.53
7/11/2021 2:45:00 PM 21.58 70.844 0.112 7.8 6.69 9.57
7/11/2021 3:00:00 PM 21.64 70.952 0.112 7.82 6.55 9.54
7/11/2021 3:15:00 PM 21.69 71.042 0.112 7.83 6.59 9.5
7/11/2021 3:30:00 PM 21.81 71.258 0.112 7.85 6.75 9.53
7/11/2021 3:45:00 PM 21.87 71.366 0.112 7.85 8.09 9.4
7/11/2021 4:00:00 PM 21.81 71.258 0.112 7.82 6.7 9.22
7/11/2021 4:15:00 PM 21.75 71.15 0.112 7.77 6.65 9.07
7/11/2021 4:30:00 PM 21.74 71.132 0.112 7.73 6.68 9.02
7/11/2021 4:45:00 PM 21.74 71.132 0.111 7.69 6.75 8.97
7/11/2021 5:00:00 PM 21.74 71.132 0.111 7.66 6.72 8.91
7/11/2021 5:15:00 PM 21.72 71.096 0.111 7.62 6.78 8.77
7/11/2021 5:30:00 PM 21.67 71.006 0.109 7.56 7.3 8.62
7/11/2021 5:45:00 PM 21.62 70.916 0.107 7.49 7.58 8.5
7/11/2021 6:00:00 PM 21.58 70.844 0.105 7.44 7.84 8.44
7/11/2021 6:15:00 PM 21.52 70.736 0.103 7.39 8.3 8.39
7/11/2021 6:30:00 PM 21.45 70.61 0.101 7.34 10.2 8.38
7/11/2021 6:45:00 PM 21.37 70.466 0.1 7.29 15.54 8.36
7/11/2021 7:00:00 PM 21.35 70.43 0.1 7.26 16.13 8.44
7/11/2021 7:15:00 PM 21.34 70.412 0.099 7.25 15.21 8.46
7/11/2021 7:30:00 PM 21.33 70.394 0.099 7.24 13.02 8.41
7/11/2021 7:45:00 PM 21.3 70.34 0.1 7.22 11.25 8.37
7/11/2021 8:00:00 PM 21.29 70.32201 0.101 7.2 11.19 8.35
7/11/2021 8:15:00 PM 21.27 70.286 0.102 7.19 11.08 8.32
7/11/2021 8:30:00 PM 21.22 70.196 0.103 7.19 13.53 8.3
7/11/2021 8:45:00 PM 21.15 70.07 0.102 7.18 15.05 8.3
7/11/2021 9:00:00 PM 21.09 69.962 0.101 7.17 15.94 8.3
7/11/2021 9:15:00 PM 21.04 69.872 0.101 7.16 14.59 8.3
7/11/2021 9:30:00 PM 20.99 69.782 0.101 7.15 13.49 8.3
7/11/2021 9:45:00 PM 20.95 69.71 0.101 7.14 12.37 8.31
7/11/2021 10:00:00 PM 20.91 69.638 0.1 7.14 11.69 8.31
7/11/2021 10:15:00 PM 20.87 69.566 0.1 7.14 11.69 8.32
7/11/2021 10:30:00 PM 20.83 69.494 0.1 7.14 12.69 8.33
7/11/2021 10:45:00 PM 20.79 69.422 0.1 7.14 14.55 8.33
7/11/2021 11:00:00 PM 20.74 69.332 0.1 7.14 18.03 8.35
7/11/2021 11:15:00 PM 20.69 69.242 0.1 7.14 19.91 8.35
7/11/2021 11:30:00 PM 20.64 69.152 0.1 7.13 20.93 8.37
7/11/2021 11:45:00 PM 20.6 69.08 0.1 7.1 20.14 8.38
7/12/2021 12:00:00 AM 20.56 69.008 0.1 7.1 19.05 8.4
7/12/2021 12:15:00 AM 20.53 68.954 0.101 7.1 16.08 8.41
7/12/2021 12:30:00 AM 20.51 68.918 0.101 7.1 14.71 8.42
7/12/2021 12:45:00 AM 20.49 68.882 0.102 7.09 14.3 8.44
7/12/2021 1:00:00 AM 20.48 68.864 0.102 7.09 12.67 8.44
7/12/2021 1:15:00 AM 20.48 68.864 0.102 7.09 12.77 8.44
7/12/2021 1:30:00 AM 20.47 68.846 0.103 7.08 12.2 8.45
7/12/2021 1:45:00 AM 20.46 68.828 0.103 7.08 12.04 8.45
7/12/2021 2:00:00 AM 20.45 68.81 0.103 7.08 12.11 8.46
7/12/2021 2:15:00 AM 20.43 68.774 0.103 7.08 11.53 8.47
7/12/2021 2:30:00 AM 20.42 68.756 0.103 7.08 11.77 8.48
7/12/2021 2:45:00 AM 20.4 68.72 0.104 7.08 11.24 8.49
7/12/2021 3:00:00 AM 20.38 68.684 0.104 7.07 11.69 8.5
7/12/2021 3:15:00 AM 20.36 68.648 0.104 6.97 15.42 8.51
7/12/2021 3:30:00 AM 20.33 68.594 0.107 6.92 21.7 8.49
7/12/2021 3:45:00 AM 20.29 68.522 0.106 6.94 25.12 8.52
7/12/2021 4:00:00 AM 20.22 68.396 0.105 6.97 26.08 8.53
7/12/2021 4:15:00 AM 20.13 68.234 0.105 6.98 24.89 8.56
7/12/2021 4:30:00 AM 20.06 68.108 0.105 7 23.24 8.58
7/12/2021 4:45:00 AM 20 68 0.105 7.01 22.12 8.6
7/12/2021 5:00:00 AM 19.94 67.892 0.105 7.03 20.46 8.63
7/12/2021 5:15:00 AM 19.88 67.784 0.104 7.04 19.53 8.64
7/12/2021 5:30:00 AM 19.83 67.694 0.104 7.05 19.02 8.66
7/12/2021 5:45:00 AM 19.8 67.64 0.103 7.06 17.4 8.67
7/12/2021 6:00:00 AM 19.77 67.586 0.103 7.07 18.03 8.69
7/12/2021 6:15:00 AM 19.75 67.55 0.102 7.08 16.58 8.71
7/12/2021 6:30:00 AM 19.73 67.514 0.102 7.09 16.02 8.72
7/12/2021 6:45:00 AM 19.72 67.496 0.102 7.09 16.04 8.75
7/12/2021 7:00:00 AM 19.72 67.496 0.101 7.1 15.76 8.78
7/12/2021 7:15:00 AM 19.71 67.478 0.101 7.1 15 8.79
7/12/2021 7:30:00 AM 19.7 67.46 0.1 7.11 14.94 8.81
7/12/2021 7:45:00 AM 19.72 67.496 0.1 7.12 14.63 8.91
7/12/2021 8:00:00 AM 19.75 67.55 0.1 7.14 14.92 9
7/12/2021 8:15:00 AM 19.78 67.604 0.1 7.16 14.3 9.08
7/12/2021 8:30:00 AM 19.79 67.622 0.1 7.18 13.92 9.12
7/12/2021 8:45:00 AM 19.8 67.64 0.1 7.19 13.61 9.11
7/12/2021 9:00:00 AM 19.83 67.694 0.1 7.2 13.57 9.17
7/12/2021 9:15:00 AM 19.9 67.82 0.1 7.23 13.38 9.27
7/12/2021 9:30:00 AM 19.95 67.91 0.1 7.25 13.23 9.33
7/12/2021 9:45:00 AM 20 68 0.1 7.28 13.25 9.37
7/12/2021 10:00:00 AM 20.05 68.09 0.099 7.3 12.85 9.38
7/12/2021 10:15:00 AM 20.1 68.18 0.099 7.32 12.82 9.41
7/12/2021 10:30:00 AM 20.16 68.288 0.098 7.34 12.53 9.43
7/12/2021 10:45:00 AM 20.33 68.594 0.098 7.37 12.62 9.54
7/12/2021 11:00:00 AM 20.49 68.882 0.097 7.4 11.99 9.57
7/12/2021 11:15:00 AM 20.5 68.9 0.096 7.43 11.9 9.57
7/12/2021 11:30:00 AM 20.67 69.206 0.096 7.46 11.94 9.64
7/12/2021 11:45:00 AM 20.75 69.35 0.095 7.5 11.88 9.66
7/12/2021 12:00:00 PM 20.9 69.62 0.095 7.53 11.87 9.68
7/12/2021 12:15:00 PM 21.02 69.836 0.094 7.56 12.01 9.67
7/12/2021 12:30:00 PM 21.14 70.052 0.094 7.58 11.65 9.65
7/12/2021 12:45:00 PM 21.3 70.34 0.094 7.61 11.64 9.67
7/12/2021 1:00:00 PM 21.36 70.448 0.094 7.63 11.81 9.65
7/12/2021 1:15:00 PM 21.46 70.628 0.094 7.65 11.7 9.6
7/12/2021 1:30:00 PM 21.4 70.52 0.094 7.63 11.98 9.41
7/12/2021 1:45:00 PM 21.41 70.538 0.094 7.6 11.57 9.34
7/12/2021 2:00:00 PM 21.53 70.754 0.094 7.6 11.74 9.38
7/12/2021 2:15:00 PM 21.54 70.772 0.094 7.59 11.72 9.32
7/12/2021 2:30:00 PM 21.57 70.826 0.094 7.58 11.71 9.24
7/12/2021 2:45:00 PM 21.76 71.168 0.094 7.59 11.58 9.35
7/12/2021 3:00:00 PM 21.76 71.168 0.095 7.6 12.1 9.28
7/12/2021 3:15:00 PM 21.74 71.132 0.095 7.58 12.29 9.2
7/12/2021 3:30:00 PM 21.79 71.222 0.095 7.58 12.21 9.22
7/12/2021 3:45:00 PM 21.95 71.51 0.096 7.59 12.49 9.3
7/12/2021 4:00:00 PM 21.98 71.564 0.096 7.61 12.18 9.29
7/12/2021 4:15:00 PM 22.02 71.636 0.096 7.6 12.12 9.2
7/12/2021 4:30:00 PM 22.2 71.96 0.097 7.62 12.19 9.29
7/12/2021 4:45:00 PM 22.19 71.942 0.097 7.63 12.14 9.24
7/12/2021 5:00:00 PM 22.27 72.086 0.097 7.63 12.45 9.24
7/12/2021 5:15:00 PM 22.27 72.086 0.098 7.62 12.47 9.08
7/12/2021 5:30:00 PM 22.19 71.942 0.098 7.56 12.84 8.85
7/12/2021 5:45:00 PM 22.31 72.158 0.097 7.53 12.87 8.91
7/12/2021 6:00:00 PM 22.41 72.338 0.098 7.52 13.64 8.95
7/12/2021 6:15:00 PM 22.38 72.284 0.098 7.51 13.74 8.86
7/12/2021 6:30:00 PM 22.36 72.248 0.099 7.49 13.84 8.77
7/12/2021 6:45:00 PM 22.33 72.194 0.099 7.46 13.95 8.65
7/12/2021 7:00:00 PM 22.38 72.284 0.1 7.44 14.05 8.68
7/12/2021 7:15:00 PM 22.37 72.266 0.1 7.43 14.32 8.67
7/12/2021 7:30:00 PM 22.31 72.158 0.101 7.41 14.75 8.59
7/12/2021 7:45:00 PM 22.24 72.032 0.101 7.39 15.23 8.55
7/12/2021 8:00:00 PM 22.2 71.96 0.102 7.38 15.65 8.54
7/12/2021 8:15:00 PM 22.17 71.906 0.102 7.36 16.23 8.51
7/12/2021 8:30:00 PM 22.11 71.798 0.103 7.34 16.14 8.44
7/12/2021 8:45:00 PM 22.04 71.672 0.103 7.33 15.92 8.4
7/12/2021 9:00:00 PM 21.98 71.564 0.104 7.3 12.78 8.37
7/12/2021 9:15:00 PM 21.93 71.474 0.104 7.29 11.21 8.35
7/12/2021 9:30:00 PM 21.88 71.384 0.104 7.28 11 8.33
7/12/2021 9:45:00 PM 21.83 71.294 0.105 7.27 11.05 8.31
7/12/2021 10:00:00 PM 21.78 71.204 0.105 7.26 11.23 8.3
7/12/2021 10:15:00 PM 21.73 71.114 0.105 7.25 10.73 8.3
7/12/2021 10:30:00 PM 21.68 71.024 0.106 7.24 11.11 8.29
7/12/2021 10:45:00 PM 21.64 70.952 0.106 7.24 11.08 8.29
7/12/2021 11:00:00 PM 21.6 70.88 0.106 7.23 10.63 8.29
7/12/2021 11:15:00 PM 21.57 70.826 0.106 7.22 10.74 8.32
7/12/2021 11:30:00 PM 21.53 70.754 0.106 7.21 10.64 8.32
7/12/2021 11:45:00 PM 21.5 70.7 0.106 7.2 10.66 8.32
7/13/2021 12:00:00 AM 21.47 70.646 0.103 7.21 10.09 8.34
7/13/2021 12:15:00 AM 21.43 70.574 0.105 7.2 10.31 8.34
7/13/2021 12:30:00 AM 21.39 70.502 0.105 7.2 10.2 8.34
7/13/2021 12:45:00 AM 21.35 70.43 0.105 7.19 9.92 8.34
7/13/2021 1:00:00 AM 21.31 70.358 0.105 7.19 9.94 8.35
7/13/2021 1:15:00 AM 21.27 70.286 0.105 7.19 9.86 8.36
7/13/2021 1:30:00 AM 21.23 70.214 0.105 7.19 10.07 8.37
7/13/2021 1:45:00 AM 21.2 70.16 0.105 7.18 9.99 8.37
7/13/2021 2:00:00 AM 21.16 70.088 0.103 7.18 10.03 8.38
7/13/2021 2:15:00 AM 21.12 70.016 0.104 7.18 9.96 8.38
7/13/2021 2:30:00 AM 21.08 69.944 0.104 7.18 9.9 8.4
7/13/2021 2:45:00 AM 21.05 69.89 0.104 7.17 10.03 8.4
7/13/2021 3:00:00 AM 21.02 69.836 0.104 7.17 9.76 8.41
7/13/2021 3:15:00 AM 20.98 69.764 0.104 7.17 9.98 8.4
7/13/2021 3:30:00 AM 20.95 69.71 0.104 7.17 9.98 8.43
7/13/2021 3:45:00 AM 20.92 69.656 0.104 7.17 9.8 8.44
7/13/2021 4:00:00 AM 20.89 69.602 0.104 7.17 9.95 8.44
7/13/2021 4:15:00 AM 20.85 69.53 0.104 7.18 10.01 8.45
7/13/2021 4:30:00 AM 20.82 69.476 0.104 7.18 9.9 8.45
7/13/2021 4:45:00 AM 20.79 69.422 0.104 7.18 9.93 8.45
7/13/2021 5:00:00 AM 20.76 69.368 0.104 7.18 9.91 8.46
7/13/2021 5:15:00 AM 20.72 69.296 0.104 7.18 9.82 8.48
7/13/2021 5:30:00 AM 20.69 69.242 0.103 7.18 9.86 8.48
7/13/2021 5:45:00 AM 20.67 69.206 0.104 7.18 10.07 8.5
7/13/2021 6:00:00 AM 20.64 69.152 0.104 7.18 9.78 8.51
7/13/2021 6:15:00 AM 20.62 69.116 0.104 7.18 10.03 8.53
7/13/2021 6:30:00 AM 20.6 69.08 0.104 7.18 9.97 8.54
7/13/2021 6:45:00 AM 20.59 69.062 0.104 7.2 9.76 8.61
7/13/2021 7:00:00 AM 20.58 69.044 0.104 7.21 9.57 8.68
7/13/2021 7:15:00 AM 20.57 69.026 0.104 7.21 9.61 8.66
7/13/2021 7:30:00 AM 20.54 68.972 0.104 7.21 9.59 8.63
7/13/2021 7:45:00 AM 20.52 68.936 0.104 7.21 9.7 8.63
7/13/2021 8:00:00 AM 20.51 68.918 0.104 7.21 9.78 8.66
7/13/2021 8:15:00 AM 20.51 68.918 0.104 7.17 9.73 8.73
7/13/2021 8:30:00 AM 20.52 68.936 0.104 7.18 9.39 8.83
7/13/2021 8:45:00 AM 20.53 68.954 0.104 7.21 9.69 8.92
7/13/2021 9:00:00 AM 20.56 69.008 0.104 7.24 9.51 9.01
7/13/2021 9:15:00 AM 20.61 69.098 0.104 7.27 9.53 9.13
7/13/2021 9:30:00 AM 20.68 69.224 0.104 7.3 9.3 9.23
7/13/2021 9:45:00 AM 20.72 69.296 0.104 7.32 9.32 9.25
7/13/2021 10:00:00 AM 20.77 69.386 0.103 7.35 9.4 9.33
7/13/2021 10:15:00 AM 20.87 69.566 0.103 7.38 9.61 9.42
7/13/2021 10:30:00 AM 20.99 69.782 0.103 7.42 9.26 9.47
7/13/2021 10:45:00 AM 21.14 70.052 0.103 7.46 9.16 9.51
7/13/2021 11:00:00 AM 21.32 70.376 0.103 7.49 8.98 9.54
7/13/2021 11:15:00 AM 21.51 70.718 0.103 7.52 8.96 9.54
7/13/2021 11:30:00 AM 21.66 70.988 0.103 7.54 9 9.51
7/13/2021 11:45:00 AM 21.88 71.384 0.103 7.57 8.79 9.55
7/13/2021 12:00:00 PM 21.93 71.474 0.103 7.6 8.83 9.51
7/13/2021 12:15:00 PM 22.18 71.924 0.103 7.62 8.83 9.49
7/13/2021 12:30:00 PM 22.43 72.374 0.102 7.64 8.8 9.47
7/13/2021 12:45:00 PM 22.56 72.608 0.102 7.66 8.57 9.45
7/13/2021 1:00:00 PM 22.57 72.626 0.103 7.67 8.6 9.38
7/13/2021 1:15:00 PM 22.79 73.022 0.102 7.69 8.58 9.4
7/13/2021 1:30:00 PM 22.99 73.382 0.102 7.71 8.53 9.37
7/13/2021 1:45:00 PM 23.12 73.616 0.102 7.72 8.44 9.31
7/13/2021 2:00:00 PM 23.31 73.958 0.102 7.73 8.28 9.31
7/13/2021 2:15:00 PM 23.55 74.39 0.102 7.75 8.25 9.31
7/13/2021 2:30:00 PM 23.72 74.696 0.102 7.77 8.38 9.27
7/13/2021 2:45:00 PM 23.88 74.984 0.102 7.77 8.1 9.23
7/13/2021 3:00:00 PM 24.06 75.308 0.102 7.79 8.12 9.21
7/13/2021 3:15:00 PM 24.29 75.722 0.102 7.81 8.15 9.2
7/13/2021 3:30:00 PM 24.54 76.172 0.102 7.82 8.47 9.18
7/13/2021 3:45:00 PM 24.65 76.37 0.102 7.83 8.13 9.08
7/13/2021 4:00:00 PM 24.77 76.586 0.102 7.82 8.25 9.04
7/13/2021 4:15:00 PM 24.84 76.712 0.102 7.82 8.01 8.95
7/13/2021 4:30:00 PM 24.93 76.874 0.102 7.8 8.01 8.89
7/13/2021 4:45:00 PM 25.24 77.432 0.102 7.8 8.3 8.91
7/13/2021 5:00:00 PM 25.42 77.756 0.102 7.81 8.4 8.85
7/13/2021 5:15:00 PM 25.55 77.99 0.101 7.81 8.39 8.78
7/13/2021 5:30:00 PM 25.68 78.224 0.102 7.79 8.33 8.71
7/13/2021 5:45:00 PM 25.7 78.26 0.101 7.77 8.16 8.61
7/13/2021 6:00:00 PM 25.69 78.242 0.101 7.74 6.25 8.52
7/13/2021 6:15:00 PM 25.66 78.188 0.101 7.71 6.43 8.44
7/13/2021 6:30:00 PM 25.57 78.026 0.102 7.65 6.11 8.27
7/13/2021 6:45:00 PM 25.39 77.702 0.101 7.59 6.25 8.12
7/13/2021 7:00:00 PM 24.9 76.82 0.095 7.5 9.49 8.04
7/13/2021 7:15:00 PM 24.6 76.28 0.094 7.43 22.39 7.95
7/13/2021 7:30:00 PM 24.4 75.92 0.095 7.35 27.76 7.89
7/13/2021 7:45:00 PM 24.23 75.614 0.094 7.31 28.84 7.85
7/13/2021 8:00:00 PM 24.11 75.398 0.094 7.26 29.15 7.82
7/13/2021 8:15:00 PM 24.02 75.236 0.094 7.24 18.8 7.8
7/13/2021 8:30:00 PM 23.92 75.056 0.095 7.22 16.18 7.8
7/13/2021 8:45:00 PM 23.76 74.768 0.096 7.2 17.76 7.81
7/13/2021 9:00:00 PM 23.6 74.48 0.096 7.18 18.82 7.81
7/13/2021 9:15:00 PM 23.48 74.264 0.096 7.16 19.18 7.83
7/13/2021 9:30:00 PM 23.39 74.102 0.096 7.16 17.47 7.84
7/13/2021 9:45:00 PM 23.31 73.958 0.097 7.15 16.35 7.86
7/13/2021 10:00:00 PM 23.24 73.832 0.097 7.15 14.78 7.88
7/13/2021 10:15:00 PM 23.15 73.67 0.097 7.14 13.42 7.89
7/13/2021 10:30:00 PM 23.07 73.526 0.097 7.14 12.71 7.92
7/13/2021 10:45:00 PM 22.98 73.364 0.097 7.14 12.7 7.93
7/13/2021 11:00:00 PM 22.9 73.22 0.097 7.14 12.73 7.95
7/13/2021 11:15:00 PM 22.81 73.058 0.097 7.14 12.75 7.97
7/13/2021 11:30:00 PM 22.72 72.896 0.097 7.14 12.41 7.99
7/13/2021 11:45:00 PM 22.62 72.716 0.097 7.14 12.22 8.03
7/14/2021 12:00:00 AM 22.53 72.554 0.097 7.13 12.03 8.04
7/14/2021 12:15:00 AM 22.45 72.41 0.097 7.13 11.69 8.05
7/14/2021 12:30:00 AM 22.36 72.248 0.097 7.12 11.34 8.06
7/14/2021 12:45:00 AM 22.27 72.086 0.097 7.12 11.51 8.09
7/14/2021 1:00:00 AM 22.19 71.942 0.097 7.12 11.08 8.11
7/14/2021 1:15:00 AM 22.11 71.798 0.097 7.12 11.31 8.13
7/14/2021 1:30:00 AM 22.04 71.672 0.097 7.12 10.37 8.14
7/14/2021 1:45:00 AM 21.97 71.546 0.097 7.12 10.07 8.16
7/14/2021 2:00:00 AM 21.91 71.438 0.097 7.12 9.61 8.17
7/14/2021 2:15:00 AM 21.86 71.348 0.097 7.12 9.6 8.19
7/14/2021 2:30:00 AM 21.8 71.24 0.097 7.11 9.38 8.19
7/14/2021 2:45:00 AM 21.74 71.132 0.097 7.12 9.27 8.21
7/14/2021 3:00:00 AM 21.68 71.024 0.097 7.12 8.84 8.21
7/14/2021 3:15:00 AM 21.63 70.934 0.097 7.12 9 8.23
7/14/2021 3:30:00 AM 21.57 70.826 0.097 7.12 8.93 8.26
7/14/2021 3:45:00 AM 21.51 70.718 0.098 7.12 8.92 8.27
7/14/2021 4:00:00 AM 21.45 70.61 0.098 7.12 8.93 8.28
7/14/2021 4:15:00 AM 21.39 70.502 0.098 7.12 8.89 8.3
7/14/2021 4:30:00 AM 21.32 70.376 0.098 7.12 10.2 8.32
7/14/2021 4:45:00 AM 21.27 70.286 0.098 7.12 8.93 8.34
7/14/2021 5:00:00 AM 21.22 70.196 0.098 7.12 9.3 8.35
7/14/2021 5:15:00 AM 21.17 70.106 0.098 7.12 8.97 8.35
7/14/2021 5:30:00 AM 21.11 69.998 0.098 7.12 9.45 8.37
7/14/2021 5:45:00 AM 21.06 69.908 0.098 7.12 9.38 8.38
7/14/2021 6:00:00 AM 21.01 69.818 0.098 7.12 9.19 8.4
7/14/2021 6:15:00 AM 20.97 69.746 0.098 7.12 9.14 8.41
7/14/2021 6:30:00 AM 20.93 69.674 0.098 7.12 8.96 8.44
7/14/2021 6:45:00 AM 20.89 69.602 0.098 7.02 9.42 8.45
7/14/2021 7:00:00 AM 20.86 69.548 0.098 7.03 9.47 8.48
7/14/2021 7:15:00 AM 20.83 69.494 0.098 7.04 9.48 8.51
7/14/2021 7:30:00 AM 20.8 69.44 0.098 7.06 9.79 8.55
7/14/2021 7:45:00 AM 20.78 69.404 0.098 7.07 9.98 8.59
7/14/2021 8:00:00 AM 20.75 69.35 0.097 7.08 9.48 8.63
7/14/2021 8:15:00 AM 20.74 69.332 0.097 7.09 9.85 8.69
7/14/2021 8:30:00 AM 20.72 69.296 0.097 7.1 9.58 8.74
7/14/2021 8:45:00 AM 20.71 69.278 0.097 7.12 9.22 8.77
7/14/2021 9:00:00 AM 20.69 69.242 0.097 7.13 9.25 8.79
7/14/2021 9:15:00 AM 20.68 69.224 0.097 7.14 9.43 8.84
7/14/2021 9:30:00 AM 20.68 69.224 0.097 7.16 9.14 8.9
7/14/2021 9:45:00 AM 20.7 69.26 0.097 7.18 9.36 9.01
7/14/2021 10:00:00 AM 20.7 69.26 0.097 7.2 8.87 9.02
7/14/2021 10:15:00 AM 20.75 69.35 0.096 7.23 8.88 9.16
7/14/2021 10:30:00 AM 20.8 69.44 0.096 7.26 8.81 9.24
7/14/2021 10:45:00 AM 20.88 69.584 0.096 7.3 8.68 9.35
7/14/2021 11:00:00 AM 21 69.8 0.095 7.34 8.58 9.44
7/14/2021 11:15:00 AM 21.04 69.872 0.095 7.38 8.58 9.46
7/14/2021 11:30:00 AM 21.09 69.962 0.095 7.4 8.56 9.46
7/14/2021 11:45:00 AM 21.23 70.214 0.095 7.43 8.61 9.53
7/14/2021 12:00:00 PM 21.41 70.538 0.094 7.46 8.62 9.54
7/14/2021 12:15:00 PM 21.56 70.808 0.094 7.48 8.58 9.5
7/14/2021 12:30:00 PM 21.8 71.24 0.094 7.51 10.92 9.52
7/14/2021 12:45:00 PM 21.94 71.492 0.094 7.54 8.51 9.54
7/14/2021 1:00:00 PM 22.15 71.87 0.094 7.57 8.5 9.56
7/14/2021 1:15:00 PM 22.34 72.212 0.094 7.59 8.46 9.55
7/14/2021 1:30:00 PM 22.56 72.608 0.094 7.63 8.34 9.54
7/14/2021 1:45:00 PM 22.74 72.932 0.094 7.65 8.41 9.52
7/14/2021 2:00:00 PM 22.9 73.22 0.094 7.67 8.57 9.48
7/14/2021 2:15:00 PM 23.14 73.652 0.094 7.69 8.39 9.46
7/14/2021 2:30:00 PM 23.32 73.976 0.094 7.71 8.19 9.42
7/14/2021 2:45:00 PM 23.47 74.246 0.094 7.72 8.4 9.4
7/14/2021 3:00:00 PM 23.58 74.444 0.094 7.74 8.35 9.39
7/14/2021 3:15:00 PM 23.74 74.732 0.094 7.76 8.4 9.38
7/14/2021 3:30:00 PM 23.88 74.984 0.094 7.79 8.37 9.36
7/14/2021 3:45:00 PM 23.96 75.128 0.094 7.8 8.42 9.33
7/14/2021 4:00:00 PM 24.11 75.398 0.093 7.8 8.27 9.3
7/14/2021 4:15:00 PM 24.21 75.578 0.093 7.82 8.19 9.26
7/14/2021 4:30:00 PM 24.25 75.65 0.093 7.82 8.39 9.17
7/14/2021 4:45:00 PM 24.14 75.452 0.093 7.77 8.55 8.98
7/14/2021 5:00:00 PM 24.25 75.65 0.093 7.74 8.46 9.02
7/14/2021 5:15:00 PM 24.29 75.722 0.093 7.74 8.59 8.98
7/14/2021 5:30:00 PM 24.32 75.776 0.093 7.72 8.42 8.92
7/14/2021 5:45:00 PM 24.3 75.74 0.093 7.7 8.55 8.86
7/14/2021 6:00:00 PM 24.24 75.632 0.093 7.67 8.6 8.79
7/14/2021 6:15:00 PM 24.17 75.506 0.094 7.64 8.62 8.73
7/14/2021 6:30:00 PM 24.1 75.38 0.094 7.6 8.72 8.67
7/14/2021 6:45:00 PM 24.03 75.254 0.094 7.57 8.7 8.61
7/14/2021 7:00:00 PM 23.95 75.11 0.094 7.53 9.21 8.54
7/14/2021 7:15:00 PM 23.86 74.948 0.094 7.5 9.09 8.48
7/14/2021 7:30:00 PM 23.75 74.75 0.094 7.46 9.29 8.41
7/14/2021 7:45:00 PM 23.65 74.57 0.094 7.43 9.33 8.11
7/14/2021 8:00:00 PM 23.55 74.39 0.095 7.4 9.38 8.21
7/14/2021 8:15:00 PM 23.45 74.21 0.095 7.37 9.58 8.16
7/14/2021 8:30:00 PM 23.34 74.012 0.096 7.34 9.58 8.21
7/14/2021 8:45:00 PM 23.22 73.796 0.096 7.32 9.54 8.2
7/14/2021 9:00:00 PM 23.11 73.598 0.096 7.29 9.77 8.17
7/14/2021 9:15:00 PM 22.99 73.382 0.096 7.27 11.75 8.14
7/14/2021 9:30:00 PM 22.89 73.202 0.097 7.25 10.22 8.14
7/14/2021 9:45:00 PM 22.78 73.004 0.097 7.24 9.8 8.15
7/14/2021 10:00:00 PM 22.67 72.806 0.097 7.23 9.81 8.14
7/14/2021 10:15:00 PM 22.58 72.644 0.098 7.22 8.96 8.15
7/14/2021 10:30:00 PM 22.48 72.464 0.098 7.21 8.86 8.16
7/14/2021 10:45:00 PM 22.39 72.302 0.098 7.2 8.84 8.16
7/14/2021 11:00:00 PM 22.3 72.14 0.098 7.19 8.91 8.17
7/14/2021 11:15:00 PM 22.21 71.978 0.098 7.19 8.9 8.19
7/14/2021 11:30:00 PM 22.12 71.816 0.098 7.18 9.02 8.16
7/14/2021 11:45:00 PM 22.02 71.636 0.098 7.18 8.98 8.21
7/15/2021 12:00:00 AM 21.93 71.474 0.098 7.18 9.12 8.21
7/15/2021 12:15:00 AM 21.84 71.312 0.098 7.17 11.37 8.24
7/15/2021 12:30:00 AM 21.76 71.168 0.098 7.18 7.56 8.25
7/15/2021 12:45:00 AM 21.68 71.024 0.098 7.17 7.24 8.26
7/15/2021 1:00:00 AM 21.6 70.88 0.098 7.17 7.08 8.29
7/15/2021 1:15:00 AM 21.53 70.754 0.098 7.16 7.17 8.3
7/15/2021 1:30:00 AM 21.47 70.646 0.098 7.16 7.11 8.31
7/15/2021 1:45:00 AM 21.41 70.538 0.098 7.16 7.42 8.33
7/15/2021 2:00:00 AM 21.35 70.43 0.099 7.16 7.28 8.35
7/15/2021 2:15:00 AM 21.28 70.304 0.099 7.16 7.37 8.36
7/15/2021 2:30:00 AM 21.22 70.196 0.099 7.15 7.42 8.38
7/15/2021 2:45:00 AM 21.17 70.106 0.099 7.16 7.37 8.38
7/15/2021 3:00:00 AM 21.11 69.998 0.099 7.16 7.46 8.4
7/15/2021 3:15:00 AM 21.07 69.926 0.099 7.17 7.45 8.39
7/15/2021 3:30:00 AM 21.02 69.836 0.099 7.16 7.36 8.41
7/15/2021 3:45:00 AM 20.98 69.764 0.099 7.16 7.47 8.4
7/15/2021 4:00:00 AM 20.94 69.692 0.099 7.16 7.38 8.4
7/15/2021 4:15:00 AM 20.9 69.62 0.099 7.16 7.59 8.42
7/15/2021 4:30:00 AM 20.85 69.53 0.1 7.16 7.51 8.44
7/15/2021 4:45:00 AM 20.8 69.44 0.1 7.16 7.5 8.45
7/15/2021 5:00:00 AM 20.76 69.368 0.1 7.16 7.72 8.45
7/15/2021 5:15:00 AM 20.71 69.278 0.1 7.16 7.74 8.47
7/15/2021 5:30:00 AM 20.66 69.188 0.1 7.16 7.74 8.47
7/15/2021 5:45:00 AM 20.61 69.098 0.1 7.16 7.91 8.47
7/15/2021 6:00:00 AM 20.57 69.026 0.1 7.16 7.92 8.49
7/15/2021 6:15:00 AM 20.52 68.936 0.1 7.16 8 8.51
7/15/2021 6:30:00 AM 20.48 68.864 0.101 7.16 7.77 8.55
7/15/2021 6:45:00 AM 20.44 68.792 0.101 7.16 8.07 8.59
7/15/2021 7:00:00 AM 20.41 68.738 0.101 7.11 8 8.64
7/15/2021 7:15:00 AM 20.38 68.684 0.101 7.14 8.03 8.68
7/15/2021 7:30:00 AM 20.35 68.63 0.101 7.15 7.9 8.74
7/15/2021 7:45:00 AM 20.34 68.612 0.101 7.16 7.95 8.82
7/15/2021 8:00:00 AM 20.32 68.576 0.101 7.18 8.05 8.91
7/15/2021 8:15:00 AM 20.32 68.576 0.101 7.2 7.99 9
7/15/2021 8:30:00 AM 20.31 68.558 0.101 7.22 8.36 9.06
7/15/2021 8:45:00 AM 20.32 68.576 0.101 7.24 8.24 9.15
7/15/2021 9:00:00 AM 20.35 68.63 0.1 7.27 8.24 9.27
7/15/2021 9:15:00 AM 20.39 68.702 0.1 7.3 8.21 9.39
7/15/2021 9:30:00 AM 20.47 68.846 0.1 7.34 8.21 9.47
7/15/2021 9:45:00 AM 20.53 68.954 0.1 7.37 8.33 9.51
7/15/2021 10:00:00 AM 20.63 69.134 0.1 7.39 8.41 9.53
7/15/2021 10:15:00 AM 20.75 69.35 0.099 7.42 8.46 9.56
7/15/2021 10:30:00 AM 20.83 69.494 0.099 7.44 8.49 9.6
7/15/2021 10:45:00 AM 20.88 69.584 0.099 7.45 8.22 9.54
7/15/2021 11:00:00 AM 21.1 69.98 0.099 7.48 8.26 9.62
7/15/2021 11:15:00 AM 21.27 70.286 0.099 7.52 8.33 9.66
7/15/2021 11:30:00 AM 21.43 70.574 0.099 7.56 8.34 9.67
7/15/2021 11:45:00 AM 21.48 70.664 0.099 7.59 8.37 9.63
7/15/2021 12:00:00 PM 21.65 70.97 0.099 7.62 8.22 9.66
7/15/2021 12:15:00 PM 21.75 71.15 0.098 7.65 8.05 9.69
7/15/2021 12:30:00 PM 21.97 71.546 0.098 7.69 8.06 9.72
7/15/2021 12:45:00 PM 21.96 71.528 0.098 7.7 8.02 9.6
7/15/2021 1:00:00 PM 22.09 71.762 0.098 7.71 8.01 9.61
7/15/2021 1:15:00 PM 22.14 71.852 0.098 7.75 8.1 9.63
7/15/2021 1:30:00 PM 22.32 72.176 0.097 7.78 8.06 9.67
7/15/2021 1:45:00 PM 22.65 72.77 0.097 7.83 8.03 9.7
7/15/2021 2:00:00 PM 22.82 73.076 0.097 7.88 8.05 9.67
7/15/2021 2:15:00 PM 22.87 73.166 0.097 7.89 7.88 9.61
7/15/2021 2:30:00 PM 23.01 73.418 0.097 7.92 7.99 9.62
7/15/2021 2:45:00 PM 23.18 73.724 0.097 7.96 8.15 9.64
7/15/2021 3:00:00 PM 23.29 73.922 0.097 8 8.04 9.59
7/15/2021 3:15:00 PM 23.4 74.12 0.097 8.02 7.95 9.54
7/15/2021 3:30:00 PM 23.63 74.534 0.096 8.05 8.11 9.52
7/15/2021 3:45:00 PM 23.7 74.66 0.096 8.06 8.23 9.44
7/15/2021 4:00:00 PM 23.9 75.02 0.096 8.07 8.04 9.43
7/15/2021 4:15:00 PM 24.02 75.236 0.096 8.09 8.05 9.41
7/15/2021 4:30:00 PM 24.05 75.29 0.096 8.09 8.01 9.32
7/15/2021 4:45:00 PM 24.06 75.308 0.096 8.09 7.98 9.27
7/15/2021 5:00:00 PM 24.09 75.362 0.096 8.08 8.15 9.21
7/15/2021 5:15:00 PM 24.08 75.344 0.096 8.05 8.08 9.14
7/15/2021 5:30:00 PM 24.21 75.578 0.096 8.03 8.31 9.15
7/15/2021 5:45:00 PM 24.29 75.722 0.096 8.03 8.36 9.11
7/15/2021 6:00:00 PM 24.2 75.56 0.096 7.99 8.3 8.93
7/15/2021 6:15:00 PM 24.13 75.434 0.096 7.9 8.5 8.77
7/15/2021 6:30:00 PM 24.1 75.38 0.096 7.84 8.53 8.75
7/15/2021 6:45:00 PM 24.03 75.254 0.096 7.78 9.65 8.64
7/15/2021 7:00:00 PM 23.98 75.164 0.096 7.72 8.61 8.59
7/15/2021 7:15:00 PM 23.96 75.128 0.096 7.67 8.72 8.56
7/15/2021 7:30:00 PM 23.88 74.984 0.097 7.63 11.15 8.49
7/15/2021 7:45:00 PM 23.79 74.82201 0.097 7.58 8 8.39
7/15/2021 8:00:00 PM 23.69 74.642 0.097 7.53 5.4 8.31
7/15/2021 8:15:00 PM 23.6 74.48 0.097 7.48 5.43 8.22
7/15/2021 8:30:00 PM 23.5 74.3 0.097 7.43 5.36 8.13
7/15/2021 8:45:00 PM 23.41 74.138 0.097 7.39 5.66 8.09
7/15/2021 9:00:00 PM 23.3 73.94 0.098 7.36 5.68 8.04
7/15/2021 9:15:00 PM 23.2 73.76 0.098 7.33 5.87 8.01
7/15/2021 9:30:00 PM 23.09 73.562 0.098 7.3 5.79 8.02
7/15/2021 9:45:00 PM 22.99 73.382 0.098 7.28 5.95 8.01
7/15/2021 10:00:00 PM 22.9 73.22 0.098 7.26 5.86 8.01
7/15/2021 10:15:00 PM 22.81 73.058 0.098 7.24 6.07 8.01
7/15/2021 10:30:00 PM 22.72 72.896 0.098 7.23 5.87 8.02
7/15/2021 10:45:00 PM 22.63 72.734 0.098 7.22 6.11 8.02
7/15/2021 11:00:00 PM 22.54 72.57201 0.099 7.21 6.08 8.03
7/15/2021 11:15:00 PM 22.46 72.42799 0.099 7.2 6.2 8.05
7/15/2021 11:30:00 PM 22.38 72.284 0.099 7.19 6.18 8.06
7/15/2021 11:45:00 PM 22.3 72.14 0.099 7.19 6.19 8.07
7/16/2021 12:00:00 AM 22.22 71.996 0.099 7.18 6.15 8.08
7/16/2021 12:15:00 AM 22.15 71.87 0.099 7.18 6.33 8.1
7/16/2021 12:30:00 AM 22.09 71.762 0.099 7.17 6.49 8.11
7/16/2021 12:45:00 AM 22.03 71.654 0.099 7.17 6.45 8.11
7/16/2021 1:00:00 AM 21.98 71.564 0.099 7.17 6.62 8.13
7/16/2021 1:15:00 AM 21.93 71.474 0.099 7.16 6.63 8.14
7/16/2021 1:30:00 AM 21.88 71.384 0.099 7.16 6.58 8.13
7/16/2021 1:45:00 AM 21.83 71.294 0.099 7.16 6.63 8.15
7/16/2021 2:00:00 AM 21.78 71.204 0.099 7.16 6.64 8.16
7/16/2021 2:15:00 AM 21.73 71.114 0.099 7.16 6.28 8.18
7/16/2021 2:30:00 AM 21.69 71.042 0.099 7.16 6.27 8.19
7/16/2021 2:45:00 AM 21.64 70.952 0.099 7.16 6.65 8.21
7/16/2021 3:00:00 AM 21.59 70.862 0.099 7.16 6.19 8.2
7/16/2021 3:15:00 AM 21.54 70.772 0.099 7.16 6.16 8.2
7/16/2021 3:30:00 AM 21.5 70.7 0.099 7.16 6.21 8.22
7/16/2021 3:45:00 AM 21.46 70.628 0.099 7.16 6.27 8.24
7/16/2021 4:00:00 AM 21.42 70.556 0.099 7.15 6.39 8.25
7/16/2021 4:15:00 AM 21.37 70.466 0.099 7.15 6.33 8.24
7/16/2021 4:30:00 AM 21.33 70.394 0.099 7.15 6.3 8.25
7/16/2021 4:45:00 AM 21.28 70.304 0.099 7.15 6.24 8.27
7/16/2021 5:00:00 AM 21.24 70.232 0.099 7.15 6.34 8.28
7/16/2021 5:15:00 AM 21.2 70.16 0.099 7.15 6.45 8.28
7/16/2021 5:30:00 AM 21.16 70.088 0.099 7.15 6.51 8.29
7/16/2021 5:45:00 AM 21.12 70.016 0.099 7.15 6.56 8.29
7/16/2021 6:00:00 AM 21.08 69.944 0.099 7.15 6.73 8.29
7/16/2021 6:15:00 AM 21.05 69.89 0.099 7.15 6.54 8.34
7/16/2021 6:30:00 AM 21.01 69.818 0.099 7.15 6.64 8.35
7/16/2021 6:45:00 AM 20.98 69.764 0.098 7.16 6.48 8.4
7/16/2021 7:00:00 AM 20.95 69.71 0.098 7.17 6.61 8.48
7/16/2021 7:15:00 AM 20.93 69.674 0.098 7.18 6.63 8.57
7/16/2021 7:30:00 AM 20.9 69.62 0.098 7.19 6.72 8.61
7/16/2021 7:45:00 AM 20.87 69.566 0.098 7.19 6.54 8.61
7/16/2021 8:00:00 AM 20.84 69.512 0.098 7.2 6.56 8.71
7/16/2021 8:15:00 AM 20.81 69.458 0.098 7.21 6.7 8.75
7/16/2021 8:30:00 AM 20.81 69.458 0.098 7.23 6.74 8.86
7/16/2021 8:45:00 AM 20.85 69.53 0.098 7.26 6.78 9.03
7/16/2021 9:00:00 AM 20.88 69.584 0.098 7.28 6.64 9.11
7/16/2021 9:15:00 AM 20.95 69.71 0.097 7.3 6.74 9.21
7/16/2021 9:30:00 AM 21.03 69.854 0.097 7.33 6.7 9.29
7/16/2021 9:45:00 AM 21.17 70.106 0.097 7.37 6.75 9.4
7/16/2021 10:00:00 AM 21.24 70.232 0.097 7.41 6.69 9.46
7/16/2021 10:15:00 AM 21.36 70.448 0.097 7.45 6.75 9.53
7/16/2021 10:30:00 AM 21.42 70.556 0.096 7.49 6.8 9.55
7/16/2021 10:45:00 AM 21.51 70.718 0.096 7.52 6.81 9.55
7/16/2021 11:00:00 AM 21.62 70.916 0.096 7.55 6.94 9.59
7/16/2021 11:15:00 AM 21.72 71.096 0.096 7.59 6.92 9.59
7/16/2021 11:30:00 AM 21.85 71.33 0.096 7.63 6.83 9.65
7/16/2021 11:45:00 AM 21.91 71.438 0.096 7.66 6.84 9.56
7/16/2021 12:00:00 PM 21.95 71.51 0.095 7.68 6.79 9.53
7/16/2021 12:15:00 PM 22.05 71.69 0.095 7.72 6.92 9.68
7/16/2021 12:30:00 PM 22.21 71.978 0.095 7.77 6.81 9.71
7/16/2021 12:45:00 PM 22.47 72.446 0.095 7.81 6.81 9.66
7/16/2021 1:00:00 PM 22.75 72.95 0.095 7.84 6.72 9.65
7/16/2021 1:15:00 PM 23.03 73.454 0.095 7.88 6.61 9.64
7/16/2021 1:30:00 PM 23.22 73.796 0.095 7.91 6.74 9.6
7/16/2021 1:45:00 PM 23.41 74.138 0.095 7.95 6.5 9.56
7/16/2021 2:00:00 PM 23.64 74.552 0.095 7.98 6.71 9.54
7/16/2021 2:15:00 PM 23.86 74.948 0.095 8.01 6.53 9.46
7/16/2021 2:30:00 PM 23.76 74.768 0.095 8 6.59 9.27
7/16/2021 2:45:00 PM 23.68 74.624 0.094 7.93 6.7 9.12
7/16/2021 3:00:00 PM 23.83 74.894 0.094 7.9 6.68 9.15
7/16/2021 3:15:00 PM 23.9 75.02 0.094 7.9 6.82 9.11
7/16/2021 3:30:00 PM 23.84 74.912 0.094 7.87 6.9 8.97
7/16/2021 3:45:00 PM 23.79 74.82201 0.093 7.8 6.94 8.73
7/16/2021 4:00:00 PM 23.69 74.642 0.093 7.7 7.04 8.53
7/16/2021 4:15:00 PM 23.6 74.48 0.093 7.61 7.32 8.48
7/16/2021 4:30:00 PM 23.51 74.318 0.092 7.55 7.14 8.47
7/16/2021 4:45:00 PM 23.45 74.21 0.092 7.52 9.36 8.53
7/16/2021 5:00:00 PM 23.36 74.048 0.093 7.48 6.9 8.48
7/16/2021 5:15:00 PM 23.26 73.868 0.093 7.44 7.07 8.34
7/16/2021 5:30:00 PM 23.16 73.688 0.093 7.39 7.07 8.26
7/16/2021 5:45:00 PM 23.07 73.526 0.092 7.35 7 8.24
7/16/2021 6:00:00 PM 22.98 73.364 0.092 7.32 6.85 8.22
7/16/2021 6:15:00 PM 22.91 73.238 0.092 7.3 7.03 8.26
7/16/2021 6:30:00 PM 22.89 73.202 0.092 7.29 7.64 8.42
7/16/2021 6:45:00 PM 22.86 73.148 0.092 7.31 7.41 8.53
7/16/2021 7:00:00 PM 22.8 73.04 0.092 7.31 7.54 8.52
7/16/2021 7:15:00 PM 22.72 72.896 0.092 7.3 7.69 8.45
7/16/2021 7:30:00 PM 22.66 72.788 0.092 7.28 7.98 8.42
7/16/2021 7:45:00 PM 22.61 72.698 0.092 7.27 9.2 8.36
7/16/2021 8:00:00 PM 22.55 72.59 0.092 7.25 8.18 8.29
7/16/2021 8:15:00 PM 22.49 72.482 0.093 7.23 8.65 8.26
7/16/2021 8:30:00 PM 22.42 72.356 0.093 7.22 8.64 8.21
7/16/2021 8:45:00 PM 22.36 72.248 0.093 7.2 8.92 8.19
7/16/2021 9:00:00 PM 22.29 72.122 0.094 7.19 9.1 8.15
7/16/2021 9:15:00 PM 22.23 72.014 0.094 7.17 9.19 8.14
7/16/2021 9:30:00 PM 22.17 71.906 0.094 7.16 9.16 8.13
7/16/2021 9:45:00 PM 22.1 71.78 0.094 7.16 9.12 8.13
7/16/2021 10:00:00 PM 22.04 71.672 0.094 7.14 8.91 8.14
7/16/2021 10:15:00 PM 21.98 71.564 0.094 7.14 9.04 8.15
7/16/2021 10:30:00 PM 21.93 71.474 0.095 7.14 8.68 8.14
7/16/2021 10:45:00 PM 21.89 71.402 0.095 7.14 8.71 8.14
7/16/2021 11:00:00 PM 21.84 71.312 0.095 7.14 8.46 8.15
7/16/2021 11:15:00 PM 21.79 71.222 0.095 7.13 9.62 8.17
7/16/2021 11:30:00 PM 21.74 71.132 0.096 7.13 8.57 8.16
7/16/2021 11:45:00 PM 21.7 71.06 0.096 7.13 8.65 8.18
7/17/2021 12:00:00 AM 21.66 70.988 0.096 7.13 8.75 8.19
7/17/2021 12:15:00 AM 21.62 70.916 0.096 7.12 8.56 8.19
7/17/2021 12:30:00 AM 21.58 70.844 0.096 7.12 8.64 8.2
7/17/2021 12:45:00 AM 21.53 70.754 0.096 7.12 8.55 8.22
7/17/2021 1:00:00 AM 21.49 70.682 0.097 7.12 8.7 8.22
7/17/2021 1:15:00 AM 21.45 70.61 0.097 7.13 8.85 8.25
7/17/2021 1:30:00 AM 21.4 70.52 0.097 7.13 8.79 8.23
7/17/2021 1:45:00 AM 21.36 70.448 0.097 7.13 9.5 8.25
7/17/2021 2:00:00 AM 21.31 70.358 0.097 7.12 9.29 8.28
7/17/2021 2:15:00 AM 21.27 70.286 0.098 7.13 9.53 8.28
7/17/2021 2:30:00 AM 21.22 70.196 0.097 7.12 9.57 8.3
7/17/2021 2:45:00 AM 21.18 70.124 0.098 7.07 9.66 8.31
7/17/2021 3:00:00 AM 21.13 70.034 0.098 7.08 9.95 8.32
7/17/2021 3:15:00 AM 21.09 69.962 0.098 7.08 9.99 8.32
7/17/2021 3:30:00 AM 21.05 69.89 0.098 7.07 10.15 8.34
7/17/2021 3:45:00 AM 21.01 69.818 0.098 7.06 10.44 8.33
7/17/2021 4:00:00 AM 20.97 69.746 0.098 7.05 11.16 8.35
7/17/2021 4:15:00 AM 20.93 69.674 0.098 7.03 12.2 8.35
7/17/2021 4:30:00 AM 20.9 69.62 0.099 7.05 13.03 8.38
7/17/2021 4:45:00 AM 20.86 69.548 0.098 7.06 13.34 8.39
7/17/2021 5:00:00 AM 20.81 69.458 0.097 7.06 13.96 8.39
7/17/2021 5:15:00 AM 20.77 69.386 0.097 7.06 14.04 8.4
7/17/2021 5:30:00 AM 20.72 69.296 0.096 7.07 14.17 8.4
7/17/2021 5:45:00 AM 20.68 69.224 0.096 7.06 13.86 8.4
7/17/2021 6:00:00 AM 20.65 69.17 0.096 7.06 14.11 8.44
7/17/2021 6:15:00 AM 20.61 69.098 0.095 7.07 13.72 8.48
7/17/2021 6:30:00 AM 20.59 69.062 0.095 7.08 13.84 8.51
7/17/2021 6:45:00 AM 20.56 69.008 0.095 7.08 13.39 8.54
7/17/2021 7:00:00 AM 20.53 68.954 0.095 7.09 13.29 8.57
7/17/2021 7:15:00 AM 20.51 68.918 0.094 7.11 13.65 8.61
7/17/2021 7:30:00 AM 20.5 68.9 0.094 7.11 13.22 8.66
7/17/2021 7:45:00 AM 20.49 68.882 0.094 7.12 13.35 8.68
7/17/2021 8:00:00 AM 20.48 68.864 0.094 7.14 13.99 8.7
7/17/2021 8:15:00 AM 20.5 68.9 0.093 7.16 13.53 8.8
7/17/2021 8:30:00 AM 20.54 68.972 0.093 7.18 13.49 8.93
7/17/2021 8:45:00 AM 20.58 69.044 0.093 7.2 12.78 9.03
7/17/2021 9:00:00 AM 20.61 69.098 0.092 7.23 11.62 9.08
7/17/2021 9:15:00 AM 20.59 69.062 0.092 7.24 12.49 9.01
7/17/2021 9:30:00 AM 20.59 69.062 0.092 7.25 11.45 9.03
7/17/2021 9:45:00 AM 20.64 69.152 0.092 7.27 11.35 9.15
7/17/2021 10:00:00 AM 20.7 69.26 0.091 7.29 11.25 9.24
7/17/2021 10:15:00 AM 20.81 69.458 0.091 7.32 11.5 9.35
7/17/2021 10:30:00 AM 20.86 69.548 0.091 7.35 10.88 9.45
7/17/2021 10:45:00 AM 20.97 69.746 0.091 7.38 11.26 9.53
7/17/2021 11:00:00 AM 21.03 69.854 0.09 7.42 10.99 9.59
7/17/2021 11:15:00 AM 21.1 69.98 0.09 7.45 10.87 9.62
7/17/2021 11:30:00 AM 21.18 70.124 0.09 7.48 10.81 9.63
7/17/2021 11:45:00 AM 21.29 70.32201 0.09 7.51 11.29 9.61
7/17/2021 12:00:00 PM 21.44 70.592 0.09 7.54 10.12 9.66
7/17/2021 12:15:00 PM 21.64 70.952 0.09 7.57 10.15 9.67
7/17/2021 12:30:00 PM 21.78 71.204 0.09 7.6 9.28 9.7
7/17/2021 12:45:00 PM 21.87 71.366 0.09 7.63 9.25 9.66
7/17/2021 1:00:00 PM 21.85 71.33 0.09 7.64 9.2 9.52
7/17/2021 1:15:00 PM 21.83 71.294 0.09 7.6 9.2 9.27
7/17/2021 1:30:00 PM 21.94 71.492 0.089 7.57 9.16 9.31
7/17/2021 1:45:00 PM 22.14 71.852 0.09 7.57 9.56 9.37
7/17/2021 2:00:00 PM 22.21 71.978 0.09 7.59 9.14 9.4
7/17/2021 2:15:00 PM 22.48 72.464 0.09 7.61 9.06 9.47
7/17/2021 2:30:00 PM 22.55 72.59 0.09 7.63 8.95 9.43
7/17/2021 2:45:00 PM 22.5 72.5 0.09 7.62 9.06 9.29
7/17/2021 3:00:00 PM 22.58 72.644 0.09 7.6 8.87 9.21
7/17/2021 3:15:00 PM 22.61 72.698 0.091 7.58 9.02 9.13
7/17/2021 3:30:00 PM 22.65 72.77 0.091 7.56 8.86 9.03
7/17/2021 3:45:00 PM 22.61 72.698 0.091 7.52 8.96 8.81
7/17/2021 4:00:00 PM 22.57 72.626 0.091 7.48 9.14 8.76
7/17/2021 4:15:00 PM 22.52 72.536 0.091 7.45 8.58 8.67
7/17/2021 4:30:00 PM 22.46 72.42799 0.091 7.41 8.59 8.6
7/17/2021 4:45:00 PM 22.38 72.284 0.091 7.38 8.83 8.5
7/17/2021 5:00:00 PM 22.3 72.14 0.091 7.35 8.81 8.44
7/17/2021 5:15:00 PM 22.22 71.996 0.091 7.33 8.84 8.43
7/17/2021 5:30:00 PM 22.18 71.924 0.091 7.32 9.37 8.51
7/17/2021 5:45:00 PM 22.14 71.852 0.091 7.31 9.59 8.56
7/17/2021 6:00:00 PM 22.11 71.798 0.091 7.31 9.92 8.6
7/17/2021 6:15:00 PM 22.13 71.834 0.091 7.32 10.32 8.74
7/17/2021 6:30:00 PM 22.08 71.744 0.091 7.33 10.89 8.66
7/17/2021 6:45:00 PM 22.03 71.654 0.091 7.32 10.56 8.63
7/17/2021 7:00:00 PM 21.98 71.564 0.091 7.31 11.1 8.58
7/17/2021 7:15:00 PM 21.94 71.492 0.092 7.3 11.28 8.57
7/17/2021 7:30:00 PM 21.88 71.384 0.092 7.29 11.78 8.55
7/17/2021 7:45:00 PM 21.81 71.258 0.092 7.27 11.85 8.48
7/17/2021 8:00:00 PM 21.74 71.132 0.093 7.26 11.48 8.41
7/17/2021 8:15:00 PM 21.69 71.042 0.093 7.24 11.47 8.39
7/17/2021 8:30:00 PM 21.63 70.934 0.093 7.23 11.21 8.34
7/17/2021 8:45:00 PM 21.58 70.844 0.093 7.21 11.23 8.34
7/17/2021 9:00:00 PM 21.53 70.754 0.094 7.2 12.03 8.31
7/17/2021 9:15:00 PM 21.48 70.664 0.094 7.19 12.49 8.29
7/17/2021 9:30:00 PM 21.44 70.592 0.094 7.18 12.15 8.27
7/17/2021 9:45:00 PM 21.39 70.502 0.094 7.17 12.58 8.29
7/17/2021 10:00:00 PM 21.35 70.43 0.095 7.17 12.8 8.26
7/17/2021 10:15:00 PM 21.31 70.358 0.094 7.16 12.79 8.28
7/17/2021 10:30:00 PM 21.27 70.286 0.091 7.16 15.14 8.34
7/17/2021 10:45:00 PM 21.18 70.124 0.09 7.14 20.34 8.34
7/17/2021 11:00:00 PM 21.1 69.98 0.091 7.12 27.6 8.28
7/17/2021 11:15:00 PM 21.04 69.872 0.091 7.09 23.97 8.3
7/17/2021 11:30:00 PM 20.98 69.764 0.092 7.08 25.71 8.3
7/17/2021 11:45:00 PM 20.89 69.602 0.093 7.08 30.16 8.31
7/18/2021 12:00:00 AM 20.74 69.332 0.093 7.08 31.03 8.32
7/18/2021 12:15:00 AM 20.62 69.116 0.093 7.01 28.92 8.35
7/18/2021 12:30:00 AM 20.51 68.918 0.093 7.01 25.78 8.36
7/18/2021 12:45:00 AM 20.41 68.738 0.093 7 24.32 8.39
7/18/2021 1:00:00 AM 20.31 68.558 0.093 6.99 27.02 8.42
7/18/2021 1:15:00 AM 20.22 68.396 0.093 6.97 33.43 8.42
7/18/2021 1:30:00 AM 20.14 68.252 0.093 6.93 40.38 8.47
7/18/2021 1:45:00 AM 20.09 68.162 0.096 6.89 86.3 8.43
7/18/2021 2:00:00 AM 20.05 68.09 0.096 6.74 145.55 8.28
7/18/2021 2:15:00 AM 19.89 67.802 0.088 6.64 153.43 8.27
7/18/2021 2:30:00 AM 19.71 67.478 0.08 6.5 183.3 8.28
7/18/2021 2:45:00 AM 19.44 66.992 0.071 6.41 218.92 8.3
7/18/2021 3:00:00 AM 19.29 66.722 0.065 6.35 293.85 8.29
7/18/2021 3:15:00 AM 19.25 66.65 0.063 6.32 302.56 8.26
7/18/2021 3:30:00 AM 19.26 66.668 0.062 6.24 305.6 8.23
7/18/2021 3:45:00 AM 19.29 66.722 0.063 6.23 296.71 8.23
7/18/2021 4:00:00 AM 19.31 66.758 0.065 6.24 263.77 8.24
7/18/2021 4:15:00 AM 19.31 66.758 0.066 6.31 244.81 8.28
7/18/2021 4:30:00 AM 19.29 66.722 0.067 6.49 217.57 8.33
7/18/2021 4:45:00 AM 19.24 66.632 0.068 6.58 183.24 8.39
7/18/2021 5:00:00 AM 19.19 66.542 0.069 6.61 164.71 8.43
7/18/2021 5:15:00 AM 19.12 66.416 0.07 6.63 143.78 8.47
7/18/2021 5:30:00 AM 19.03 66.254 0.071 6.66 138.05 8.51
7/18/2021 5:45:00 AM 18.95 66.11 0.071 6.7 141.4 8.56
7/18/2021 6:00:00 AM 18.86 65.948 0.072 6.72 132.5 8.61
7/18/2021 6:15:00 AM 18.77 65.786 0.072 6.74 99.83 8.66
7/18/2021 6:30:00 AM 18.68 65.624 0.072 6.79 97.1 8.71
7/18/2021 6:45:00 AM 18.59 65.462 0.072 6.78 97.64 8.75
7/18/2021 7:00:00 AM 18.49 65.282 0.073 6.76 82.1 8.8
7/18/2021 7:15:00 AM 18.4 65.12 0.073 6.76 75.26 8.84
7/18/2021 7:30:00 AM 18.31 64.958 0.073 6.75 72.45 8.88
7/18/2021 7:45:00 AM 18.22 64.796 0.073 6.76 61.77 8.92
7/18/2021 8:00:00 AM 18.13 64.634 0.073 6.76 62.48 8.95
7/18/2021 8:15:00 AM 18.06 64.508 0.073 6.78 54.32 8.98
7/18/2021 8:30:00 AM 17.99 64.382 0.073 6.78 52.26 9.01
7/18/2021 8:45:00 AM 17.93 64.274 0.073 6.8 50.87 9.04
7/18/2021 9:00:00 AM 17.88 64.184 0.073 6.78 47.41 9.06
7/18/2021 9:15:00 AM 17.85 64.13 0.073 6.79 45.7 9.08
7/18/2021 9:30:00 AM 17.81 64.058 0.073 6.78 43.74 9.1
7/18/2021 9:45:00 AM 17.77 63.986 0.074 6.78 41.93 9.12
7/18/2021 10:00:00 AM 17.74 63.932 0.074 6.8 42.35 9.14
7/18/2021 10:15:00 AM 17.72 63.896 0.074 6.81 39.89 9.16
7/18/2021 10:30:00 AM 17.71 63.878 0.074 6.81 39.01 9.18
7/18/2021 10:45:00 AM 17.7 63.86 0.074 6.81 37.3 9.21
7/18/2021 11:00:00 AM 17.68 63.824 0.073 6.82 36.54 9.22
7/18/2021 11:15:00 AM 17.69 63.842 0.073 6.83 36.33 9.23
7/18/2021 11:30:00 AM 17.69 63.842 0.073 6.84 34.13 9.25
7/18/2021 11:45:00 AM 17.71 63.878 0.073 6.86 33.47 9.27
7/18/2021 12:00:00 PM 17.74 63.932 0.073 6.87 32.16 9.29
7/18/2021 12:15:00 PM 17.77 63.986 0.072 6.86 30.98 9.31
7/18/2021 12:30:00 PM 17.83 64.094 0.072 6.87 30.33 9.33
7/18/2021 12:45:00 PM 17.89 64.202 0.072 6.9 31.57 9.34
7/18/2021 1:00:00 PM 17.92 64.256 0.072 6.91 28.02 9.36
7/18/2021 1:15:00 PM 17.92 64.256 0.071 6.89 28.38 9.36
7/18/2021 1:30:00 PM 17.96 64.328 0.071 6.9 27.21 9.37
7/18/2021 1:45:00 PM 18.01 64.418 0.071 6.9 26.58 9.39
7/18/2021 2:00:00 PM 18.14 64.652 0.07 6.91 26.15 9.41
7/18/2021 2:15:00 PM 18.28 64.904 0.07 6.91 25.4 9.42
7/18/2021 2:30:00 PM 18.41 65.138 0.07 6.93 24.99 9.42
7/18/2021 2:45:00 PM 18.47 65.246 0.07 6.95 24.53 9.42
7/18/2021 3:00:00 PM 18.55 65.39 0.069 6.94 23.88 9.42
7/18/2021 3:15:00 PM 18.62 65.516 0.069 6.94 24 9.43
7/18/2021 3:30:00 PM 18.66 65.588 0.069 6.96 23.23 9.42
7/18/2021 3:45:00 PM 18.71 65.67799 0.069 6.96 22.96 9.41
7/18/2021 4:00:00 PM 18.72 65.696 0.068 6.96 23.03 9.41
7/18/2021 4:15:00 PM 18.75 65.75 0.068 6.95 22.66 9.4
7/18/2021 4:30:00 PM 18.8 65.84 0.068 6.96 22.49 9.4
7/18/2021 4:45:00 PM 18.81 65.858 0.068 6.97 22.16 9.39
7/18/2021 5:00:00 PM 18.87 65.966 0.068 6.96 21.79 9.38
7/18/2021 5:15:00 PM 18.9 66.02 0.067 6.97 21.68 9.37
7/18/2021 5:30:00 PM 18.93 66.074 0.067 6.96 21.39 9.36
7/18/2021 5:45:00 PM 18.91 66.038 0.067 6.96 21.15 9.33
7/18/2021 6:00:00 PM 18.86 65.948 0.067 6.96 20.85 9.31
7/18/2021 6:15:00 PM 18.81 65.858 0.067 6.96 20.8 9.28
7/18/2021 6:30:00 PM 18.77 65.786 0.066 6.95 20.34 9.27
7/18/2021 6:45:00 PM 18.75 65.75 0.066 6.95 20.3 9.26
7/18/2021 7:00:00 PM 18.73 65.714 0.066 6.94 20.32 9.24
7/18/2021 7:15:00 PM 18.7 65.66 0.066 6.94 20.01 9.22
7/18/2021 7:30:00 PM 18.66 65.588 0.066 6.93 24.41 9.21
7/18/2021 7:45:00 PM 18.6 65.48 0.066 6.92 19.87 9.19
7/18/2021 8:00:00 PM 18.55 65.39 0.066 6.92 19.74 9.18
7/18/2021 8:15:00 PM 18.5 65.3 0.066 6.9 19.59 9.17
7/18/2021 8:30:00 PM 18.46 65.228 0.066 6.88 19.81 9.16
7/18/2021 8:45:00 PM 18.41 65.138 0.066 6.86 19.18 9.15
7/18/2021 9:00:00 PM 18.36 65.048 0.066 6.87 19.16 9.15
7/18/2021 9:15:00 PM 18.3 64.94 0.065 6.88 19.06 9.15
7/18/2021 9:30:00 PM 18.24 64.832 0.065 6.87 18.9 9.15
7/18/2021 9:45:00 PM 18.17 64.706 0.065 6.87 18.89 9.16
7/18/2021 10:00:00 PM 18.1 64.58 0.065 6.87 18.95 9.16
7/18/2021 10:15:00 PM 18.03 64.454 0.065 6.87 18.76 9.18
7/18/2021 10:30:00 PM 17.96 64.328 0.065 6.87 18.62 9.19
7/18/2021 10:45:00 PM 17.89 64.202 0.065 6.87 18.35 9.2
7/18/2021 11:00:00 PM 17.81 64.058 0.065 6.86 18.33 9.21
7/18/2021 11:15:00 PM 17.74 63.932 0.065 6.86 18.14 9.22
7/18/2021 11:30:00 PM 17.67 63.806 0.065 6.86 18.03 9.24
7/18/2021 11:45:00 PM 17.61 63.698 0.065 6.85 17.99 9.25
7/19/2021 12:00:00 AM 17.54 63.572 0.065 6.85 18.07 9.27
7/19/2021 12:15:00 AM 17.47 63.446 0.065 6.85 17.68 9.28
7/19/2021 12:30:00 AM 17.39 63.302 0.065 6.85 17.62 9.3
7/19/2021 12:45:00 AM 17.33 63.194 0.065 6.84 17.51 9.31
7/19/2021 1:00:00 AM 17.25 63.05 0.065 6.85 17.59 9.32
7/19/2021 1:15:00 AM 17.18 62.924 0.065 6.85 17.48 9.34
7/19/2021 1:30:00 AM 17.11 62.798 0.065 6.85 17.36 9.36
7/19/2021 1:45:00 AM 17.04 62.672 0.065 6.85 17.35 9.38
7/19/2021 2:00:00 AM 16.98 62.564 0.065 6.85 17.03 9.39
7/19/2021 2:15:00 AM 16.91 62.438 0.064 6.85 16.95 9.41
7/19/2021 2:30:00 AM 16.85 62.33 0.064 6.85 16.9 9.42
7/19/2021 2:45:00 AM 16.8 62.24 0.064 6.85 16.92 9.44
7/19/2021 3:00:00 AM 16.74 62.132 0.064 6.85 16.68 9.45
7/19/2021 3:15:00 AM 16.69 62.042 0.064 6.84 16.7 9.47
7/19/2021 3:30:00 AM 16.64 61.952 0.064 6.85 16.69 9.48
7/19/2021 3:45:00 AM 16.59 61.862 0.064 6.84 16.42 9.49
7/19/2021 4:00:00 AM 16.54 61.772 0.064 6.85 16.56 9.5
7/19/2021 4:15:00 AM 16.49 61.682 0.064 6.85 16.43 9.52
7/19/2021 4:30:00 AM 16.44 61.592 0.064 6.85 16.33 9.53
7/19/2021 4:45:00 AM 16.38 61.484 0.064 6.85 16.5 9.54
7/19/2021 5:00:00 AM 16.33 61.394 0.064 6.85 16.22 9.56
7/19/2021 5:15:00 AM 16.28 61.304 0.064 6.85 16.24 9.57
7/19/2021 5:30:00 AM 16.23 61.214 0.064 6.84 16.32 9.58
7/19/2021 5:45:00 AM 16.18 61.124 0.064 6.84 16.26 9.59
7/19/2021 6:00:00 AM 16.13 61.034 0.064 6.84 16.31 9.61
7/19/2021 6:15:00 AM 16.09 60.962 0.064 6.84 16.2 9.62
7/19/2021 6:30:00 AM 16.05 60.89 0.064 6.85 16.1 9.64
7/19/2021 6:45:00 AM 16 60.8 0.064 6.85 16.03 9.65
7/19/2021 7:00:00 AM 15.96 60.728 0.064 6.85 16.08 9.67
7/19/2021 7:15:00 AM 15.93 60.674 0.064 6.85 15.69 9.69
7/19/2021 7:30:00 AM 15.89 60.602 0.064 6.85 15.64 9.72
7/19/2021 7:45:00 AM 15.86 60.548 0.063 6.86 15.51 9.75
7/19/2021 8:00:00 AM 15.84 60.512 0.063 6.87 15.25 9.79
7/19/2021 8:15:00 AM 15.82 60.476 0.063 6.86 15.36 9.82
7/19/2021 8:30:00 AM 15.8 60.44 0.063 6.87 15.15 9.86
7/19/2021 8:45:00 AM 15.81 60.458 0.063 6.89 15.06 9.91
7/19/2021 9:00:00 AM 15.8 60.44 0.063 6.89 15.07 9.95
7/19/2021 9:15:00 AM 15.81 60.458 0.063 6.9 14.84 9.99
7/19/2021 9:30:00 AM 15.84 60.512 0.063 6.91 14.72 10.02
7/19/2021 9:45:00 AM 15.89 60.602 0.063 6.91 14.72 10.06
7/19/2021 10:00:00 AM 15.93 60.674 0.063 6.92 14.65 10.08
7/19/2021 10:15:00 AM 15.99 60.782 0.063 6.93 14.42 10.1
7/19/2021 10:30:00 AM 16.05 60.89 0.063 6.94 14.46 10.11
7/19/2021 10:45:00 AM 16.13 61.034 0.063 6.95 14.44 10.12
7/19/2021 11:00:00 AM 16.23 61.214 0.063 6.96 14.23 10.14
7/19/2021 11:15:00 AM 16.33 61.394 0.063 6.97 14.11 10.15
7/19/2021 11:30:00 AM 16.44 61.592 0.063 6.97 14.05 10.14
7/19/2021 11:45:00 AM 16.56 61.808 0.063 6.99 14.01 10.14
7/19/2021 12:00:00 PM 16.69 62.042 0.063 7 13.79 10.13
7/19/2021 12:15:00 PM 16.83 62.294 0.062 7 13.93 10.13
7/19/2021 12:30:00 PM 16.97 62.546 0.062 7.02 13.82 10.12
7/19/2021 12:45:00 PM 17.12 62.816 0.062 7.03 13.88 10.1
7/19/2021 1:00:00 PM 17.27 63.086 0.062 7.04 13.71 10.08
7/19/2021 1:15:00 PM 17.44 63.392 0.062 7.05 13.75 10.07
7/19/2021 1:30:00 PM 17.61 63.698 0.062 7.06 13.7 10.04
7/19/2021 1:45:00 PM 17.76 63.968 0.062 7.06 13.61 10.02
7/19/2021 2:00:00 PM 17.9 64.22 0.062 7.07 13.5 10
7/19/2021 2:15:00 PM 18.08 64.544 0.062 7.08 13.53 9.98
7/19/2021 2:30:00 PM 18.19 64.742 0.062 7.08 13.45 9.95
7/19/2021 2:45:00 PM 18.29 64.922 0.062 7.09 13.45 9.9
7/19/2021 3:00:00 PM 18.43 65.174 0.062 7.1 13.49 9.88
7/19/2021 3:15:00 PM 18.63 65.534 0.062 7.1 13.26 9.87
7/19/2021 3:30:00 PM 18.73 65.714 0.062 7.1 13.41 9.84
7/19/2021 3:45:00 PM 18.77 65.786 0.062 7.11 13.35 9.82
7/19/2021 4:00:00 PM 18.77 65.786 0.062 7.11 13.27 9.78
7/19/2021 4:15:00 PM 18.84 65.912 0.062 7.11 13.22 9.76
7/19/2021 4:30:00 PM 18.85 65.93 0.062 7.11 13.38 9.73
7/19/2021 4:45:00 PM 18.87 65.966 0.062 7.1 13.33 9.7
7/19/2021 5:00:00 PM 18.96 66.128 0.062 7.11 13.18 9.67
7/19/2021 5:15:00 PM 19.05 66.29 0.062 7.1 13.26 9.65
7/19/2021 5:30:00 PM 19.08 66.344 0.062 7.1 13.6 9.62
7/19/2021 5:45:00 PM 19.04 66.272 0.062 7.1 13.38 9.59
7/19/2021 6:00:00 PM 18.99 66.182 0.062 7.1 13.47 9.56
7/19/2021 6:15:00 PM 18.93 66.074 0.062 7.08 13.49 9.51
7/19/2021 6:30:00 PM 18.9 66.02 0.062 7.07 13.43 9.48
7/19/2021 6:45:00 PM 18.86 65.948 0.062 7.06 13.56 9.44
7/19/2021 7:00:00 PM 18.8 65.84 0.062 7.05 13.58 9.41
7/19/2021 7:15:00 PM 18.73 65.714 0.062 7.04 13.58 9.39
7/19/2021 7:30:00 PM 18.66 65.588 0.062 7.02 13.75 9.35
7/19/2021 7:45:00 PM 18.58 65.444 0.062 7 13.65 9.33
7/19/2021 8:00:00 PM 18.52 65.336 0.063 6.99 13.62 9.3
7/19/2021 8:15:00 PM 18.46 65.228 0.063 6.98 13.61 9.27
7/19/2021 8:30:00 PM 18.41 65.138 0.063 6.96 13.79 9.25
7/19/2021 8:45:00 PM 18.37 65.066 0.063 6.95 13.93 9.22
7/19/2021 9:00:00 PM 18.33 64.994 0.063 6.93 13.91 9.21
7/19/2021 9:15:00 PM 18.28 64.904 0.062 6.92 14.07 9.19
7/19/2021 9:30:00 PM 18.23 64.814 0.063 6.92 14.06 9.19
7/19/2021 9:45:00 PM 18.19 64.742 0.063 6.9 12.97 9.18
7/19/2021 10:00:00 PM 18.15 64.67 0.063 6.9 12.97 9.18
7/19/2021 10:15:00 PM 18.12 64.616 0.063 6.89 13.02 9.17
7/19/2021 10:30:00 PM 18.1 64.58 0.063 6.88 13.08 9.17
7/19/2021 10:45:00 PM 18.07 64.526 0.063 6.88 13.03 9.17
7/19/2021 11:00:00 PM 18.04 64.472 0.063 6.87 12.93 9.17
7/19/2021 11:15:00 PM 18.02 64.436 0.063 6.87 13.15 9.17
7/19/2021 11:30:00 PM 17.99 64.382 0.063 6.86 13.07 9.17
7/19/2021 11:45:00 PM 17.96 64.328 0.063 6.86 12.97 9.17
7/20/2021 12:00:00 AM 17.93 64.274 0.063 6.86 12.97 9.18
7/20/2021 12:15:00 AM 17.89 64.202 0.063 6.86 13.06 9.18
7/20/2021 12:30:00 AM 17.86 64.148 0.063 6.86 13.17 9.19
7/20/2021 12:45:00 AM 17.83 64.094 0.064 6.86 13.06 9.19
7/20/2021 1:00:00 AM 17.8 64.04 0.064 6.86 13.14 9.2
7/20/2021 1:15:00 AM 17.77 63.986 0.064 6.85 13.12 9.2
7/20/2021 1:30:00 AM 17.74 63.932 0.064 6.85 12.9 9.21
7/20/2021 1:45:00 AM 17.7 63.86 0.064 6.87 13.08 9.22
7/20/2021 2:00:00 AM 17.66 63.788 0.064 6.86 13.12 9.23
7/20/2021 2:15:00 AM 17.62 63.716 0.064 6.86 13.08 9.23
7/20/2021 2:30:00 AM 17.58 63.644 0.064 6.86 13.29 9.25
7/20/2021 2:45:00 AM 17.53 63.554 0.064 6.85 13.13 9.26
7/20/2021 3:00:00 AM 17.49 63.482 0.064 6.85 13.14 9.27
7/20/2021 3:15:00 AM 17.44 63.392 0.064 6.85 13 9.28
7/20/2021 3:30:00 AM 17.39 63.302 0.064 6.85 13.05 9.29
7/20/2021 3:45:00 AM 17.34 63.212 0.064 6.86 13.08 9.31
7/20/2021 4:00:00 AM 17.29 63.122 0.064 6.86 13.05 9.31
7/20/2021 4:15:00 AM 17.24 63.032 0.064 6.86 13.04 9.32
7/20/2021 4:30:00 AM 17.19 62.942 0.064 6.85 13.13 9.34
7/20/2021 4:45:00 AM 17.14 62.852 0.064 6.86 13.07 9.35
7/20/2021 5:00:00 AM 17.08 62.744 0.064 6.86 13.17 9.36
7/20/2021 5:15:00 AM 17.03 62.654 0.064 6.86 13.22 9.37
7/20/2021 5:30:00 AM 16.98 62.564 0.064 6.87 13.12 9.38
7/20/2021 5:45:00 AM 16.93 62.474 0.064 6.86 13.27 9.39
7/20/2021 6:00:00 AM 16.88 62.384 0.064 6.86 13.32 9.41
7/20/2021 6:15:00 AM 16.83 62.294 0.064 6.86 13.26 9.42
7/20/2021 6:30:00 AM 16.78 62.204 0.064 6.87 13.23 9.44
7/20/2021 6:45:00 AM 16.74 62.132 0.064 6.86 13.13 9.47
7/20/2021 7:00:00 AM 16.7 62.06 0.064 6.87 13.02 9.49
7/20/2021 7:15:00 AM 16.66 61.988 0.064 6.87 13.01 9.53
7/20/2021 7:30:00 AM 16.63 61.934 0.064 6.88 13.06 9.57
7/20/2021 7:45:00 AM 16.61 61.898 0.064 6.89 12.88 9.62
7/20/2021 8:00:00 AM 16.58 61.844 0.064 6.89 12.85 9.66
7/20/2021 8:15:00 AM 16.57 61.826 0.064 6.9 12.88 9.73
7/20/2021 8:30:00 AM 16.56 61.808 0.064 6.92 12.72 9.8
7/20/2021 8:45:00 AM 16.56 61.808 0.064 6.94 12.78 9.86
7/20/2021 9:00:00 AM 16.58 61.844 0.064 6.94 12.79 9.91
7/20/2021 9:15:00 AM 16.61 61.898 0.064 6.95 12.7 9.96
7/20/2021 9:30:00 AM 16.65 61.97 0.064 6.96 12.71 10
7/20/2021 9:45:00 AM 16.69 62.042 0.064 6.98 12.75 10.03
7/20/2021 10:00:00 AM 16.75 62.15 0.064 6.99 12.47 10.06
7/20/2021 10:15:00 AM 16.81 62.258 0.064 7.01 12.51 10.09
7/20/2021 10:30:00 AM 16.89 62.402 0.064 7.02 12.53 10.11
7/20/2021 10:45:00 AM 16.97 62.546 0.064 7.03 12.46 10.12
7/20/2021 11:00:00 AM 17.07 62.726 0.064 7.04 12.4 10.14
7/20/2021 11:15:00 AM 17.19 62.942 0.063 7.06 12.3 10.15
7/20/2021 11:30:00 AM 17.24 63.032 0.063 7.07 12.36 10.14
7/20/2021 11:45:00 AM 17.31 63.158 0.063 7.09 56.33 10.12
7/20/2021 12:00:00 PM 17.39 63.302 0.063 7.1 108.24 10.11
7/20/2021 12:15:00 PM 17.51 63.518 0.063 7.12 103.1 10.13
7/20/2021 12:30:00 PM 17.63 63.734 0.063 7.14 100.08 10.13
7/20/2021 12:45:00 PM 17.75 63.95 0.063 7.16 107.49 10.13
7/20/2021 1:00:00 PM 17.85 64.13 0.063 7.17 111.74 10.11
7/20/2021 1:15:00 PM 17.96 64.328 0.063 7.16 108.64 10.09
7/20/2021 1:30:00 PM 18.17 64.706 0.063 7.19 126.59 10.07
7/20/2021 1:45:00 PM 18.35 65.03 0.063 7.2 126.15 10.05
7/20/2021 2:00:00 PM 18.48 65.264 0.063 7.21 101.65 10.02
7/20/2021 2:15:00 PM 18.61 65.498 0.063 7.21 121.4 9.99
7/20/2021 2:30:00 PM 18.71 65.67799 0.063 7.22 139.18 9.93
7/20/2021 2:45:00 PM 18.85 65.93 0.063 7.23 143.33 9.91
7/20/2021 3:00:00 PM 19.04 66.272 0.063 7.24 227.26 9.88
7/20/2021 3:15:00 PM 19.24 66.632 0.063 7.24 344.7 9.85
7/20/2021 3:30:00 PM 19.43 66.974 0.063 7.25 213.08 9.82
7/20/2021 3:45:00 PM 19.59 67.262 0.063 7.26 292.62 9.79
7/20/2021 4:00:00 PM 19.71 67.478 0.063 7.27 193.93 9.76
7/20/2021 4:15:00 PM 19.79 67.622 0.063 7.27 267.68 9.73
7/20/2021 4:30:00 PM 19.85 67.73 0.063 7.27 212.18 9.7
7/20/2021 4:45:00 PM 19.87 67.766 0.063 7.28 166.81 9.66
7/20/2021 5:00:00 PM 19.88 67.784 0.063 7.28 133.59 9.64
7/20/2021 5:15:00 PM 19.9 67.82 0.063 7.27 131.45 9.62
7/20/2021 5:30:00 PM 19.9 67.82 0.063 7.27 176.22 9.59
7/20/2021 5:45:00 PM 19.86 67.748 0.063 7.26 204.04 9.56
7/20/2021 6:00:00 PM 19.82 67.676 0.064 7.25 239.06 9.53
7/20/2021 6:15:00 PM 19.78 67.604 0.064 7.23 174.81 9.49
7/20/2021 6:30:00 PM 19.75 67.55 0.064 7.21 180.74 9.44
7/20/2021 6:45:00 PM 19.72 67.496 0.064 7.2 401.93 9.39
7/20/2021 7:00:00 PM 19.69 67.442 0.064 7.18 162.28 9.35
7/20/2021 7:15:00 PM 19.64 67.352 0.064 7.14 122.07 9.28
7/20/2021 7:30:00 PM 19.59 67.262 0.064 7.13 141.62 9.19
7/20/2021 7:45:00 PM 19.54 67.172 0.064 7.11 303.08 9.14
7/20/2021 8:00:00 PM 19.49 67.082 0.064 7.07 198.53 9.08
7/20/2021 8:15:00 PM 19.44 66.992 0.065 7.05 220.59 9.03
7/20/2021 8:30:00 PM 19.39 66.902 0.065 7.04 164.94 9
7/20/2021 8:45:00 PM 19.35 66.83 0.065 7.02 322.24 8.97
7/20/2021 9:00:00 PM 19.31 66.758 0.065 7 147.22 8.95
7/20/2021 9:15:00 PM 19.27 66.686 0.065 6.98 173.33 8.93
7/20/2021 9:30:00 PM 19.25 66.65 0.065 6.97 71.4 8.91
7/20/2021 9:45:00 PM 19.23 66.614 0.065 6.97 68.66 8.9
7/20/2021 10:00:00 PM 19.2 66.56 0.065 6.96 63.05 8.89
7/20/2021 10:15:00 PM 19.17 66.506 0.065 6.96 58.95 8.89
7/20/2021 10:30:00 PM 19.12 66.416 0.065 6.96 51.78 8.88
7/20/2021 10:45:00 PM 19.07 66.326 0.065 6.96 49.66 8.88
7/20/2021 11:00:00 PM 19.02 66.236 0.065 6.96 49.7 8.88
7/20/2021 11:15:00 PM 18.96 66.128 0.066 6.96 49.78 8.9
7/20/2021 11:30:00 PM 18.92 66.056 0.066 6.96 50.74 8.9
7/20/2021 11:45:00 PM 18.87 65.966 0.066 6.95 46.98 8.91
7/21/2021 12:00:00 AM 18.83 65.894 0.066 6.95 51.67 8.91
7/21/2021 12:15:00 AM 18.78 65.804 0.066 6.94 44.28 8.92
7/21/2021 12:30:00 AM 18.73 65.714 0.066 6.93 45.1 8.94
7/21/2021 12:45:00 AM 18.68 65.624 0.066 6.93 44.98 8.94
7/21/2021 1:00:00 AM 18.63 65.534 0.066 6.93 47.34 8.95
7/21/2021 1:15:00 AM 18.58 65.444 0.066 6.93 61.08 8.97
7/21/2021 1:30:00 AM 18.52 65.336 0.066 6.93 47.02 8.97
7/21/2021 1:45:00 AM 18.47 65.246 0.066 6.93 47.43 8.99
7/21/2021 2:00:00 AM 18.42 65.156 0.066 6.92 43.99 9
7/21/2021 2:15:00 AM 18.37 65.066 0.066 6.92 41.54 9.01
7/21/2021 2:30:00 AM 18.33 64.994 0.066 6.92 46.91 9.02
7/21/2021 2:45:00 AM 18.28 64.904 0.066 6.91 49.26 9.02
7/21/2021 3:00:00 AM 18.24 64.832 0.066 6.91 44.35 9.04
7/21/2021 3:15:00 AM 18.2 64.76 0.066 6.91 40.79 9.04
7/21/2021 3:30:00 AM 18.16 64.688 0.066 6.91 40.86 9.05
7/21/2021 3:45:00 AM 18.13 64.634 0.066 6.92 42.3 9.06
7/21/2021 4:00:00 AM 18.09 64.562 0.067 6.91 41.82 9.07
7/21/2021 4:15:00 AM 18.05 64.49 0.067 6.91 35.17 9.08
7/21/2021 4:30:00 AM 18.02 64.436 0.067 6.91 31.94 9.09
7/21/2021 4:45:00 AM 17.98 64.364 0.067 6.91 34.22 9.09
7/21/2021 5:00:00 AM 17.94 64.292 0.067 6.91 31 9.11
7/21/2021 5:15:00 AM 17.91 64.238 0.067 6.9 30.62 9.11
7/21/2021 5:30:00 AM 17.87 64.166 0.067 6.91 31.56 9.12
7/21/2021 5:45:00 AM 17.84 64.112 0.067 6.91 31.77 9.13
7/21/2021 6:00:00 AM 17.8 64.04 0.067 6.9 32.41 9.13
7/21/2021 6:15:00 AM 17.76 63.968 0.066 6.92 45.95 9.14
7/21/2021 6:30:00 AM 17.72 63.896 0.066 6.92 32.65 9.15
7/21/2021 6:45:00 AM 17.68 63.824 0.066 6.91 38.73 9.16
7/21/2021 7:00:00 AM 17.65 63.77 0.066 6.92 39.38 9.18
7/21/2021 7:15:00 AM 17.63 63.734 0.066 6.91 39.42 9.23
7/21/2021 7:30:00 AM 17.59 63.662 0.066 6.92 71.38 9.26
7/21/2021 7:45:00 AM 17.57 63.626 0.066 6.92 41.26 9.31
7/21/2021 8:00:00 AM 17.55 63.59 0.066 6.93 39.09 9.39
7/21/2021 8:15:00 AM 17.53 63.554 0.066 6.94 36.16 9.41
7/21/2021 8:30:00 AM 17.51 63.518 0.066 6.93 38.96 9.42
7/21/2021 8:45:00 AM 17.51 63.518 0.066 6.93 42.04 9.47
7/21/2021 9:00:00 AM 17.51 63.518 0.066 6.94 42.23 9.54
7/21/2021 9:15:00 AM 17.52 63.536 0.066 6.96 59.85 9.58
7/21/2021 9:30:00 AM 17.53 63.554 0.066 6.98 58.96 9.64
7/21/2021 9:45:00 AM 17.55 63.59 0.066 7 110.23 9.7
7/21/2021 10:00:00 AM 17.58 63.644 0.066 7.02 80.21 9.76
7/21/2021 10:15:00 AM 17.61 63.698 0.066 7.04 89.45 9.79
7/21/2021 10:30:00 AM 17.68 63.824 0.066 7.07 138.39 9.84
7/21/2021 10:45:00 AM 17.67 63.806 0.066 7.12 116.28 9.82
7/21/2021 11:00:00 AM 17.76 63.968 0.066 7.15 85.34 9.85
7/21/2021 11:15:00 AM 17.79 64.022 0.066 7.14 83.08 9.83
7/21/2021 11:30:00 AM 17.88 64.184 0.066 7.14 73 9.85
7/21/2021 11:45:00 AM 17.88 64.184 0.066 7.15 72.31 9.83
7/21/2021 12:00:00 PM 17.87 64.166 0.066 7.13 90.59 9.79
7/21/2021 12:15:00 PM 18.09 64.562 0.065 7.14 80.35 9.82
7/21/2021 12:30:00 PM 18.13 64.634 0.065 7.14 79.95 9.79
7/21/2021 12:45:00 PM 18.24 64.832 0.064 7.14 72.29 9.78
7/21/2021 1:00:00 PM 18.18 64.724 0.063 7.14 77.94 9.69
7/21/2021 1:15:00 PM 18.25 64.85 0.063 7.12 71.47 9.7
7/21/2021 1:30:00 PM 18.35 65.03 0.063 7.14 75.95 9.71
7/21/2021 1:45:00 PM 18.44 65.192 0.063 7.1 57.65 9.72
7/21/2021 2:00:00 PM 18.51 65.318 0.062 7.11 68.2 9.71
7/21/2021 2:15:00 PM 18.54 65.372 0.062 7.1 64.12 9.67
7/21/2021 2:30:00 PM 18.54 65.372 0.062 7.12 68.86 9.63
7/21/2021 2:45:00 PM 18.68 65.624 0.062 7.17 60.85 9.66
7/21/2021 3:00:00 PM 18.79 65.82201 0.062 7.13 43.34 9.67
7/21/2021 3:15:00 PM 18.87 65.966 0.062 7.18 87.32 9.65
7/21/2021 3:30:00 PM 18.96 66.128 0.063 7.18 75.58 9.65
7/21/2021 3:45:00 PM 19.02 66.236 0.063 7.2 94.69 9.65
7/21/2021 4:00:00 PM 19.07 66.326 0.063 7.2 88.55 9.64
7/21/2021 4:15:00 PM 19.1 66.38 0.063 7.21 123.05 9.63
7/21/2021 4:30:00 PM 19.18 66.524 0.062 7.22 74.92 9.65
7/21/2021 4:45:00 PM 19.26 66.668 0.062 7.22 105.78 9.62
7/21/2021 5:00:00 PM 19.29 66.722 0.062 7.23 99.75 9.6
7/21/2021 5:15:00 PM 19.28 66.704 0.062 7.22 137.73 9.55
7/21/2021 5:30:00 PM 19.27 66.686 0.061 7.22 85.41 9.53
7/21/2021 5:45:00 PM 19.2 66.56 0.061 7.21 109.92 9.49
7/21/2021 6:00:00 PM 19.12 66.416 0.061 7.21 92.46 9.46
7/21/2021 6:15:00 PM 19.08 66.344 0.061 7.17 97.6 9.43
7/21/2021 6:30:00 PM 19.03 66.254 0.061 7.17 104.3 9.37
7/21/2021 6:45:00 PM 18.99 66.182 0.061 7.16 95.97 9.33
7/21/2021 7:00:00 PM 18.93 66.074 0.062 7.14 95.17 9.3
7/21/2021 7:15:00 PM 18.89 66.002 0.062 7.13 109.78 9.26
7/21/2021 7:30:00 PM 18.86 65.948 0.062 7.11 110.79 9.22
7/21/2021 7:45:00 PM 18.82 65.876 0.063 7.09 86.97 9.19
7/21/2021 8:00:00 PM 18.76 65.768 0.063 7.07 151.8 9.16
7/21/2021 8:15:00 PM 18.69 65.642 0.064 7.06 86.69 9.13
7/21/2021 8:30:00 PM 18.63 65.534 0.064 7.04 79.25 9.11
7/21/2021 8:45:00 PM 18.57 65.426 0.064 7.02 80.16 9.09
7/21/2021 9:00:00 PM 18.51 65.318 0.065 7.01 88.91 9.08
7/21/2021 9:15:00 PM 18.47 65.246 0.065 7 100.71 9.07
7/21/2021 9:30:00 PM 18.42 65.156 0.065 6.99 106.89 9.05
7/21/2021 9:45:00 PM 18.37 65.066 0.065 6.99 77.94 9.05
7/21/2021 10:00:00 PM 18.33 64.994 0.065 6.99 68.39 9.05
7/21/2021 10:15:00 PM 18.28 64.904 0.066 6.98 78.84 9.05
7/21/2021 10:30:00 PM 18.23 64.814 0.066 6.98 86.99 9.06
7/21/2021 10:45:00 PM 18.17 64.706 0.066 6.97 81.27 9.06
7/21/2021 11:00:00 PM 18.11 64.598 0.066 6.96 81.19 9.08
7/21/2021 11:15:00 PM 18.05 64.49 0.066 6.96 73.12 9.09
7/21/2021 11:30:00 PM 17.98 64.364 0.066 6.96 76.75 9.11
7/21/2021 11:45:00 PM 17.9 64.22 0.066 6.96 75.79 9.12
7/22/2021 12:00:00 AM 17.82 64.076 0.066 6.95 64.8 9.14
7/22/2021 12:15:00 AM 17.74 63.932 0.066 6.95 70.97 9.16
7/22/2021 12:30:00 AM 17.66 63.788 0.066 6.95 70.49 9.17
7/22/2021 12:45:00 AM 17.58 63.644 0.066 6.95 71.19 9.19
7/22/2021 1:00:00 AM 17.5 63.5 0.066 6.95 70.65 9.22
7/22/2021 1:15:00 AM 17.42 63.356 0.066 6.94 112.16 9.23
7/22/2021 1:30:00 AM 17.35 63.23 0.066 6.94 64.4 9.25
7/22/2021 1:45:00 AM 17.28 63.104 0.066 6.94 70.23 9.26
7/22/2021 2:00:00 AM 17.21 62.978 0.066 6.93 70.67 9.28
7/22/2021 2:15:00 AM 17.14 62.852 0.066 6.93 62.29 9.3
7/22/2021 2:30:00 AM 17.08 62.744 0.066 6.92 76.25 9.31
7/22/2021 2:45:00 AM 17.02 62.636 0.066 6.93 69.79 9.33
7/22/2021 3:00:00 AM 16.97 62.546 0.066 6.93 65.12 9.34
7/22/2021 3:15:00 AM 16.92 62.456 0.066 6.93 57.3 9.36
7/22/2021 3:30:00 AM 16.87 62.366 0.066 6.93 62.15 9.37
7/22/2021 3:45:00 AM 16.81 62.258 0.066 6.93 46.07 9.39
7/22/2021 4:00:00 AM 16.74 62.132 0.066 6.93 71.26 9.4
7/22/2021 4:15:00 AM 16.68 62.024 0.066 6.93 57.78 9.42
7/22/2021 4:30:00 AM 16.62 61.916 0.066 6.93 105.67 9.44
7/22/2021 4:45:00 AM 16.55 61.79 0.067 6.93 45.49 9.45
7/22/2021 5:00:00 AM 16.48 61.664 0.067 6.93 70.88 9.47
7/22/2021 5:15:00 AM 16.42 61.556 0.067 6.94 47.32 9.49
7/22/2021 5:30:00 AM 16.35 61.43 0.067 6.94 56.54 9.51
7/22/2021 5:45:00 AM 16.27 61.286 0.067 6.94 59.09 9.53
7/22/2021 6:00:00 AM 16.2 61.16 0.067 6.94 48.83 9.55
7/22/2021 6:15:00 AM 16.13 61.034 0.067 6.94 47.3 9.58
7/22/2021 6:30:00 AM 16.06 60.908 0.067 6.93 64.19 9.61
7/22/2021 6:45:00 AM 15.99 60.782 0.067 6.94 44.99 9.64
7/22/2021 7:00:00 AM 15.93 60.674 0.067 6.94 48.11 9.68
7/22/2021 7:15:00 AM 15.87 60.566 0.067 6.95 46.69 9.73
7/22/2021 7:30:00 AM 15.81 60.458 0.067 6.95 41.71 9.77
7/22/2021 7:45:00 AM 15.76 60.368 0.067 6.95 46.43 9.84
7/22/2021 8:00:00 AM 15.71 60.278 0.067 6.97 47.03 9.89
7/22/2021 8:15:00 AM 15.66 60.188 0.067 6.98 43.02 9.96
7/22/2021 8:30:00 AM 15.62 60.116 0.067 6.98 66.49 10.01
7/22/2021 8:45:00 AM 15.6 60.08 0.066 7 55.32 10.11
7/22/2021 9:00:00 AM 15.57 60.026 0.066 7.01 67.67 10.15
7/22/2021 9:15:00 AM 15.6 60.08 0.066 7.03 60.48 10.25
7/22/2021 9:30:00 AM 15.61 60.098 0.066 7.04 46.18 10.32
7/22/2021 9:45:00 AM 15.62 60.116 0.066 7.07 37.63 10.37
7/22/2021 10:00:00 AM 15.66 60.188 0.066 7.09 37.9 10.41
7/22/2021 10:15:00 AM 15.73 60.314 0.066 7.11 37.58 10.46
7/22/2021 10:30:00 AM 15.83 60.494 0.066 7.13 36.02 10.49
7/22/2021 10:45:00 AM 15.94 60.692 0.066 7.15 37.16 10.51
7/22/2021 11:00:00 AM 16.04 60.872 0.066 7.17 33.21 10.54
7/22/2021 11:15:00 AM 16.17 61.106 0.065 7.2 33.18 10.56
7/22/2021 11:30:00 AM 16.34 61.412 0.065 7.22 32.89 10.55
7/22/2021 11:45:00 AM 16.48 61.664 0.065 7.24 31.69 10.55
7/22/2021 12:00:00 PM 16.55 61.79 0.065 7.26 30.79 10.54
7/22/2021 12:15:00 PM 16.74 62.132 0.065 7.29 32.15 10.55
7/22/2021 12:30:00 PM 16.76 62.168 0.065 7.34 41.97 10.51
7/22/2021 12:45:00 PM 16.78 62.204 0.065 7.36 43.52 10.48
7/22/2021 1:00:00 PM 16.86 62.348 0.065 7.36 45.9 10.47
7/22/2021 1:15:00 PM 17.03 62.654 0.065 7.38 45.98 10.46
7/22/2021 1:30:00 PM 17.26 63.068 0.065 7.39 44.07 10.45
7/22/2021 1:45:00 PM 17.27 63.086 0.065 7.4 42.07 10.41
7/22/2021 2:00:00 PM 17.51 63.518 0.065 7.41 42.9 10.41
7/22/2021 2:15:00 PM 17.62 63.716 0.065 7.43 43.42 10.39
7/22/2021 2:30:00 PM 17.76 63.968 0.065 7.44 43.2 10.36
7/22/2021 2:45:00 PM 17.87 64.166 0.065 7.45 44.8 10.33
7/22/2021 3:00:00 PM 18.14 64.652 0.065 7.46 44.02 10.3
7/22/2021 3:15:00 PM 18.32 64.976 0.064 7.47 36.57 10.28
7/22/2021 3:30:00 PM 18.37 65.066 0.064 7.48 44.27 10.22
7/22/2021 3:45:00 PM 18.49 65.282 0.064 7.48 45.29 10.2
7/22/2021 4:00:00 PM 18.41 65.138 0.064 7.48 46.43 10.17
7/22/2021 4:15:00 PM 18.43 65.174 0.064 7.49 45.94 10.15
7/22/2021 4:30:00 PM 18.51 65.318 0.064 7.49 43.85 10.14
7/22/2021 4:45:00 PM 18.59 65.462 0.064 7.49 41.15 10.09
7/22/2021 5:00:00 PM 18.58 65.444 0.064 7.48 44.16 10.04
7/22/2021 5:15:00 PM 18.72 65.696 0.064 7.48 44.48 10.02
7/22/2021 5:30:00 PM 18.74 65.732 0.064 7.47 44.6 9.96
7/22/2021 5:45:00 PM 18.79 65.82201 0.065 7.47 43.43 9.91
7/22/2021 6:00:00 PM 18.8 65.84 0.065 7.46 15.28 9.88
7/22/2021 6:15:00 PM 18.78 65.804 0.065 7.43 15.51 9.82
7/22/2021 6:30:00 PM 18.72 65.696 0.065 7.41 15.52 9.75
7/22/2021 6:45:00 PM 18.66 65.588 0.065 7.38 15.71 9.69
7/22/2021 7:00:00 PM 18.62 65.516 0.065 7.36 15.61 9.66
7/22/2021 7:15:00 PM 18.56 65.408 0.065 7.32 15.48 9.61
7/22/2021 7:30:00 PM 18.48 65.264 0.065 7.3 15.31 9.56
7/22/2021 7:45:00 PM 18.39 65.102 0.065 7.28 14.43 9.51
7/22/2021 8:00:00 PM 18.29 64.922 0.065 7.25 14.2 9.47
7/22/2021 8:15:00 PM 18.2 64.76 0.065 7.22 14.17 9.42
7/22/2021 8:30:00 PM 18.11 64.598 0.063 7.2 14.42 9.38
7/22/2021 8:45:00 PM 18.02 64.436 0.066 7.17 13.87 9.34
7/22/2021 9:00:00 PM 17.94 64.292 0.066 7.15 13.67 9.31
7/22/2021 9:15:00 PM 17.86 64.148 0.066 7.14 14 9.3
7/22/2021 9:30:00 PM 17.78 64.004 0.066 7.12 13.9 9.29
7/22/2021 9:45:00 PM 17.7 63.86 0.066 7.11 14.04 9.28
7/22/2021 10:00:00 PM 17.63 63.734 0.066 7.09 14.16 9.28
7/22/2021 10:15:00 PM 17.55 63.59 0.066 7.08 14.4 9.29
7/22/2021 10:30:00 PM 17.48 63.464 0.066 7.08 14.2 9.29
7/22/2021 10:45:00 PM 17.41 63.338 0.066 7.07 14.22 9.3
7/22/2021 11:00:00 PM 17.33 63.194 0.066 7.06 14.36 9.31
7/22/2021 11:15:00 PM 17.26 63.068 0.067 7.05 14.36 9.32
7/22/2021 11:30:00 PM 17.18 62.924 0.067 7.04 14.37 9.33
7/22/2021 11:45:00 PM 17.11 62.798 0.067 7.05 14.36 9.34
7/23/2021 12:00:00 AM 17.04 62.672 0.067 7.03 14.18 9.36
7/23/2021 12:15:00 AM 16.96 62.528 0.067 7.04 14.21 9.37
7/23/2021 12:30:00 AM 16.89 62.402 0.067 7.02 14.36 9.38
7/23/2021 12:45:00 AM 16.82 62.276 0.067 7.02 14.47 9.4
7/23/2021 1:00:00 AM 16.76 62.168 0.067 7.02 14.4 9.42
7/23/2021 1:15:00 AM 16.7 62.06 0.067 7.01 14.27 9.43
7/23/2021 1:30:00 AM 16.64 61.952 0.067 7.01 13.8 9.44
7/23/2021 1:45:00 AM 16.58 61.844 0.067 7 13.63 9.45
7/23/2021 2:00:00 AM 16.52 61.736 0.067 7 13.78 9.47
7/23/2021 2:15:00 AM 16.45 61.61 0.067 7 13.94 9.48
7/23/2021 2:30:00 AM 16.39 61.502 0.067 7 14 9.5
7/23/2021 2:45:00 AM 16.33 61.394 0.067 7 14.09 9.51
7/23/2021 3:00:00 AM 16.27 61.286 0.068 6.99 13.99 9.52
7/23/2021 3:15:00 AM 16.22 61.196 0.068 6.99 14.27 9.54
7/23/2021 3:30:00 AM 16.16 61.088 0.068 7 14.96 9.55
7/23/2021 3:45:00 AM 16.11 60.998 0.068 7 15.04 9.57
7/23/2021 4:00:00 AM 16.06 60.908 0.068 6.98 14.77 9.58
7/23/2021 4:15:00 AM 16.01 60.818 0.068 6.98 14.88 9.59
7/23/2021 4:30:00 AM 15.96 60.728 0.068 6.98 14.74 9.61
7/23/2021 4:45:00 AM 15.92 60.656 0.068 6.99 14.95 9.62
7/23/2021 5:00:00 AM 15.87 60.566 0.068 6.99 14.65 9.63
7/23/2021 5:15:00 AM 15.82 60.476 0.068 6.98 14.6 9.65
7/23/2021 5:30:00 AM 15.77 60.386 0.068 6.99 14.38 9.66
7/23/2021 5:45:00 AM 15.72 60.296 0.068 6.98 14.5 9.67
7/23/2021 6:00:00 AM 15.67 60.206 0.068 6.98 14.67 9.69
7/23/2021 6:15:00 AM 15.62 60.116 0.068 6.98 14.51 9.71
7/23/2021 6:30:00 AM 15.58 60.044 0.068 6.98 14.66 9.74
7/23/2021 6:45:00 AM 15.54 59.972 0.068 6.99 14.65 9.79
7/23/2021 7:00:00 AM 15.5 59.9 0.068 6.99 14.61 9.84
7/23/2021 7:15:00 AM 15.48 59.864 0.068 7 14.45 9.93
7/23/2021 7:30:00 AM 15.45 59.81 0.068 7.01 14.77 10.01
7/23/2021 7:45:00 AM 15.42 59.756 0.068 7.02 14.79 10.06
7/23/2021 8:00:00 AM 15.4 59.72 0.068 7.04 14.85 10.12
7/23/2021 8:15:00 AM 15.4 59.72 0.068 7.05 14.58 10.18
7/23/2021 8:30:00 AM 15.43 59.774 0.068 7.06 14.21 10.23
7/23/2021 8:45:00 AM 15.46 59.828 0.067 7.08 14.79 10.28
7/23/2021 9:00:00 AM 15.5 59.9 0.067 7.09 14.72 10.33
7/23/2021 9:15:00 AM 15.56 60.008 0.067 7.11 14.75 10.36
7/23/2021 9:30:00 AM 15.64 60.152 0.067 7.12 14.78 10.39
7/23/2021 9:45:00 AM 15.72 60.296 0.067 7.14 14.74 10.42
7/23/2021 10:00:00 AM 15.83 60.494 0.067 7.15